PWSweather.com
Personal Weather Stations
Station Observations
OPENSRS
Liberty Village, Toronto, ON M6K 3M1

Liberty VillageToronto, ON M6K 3M1

Lat: 43.63831, Lon: -79.42566

Elevation: 303

Station Type: Davis Instruments Vantage Pro 2

weather.opensrs.com

High Low Average
Temperature 54.1°F12.3°C 51.3°F10.7°C 52.8°F11.6°C
Dew Point 40.0°F4.4°C 39.2°F4.0°C 39.6°F4.2°C
Winds 7.0 mph 11.3 kmh Calm Calm 3.0 mph ESE4.8 kmh ESE
Wind Gusts 8.0 mph12.9 kmh 2.0 mph3.2 kmh 8.0 mph12.9 kmh
Humidity 63% 58% 61%
Pressure 29.67 in1004.7 mb 29.66 in1004.4 mb -
Precipitation 0.00 in0.0 mm - -
Hour Temp Dew Point Humidity Winds Wind Gusts Pressure Precip Precip Rate Daily Precip Total
12:00 AM 52.3°F11.3°C 39.3°F4.1°C 61% 5.0 mph SE8.0 kmh SE 6.0 mph9.7 kmh 29.70 in1005.8 mb 0.00 in0.0 mm 0.00 in/hr0.0 mm/hr 0.00 in0.0 mm
12:03 AM 52.7°F11.5°C 39.6°F4.2°C 61% 1.0 mph ESE1.6 kmh ESE 9.0 mph14.5 kmh 29.70 in1005.8 mb 0.00 in0.0 mm 0.00 in/hr0.0 mm/hr 0.00 in0.0 mm
12:04 AM 52.7°F11.5°C 39.6°F4.2°C 61% Calm Calm 9.0 mph14.5 kmh 29.70 in1005.8 mb 0.00 in0.0 mm 0.00 in/hr0.0 mm/hr 0.00 in0.0 mm
12:05 AM 52.7°F11.5°C 39.6°F4.2°C 61% Calm Calm 9.0 mph14.5 kmh 29.70 in1005.8 mb 0.00 in0.0 mm 0.00 in/hr0.0 mm/hr 0.00 in0.0 mm
12:08 AM 53.0°F11.7°C 39.9°F4.4°C 61% Calm Calm 9.0 mph14.5 kmh 29.70 in1005.8 mb 0.00 in0.0 mm 0.00 in/hr0.0 mm/hr 0.00 in0.0 mm
12:09 AM 53.0°F11.7°C 39.5°F4.2°C 60% Calm Calm 9.0 mph14.5 kmh 29.70 in1005.8 mb 0.00 in0.0 mm 0.00 in/hr0.0 mm/hr 0.00 in0.0 mm
12:10 AM 53.1°F11.7°C 39.6°F4.2°C 60% 1.0 mph ESE1.6 kmh ESE 9.0 mph14.5 kmh 29.70 in1005.8 mb 0.00 in0.0 mm 0.00 in/hr0.0 mm/hr 0.00 in0.0 mm
12:13 AM 53.3°F11.8°C 39.8°F4.3°C 60% 1.0 mph ESE1.6 kmh ESE 9.0 mph14.5 kmh 29.69 in1005.4 mb 0.00 in0.0 mm 0.00 in/hr0.0 mm/hr 0.00 in0.0 mm
12:14 AM 53.3°F11.8°C 39.8°F4.3°C 60% 2.0 mph ESE3.2 kmh ESE 9.0 mph14.5 kmh 29.69 in1005.4 mb 0.00 in0.0 mm 0.00 in/hr0.0 mm/hr 0.00 in0.0 mm
12:15 AM 53.4°F11.9°C 39.5°F4.2°C 59% 1.0 mph ESE1.6 kmh ESE 9.0 mph14.5 kmh 29.69 in1005.4 mb 0.00 in0.0 mm 0.00 in/hr0.0 mm/hr 0.00 in0.0 mm
12:18 AM 53.6°F12.0°C 39.6°F4.2°C 59% Calm Calm 9.0 mph14.5 kmh 29.69 in1005.4 mb 0.00 in0.0 mm 0.00 in/hr0.0 mm/hr 0.00 in0.0 mm
12:19 AM 53.6°F12.0°C 39.6°F4.2°C 59% 1.0 mph ESE1.6 kmh ESE 9.0 mph14.5 kmh 29.69 in1005.4 mb 0.00 in0.0 mm 0.00 in/hr0.0 mm/hr 0.00 in0.0 mm
12:20 AM 53.7°F12.1°C 39.7°F4.3°C 59% 2.0 mph ESE3.2 kmh ESE 9.0 mph14.5 kmh 29.69 in1005.4 mb 0.00 in0.0 mm 0.00 in/hr0.0 mm/hr 0.00 in0.0 mm
12:23 AM 53.9°F12.2°C 39.5°F4.2°C 58% Calm Calm 9.0 mph14.5 kmh 29.69 in1005.4 mb 0.00 in0.0 mm 0.00 in/hr0.0 mm/hr 0.00 in0.0 mm
12:24 AM 53.9°F12.2°C 39.5°F4.2°C 58% Calm Calm 9.0 mph14.5 kmh 29.69 in1005.4 mb 0.00 in0.0 mm 0.00 in/hr0.0 mm/hr 0.00 in0.0 mm
12:25 AM 54.0°F12.2°C 39.6°F4.2°C 58% Calm Calm 9.0 mph14.5 kmh 29.69 in1005.4 mb 0.00 in0.0 mm 0.00 in/hr0.0 mm/hr 0.00 in0.0 mm
12:28 AM 54.1°F12.3°C 39.2°F4.0°C 57% Calm Calm 9.0 mph14.5 kmh 29.69 in1005.4 mb 0.00 in0.0 mm 0.00 in/hr0.0 mm/hr 0.00 in0.0 mm
12:29 AM 54.1°F12.3°C 39.2°F4.0°C 57% Calm Calm 9.0 mph14.5 kmh 29.69 in1005.4 mb 0.00 in0.0 mm 0.00 in/hr0.0 mm/hr 0.00 in0.0 mm
12:30 AM 54.2°F12.3°C 39.3°F4.1°C 57% 2.0 mph ESE3.2 kmh ESE 9.0 mph14.5 kmh 29.69 in1005.4 mb 0.00 in0.0 mm 0.00 in/hr0.0 mm/hr 0.00 in0.0 mm
12:33 AM 54.3°F12.4°C 39.4°F4.1°C 57% 1.0 mph ESE1.6 kmh ESE 9.0 mph14.5 kmh 29.69 in1005.4 mb 0.00 in0.0 mm 0.00 in/hr0.0 mm/hr 0.00 in0.0 mm
12:34 AM 54.3°F12.4°C 39.4°F4.1°C 57% Calm Calm 9.0 mph14.5 kmh 29.69 in1005.4 mb 0.00 in0.0 mm 0.00 in/hr0.0 mm/hr 0.00 in0.0 mm
12:35 AM 54.3°F12.4°C 39.4°F4.1°C 57% Calm Calm 9.0 mph14.5 kmh 29.69 in1005.4 mb 0.00 in0.0 mm 0.00 in/hr0.0 mm/hr 0.00 in0.0 mm
12:38 AM 54.2°F12.3°C 39.3°F4.1°C 57% Calm Calm 9.0 mph14.5 kmh 29.68 in1005.1 mb 0.00 in0.0 mm 0.00 in/hr0.0 mm/hr 0.00 in0.0 mm
12:39 AM 54.2°F12.3°C 39.3°F4.1°C 57% Calm Calm 9.0 mph14.5 kmh 29.68 in1005.1 mb 0.00 in0.0 mm 0.00 in/hr0.0 mm/hr 0.00 in0.0 mm
12:40 AM 54.2°F12.3°C 39.3°F4.1°C 57% Calm Calm 9.0 mph14.5 kmh 29.68 in1005.1 mb 0.00 in0.0 mm 0.00 in/hr0.0 mm/hr 0.00 in0.0 mm
12:43 AM 54.0°F12.2°C 39.6°F4.2°C 58% 1.0 mph ESE1.6 kmh ESE 9.0 mph14.5 kmh 29.68 in1005.1 mb 0.00 in0.0 mm 0.00 in/hr0.0 mm/hr 0.00 in0.0 mm
12:44 AM 53.9°F12.2°C 39.5°F4.2°C 58% 1.0 mph ESE1.6 kmh ESE 9.0 mph14.5 kmh 29.68 in1005.1 mb 0.00 in0.0 mm 0.00 in/hr0.0 mm/hr 0.00 in0.0 mm
12:45 AM 53.8°F12.1°C 39.4°F4.1°C 58% 1.0 mph ESE1.6 kmh ESE 9.0 mph14.5 kmh 29.68 in1005.1 mb 0.00 in0.0 mm 0.00 in/hr0.0 mm/hr 0.00 in0.0 mm
12:48 AM 53.5°F11.9°C 39.5°F4.2°C 59% Calm Calm 9.0 mph14.5 kmh 29.68 in1005.1 mb 0.00 in0.0 mm 0.00 in/hr0.0 mm/hr 0.00 in0.0 mm
12:49 AM 53.4°F11.9°C 39.5°F4.2°C 59% Calm Calm 9.0 mph14.5 kmh 29.68 in1005.1 mb 0.00 in0.0 mm 0.00 in/hr0.0 mm/hr 0.00 in0.0 mm
12:50 AM 53.3°F11.8°C 39.8°F4.3°C 60% Calm Calm 9.0 mph14.5 kmh 29.68 in1005.1 mb 0.00 in0.0 mm 0.00 in/hr0.0 mm/hr 0.00 in0.0 mm
12:53 AM 53.1°F11.7°C 39.6°F4.2°C 60% Calm Calm 9.0 mph14.5 kmh 29.68 in1005.1 mb 0.00 in0.0 mm 0.00 in/hr0.0 mm/hr 0.00 in0.0 mm
12:54 AM 53.1°F11.7°C 39.6°F4.2°C 60% 1.0 mph ESE1.6 kmh ESE 9.0 mph14.5 kmh 29.68 in1005.1 mb 0.00 in0.0 mm 0.00 in/hr0.0 mm/hr 0.00 in0.0 mm
12:55 AM 53.1°F11.7°C 39.6°F4.2°C 60% Calm Calm 9.0 mph14.5 kmh 29.67 in1004.7 mb 0.00 in0.0 mm 0.00 in/hr0.0 mm/hr 0.00 in0.0 mm
12:58 AM 53.0°F11.7°C 39.9°F4.4°C 61% 2.0 mph ESE3.2 kmh ESE 9.0 mph14.5 kmh 29.67 in1004.7 mb 0.00 in0.0 mm 0.00 in/hr0.0 mm/hr 0.00 in0.0 mm
12:59 AM 52.9°F11.6°C 39.8°F4.3°C 61% 2.0 mph ESE3.2 kmh ESE 9.0 mph14.5 kmh 29.67 in1004.7 mb 0.00 in0.0 mm 0.00 in/hr0.0 mm/hr 0.00 in0.0 mm
01:00 AM 52.9°F11.6°C 39.8°F4.3°C 61% 2.0 mph ESE3.2 kmh ESE 2.0 mph3.2 kmh 29.67 in1004.7 mb 0.00 in0.0 mm 0.00 in/hr0.0 mm/hr 0.00 in0.0 mm
01:03 AM 52.9°F11.6°C 39.8°F4.3°C 61% 5.0 mph ESE8.0 kmh ESE 7.0 mph11.3 kmh 29.66 in1004.4 mb 0.00 in0.0 mm 0.00 in/hr0.0 mm/hr 0.00 in0.0 mm
01:04 AM 53.0°F11.7°C 39.9°F4.4°C 61% 5.0 mph ESE8.0 kmh ESE 8.0 mph12.9 kmh 29.66 in1004.4 mb 0.00 in0.0 mm 0.00 in/hr0.0 mm/hr 0.00 in0.0 mm
01:05 AM 53.1°F11.7°C 40.0°F4.4°C 61% 7.0 mph ESE11.3 kmh ESE 8.0 mph12.9 kmh 29.66 in1004.4 mb 0.00 in0.0 mm 0.00 in/hr0.0 mm/hr 0.00 in0.0 mm
01:08 AM 53.6°F12.0°C 39.6°F4.2°C 59% 4.0 mph ESE6.4 kmh ESE 8.0 mph12.9 kmh 29.66 in1004.4 mb 0.00 in0.0 mm 0.00 in/hr0.0 mm/hr 0.00 in0.0 mm
01:09 AM 53.7°F12.1°C 39.7°F4.3°C 59% 1.0 mph ESE1.6 kmh ESE 8.0 mph12.9 kmh 29.66 in1004.4 mb 0.00 in0.0 mm 0.00 in/hr0.0 mm/hr 0.00 in0.0 mm
01:10 AM 53.8°F12.1°C 39.8°F4.3°C 59% 1.0 mph ESE1.6 kmh ESE 8.0 mph12.9 kmh 29.66 in1004.4 mb 0.00 in0.0 mm 0.00 in/hr0.0 mm/hr 0.00 in0.0 mm
01:13 AM 54.1°F12.3°C 39.7°F4.3°C 58% 7.0 mph ESE11.3 kmh ESE 8.0 mph12.9 kmh 29.67 in1004.7 mb 0.00 in0.0 mm 0.00 in/hr0.0 mm/hr 0.00 in0.0 mm
01:14 AM 54.1°F12.3°C 39.7°F4.3°C 58% 2.0 mph ESE3.2 kmh ESE 8.0 mph12.9 kmh 29.67 in1004.7 mb 0.00 in0.0 mm 0.00 in/hr0.0 mm/hr 0.00 in0.0 mm
01:15 AM 54.1°F12.3°C 39.7°F4.3°C 58% 4.0 mph ESE6.4 kmh ESE 8.0 mph12.9 kmh 29.67 in1004.7 mb 0.00 in0.0 mm 0.00 in/hr0.0 mm/hr 0.00 in0.0 mm
01:18 AM 53.6°F12.0°C 39.6°F4.2°C 59% 2.0 mph ESE3.2 kmh ESE 8.0 mph12.9 kmh 29.67 in1004.7 mb 0.00 in0.0 mm 0.00 in/hr0.0 mm/hr 0.00 in0.0 mm
01:19 AM 53.4°F11.9°C 39.9°F4.4°C 60% 2.0 mph ESE3.2 kmh ESE 8.0 mph12.9 kmh 29.67 in1004.7 mb 0.00 in0.0 mm 0.00 in/hr0.0 mm/hr 0.00 in0.0 mm
01:20 AM 53.2°F11.8°C 39.7°F4.3°C 60% 2.0 mph ESE3.2 kmh ESE 8.0 mph12.9 kmh 29.67 in1004.7 mb 0.00 in0.0 mm 0.00 in/hr0.0 mm/hr 0.00 in0.0 mm
01:23 AM 52.9°F11.6°C 39.4°F4.1°C 60% 2.0 mph ESE3.2 kmh ESE 8.0 mph12.9 kmh 29.67 in1004.7 mb 0.00 in0.0 mm 0.00 in/hr0.0 mm/hr 0.00 in0.0 mm
01:24 AM 52.7°F11.5°C 39.2°F4.0°C 60% 4.0 mph ESE6.4 kmh ESE 8.0 mph12.9 kmh 29.66 in1004.4 mb 0.00 in0.0 mm 0.00 in/hr0.0 mm/hr 0.00 in0.0 mm
01:25 AM 52.6°F11.4°C 39.6°F4.2°C 61% 2.0 mph ESE3.2 kmh ESE 8.0 mph12.9 kmh 29.66 in1004.4 mb 0.00 in0.0 mm 0.00 in/hr0.0 mm/hr 0.00 in0.0 mm
01:28 AM 52.3°F11.3°C 39.3°F4.1°C 61% Calm Calm 8.0 mph12.9 kmh 29.66 in1004.4 mb 0.00 in0.0 mm 0.00 in/hr0.0 mm/hr 0.00 in0.0 mm
01:29 AM 52.2°F11.2°C 39.6°F4.2°C 62% 2.0 mph ESE3.2 kmh ESE 8.0 mph12.9 kmh 29.66 in1004.4 mb 0.00 in0.0 mm 0.00 in/hr0.0 mm/hr 0.00 in0.0 mm
01:30 AM 52.1°F11.2°C 39.5°F4.2°C 62% 4.0 mph ESE6.4 kmh ESE 8.0 mph12.9 kmh 29.66 in1004.4 mb 0.00 in0.0 mm 0.00 in/hr0.0 mm/hr 0.00 in0.0 mm
01:33 AM 51.8°F11.0°C 39.6°F4.2°C 63% Calm Calm 8.0 mph12.9 kmh 29.66 in1004.4 mb 0.00 in0.0 mm 0.00 in/hr0.0 mm/hr 0.00 in0.0 mm
01:34 AM 51.6°F10.9°C 39.4°F4.1°C 63% Calm Calm 8.0 mph12.9 kmh 29.66 in1004.4 mb 0.00 in0.0 mm 0.00 in/hr0.0 mm/hr 0.00 in0.0 mm
01:35 AM 51.6°F10.9°C 39.4°F4.1°C 63% 1.0 mph ESE1.6 kmh ESE 8.0 mph12.9 kmh 29.66 in1004.4 mb 0.00 in0.0 mm 0.00 in/hr0.0 mm/hr 0.00 in0.0 mm
01:38 AM 51.3°F10.7°C 39.2°F4.0°C 63% Calm Calm 8.0 mph12.9 kmh 29.66 in1004.4 mb 0.00 in0.0 mm 0.00 in/hr0.0 mm/hr 0.00 in0.0 mm
01:39 AM 51.3°F10.7°C 39.2°F4.0°C 63% 4.0 mph ESE6.4 kmh ESE 8.0 mph12.9 kmh 29.66 in1004.4 mb 0.00 in0.0 mm 0.00 in/hr0.0 mm/hr 0.00 in0.0 mm
01:40 AM 51.2°F10.7°C 39.5°F4.2°C 64% 1.0 mph ESE1.6 kmh ESE 8.0 mph12.9 kmh 29.66 in1004.4 mb 0.00 in0.0 mm 0.00 in/hr0.0 mm/hr 0.00 in0.0 mm
01:43 AM 51.1°F10.6°C 39.4°F4.1°C 64% 2.0 mph ESE3.2 kmh ESE 8.0 mph12.9 kmh 29.66 in1004.4 mb 0.00 in0.0 mm 0.00 in/hr0.0 mm/hr 0.00 in0.0 mm
01:44 AM 51.1°F10.6°C 39.4°F4.1°C 64% 1.0 mph ESE1.6 kmh ESE 8.0 mph12.9 kmh 29.66 in1004.4 mb 0.00 in0.0 mm 0.00 in/hr0.0 mm/hr 0.00 in0.0 mm
01:45 AM 51.1°F10.6°C 39.4°F4.1°C 64% 1.0 mph ESE1.6 kmh ESE 8.0 mph12.9 kmh 29.66 in1004.4 mb 0.00 in0.0 mm 0.00 in/hr0.0 mm/hr 0.00 in0.0 mm
01:48 AM 50.9°F10.5°C 39.2°F4.0°C 64% Calm Calm 8.0 mph12.9 kmh 29.66 in1004.4 mb 0.00 in0.0 mm 0.00 in/hr0.0 mm/hr 0.00 in0.0 mm
01:49 AM 50.9°F10.5°C 39.2°F4.0°C 64% Calm Calm 8.0 mph12.9 kmh 29.66 in1004.4 mb 0.00 in0.0 mm 0.00 in/hr0.0 mm/hr 0.00 in0.0 mm
01:50 AM 50.9°F10.5°C 39.2°F4.0°C 64% 2.0 mph ESE3.2 kmh ESE 8.0 mph12.9 kmh 29.66 in1004.4 mb 0.00 in0.0 mm 0.00 in/hr0.0 mm/hr 0.00 in0.0 mm
01:53 AM 50.9°F10.5°C 39.6°F4.2°C 65% 5.0 mph ESE8.0 kmh ESE 8.0 mph12.9 kmh 29.66 in1004.4 mb 0.00 in0.0 mm 0.00 in/hr0.0 mm/hr 0.00 in0.0 mm
01:54 AM 50.8°F10.4°C 39.5°F4.2°C 65% 1.0 mph ESE1.6 kmh ESE 8.0 mph12.9 kmh 29.66 in1004.4 mb 0.00 in0.0 mm 0.00 in/hr0.0 mm/hr 0.00 in0.0 mm
01:55 AM 50.8°F10.4°C 39.5°F4.2°C 65% Calm Calm 8.0 mph12.9 kmh 29.66 in1004.4 mb 0.00 in0.0 mm 0.00 in/hr0.0 mm/hr 0.00 in0.0 mm
01:58 AM 50.7°F10.4°C 39.4°F4.1°C 65% Calm Calm 8.0 mph12.9 kmh 29.66 in1004.4 mb 0.00 in0.0 mm 0.00 in/hr0.0 mm/hr 0.00 in0.0 mm
01:59 AM 50.7°F10.4°C 39.4°F4.1°C 65% Calm Calm 8.0 mph12.9 kmh 29.66 in1004.4 mb 0.00 in0.0 mm 0.00 in/hr0.0 mm/hr 0.00 in0.0 mm
02:00 AM 50.7°F10.4°C 39.4°F4.1°C 65% Calm Calm -- 29.66 in1004.4 mb 0.00 in0.0 mm 0.00 in/hr0.0 mm/hr 0.00 in0.0 mm
02:03 AM 50.6°F10.3°C 39.7°F4.3°C 66% Calm Calm -- 29.65 in1004.1 mb 0.00 in0.0 mm 0.00 in/hr0.0 mm/hr 0.00 in0.0 mm
02:04 AM 50.6°F10.3°C 39.7°F4.3°C 66% Calm Calm 1.0 mph1.6 kmh 29.66 in1004.4 mb 0.00 in0.0 mm 0.00 in/hr0.0 mm/hr 0.00 in0.0 mm
02:05 AM 50.6°F10.3°C 39.7°F4.3°C 66% 5.0 mph ESE8.0 kmh ESE 5.0 mph8.0 kmh 29.66 in1004.4 mb 0.00 in0.0 mm 0.00 in/hr0.0 mm/hr 0.00 in0.0 mm
02:08 AM 50.6°F10.3°C 39.3°F4.1°C 65% 1.0 mph ESE1.6 kmh ESE 6.0 mph9.7 kmh 29.65 in1004.1 mb 0.00 in0.0 mm 0.00 in/hr0.0 mm/hr 0.00 in0.0 mm
02:09 AM 50.6°F10.3°C 39.3°F4.1°C 65% Calm Calm 6.0 mph9.7 kmh 29.65 in1004.1 mb 0.00 in0.0 mm 0.00 in/hr0.0 mm/hr 0.00 in0.0 mm
02:10 AM 50.6°F10.3°C 39.3°F4.1°C 65% Calm Calm 6.0 mph9.7 kmh 29.65 in1004.1 mb 0.00 in0.0 mm 0.00 in/hr0.0 mm/hr 0.00 in0.0 mm
02:13 AM 50.7°F10.4°C 39.4°F4.1°C 65% Calm Calm 6.0 mph9.7 kmh 29.65 in1004.1 mb 0.00 in0.0 mm 0.00 in/hr0.0 mm/hr 0.00 in0.0 mm
02:14 AM 50.7°F10.4°C 39.4°F4.1°C 65% 2.0 mph ESE3.2 kmh ESE 6.0 mph9.7 kmh 29.65 in1004.1 mb 0.00 in0.0 mm 0.00 in/hr0.0 mm/hr 0.00 in0.0 mm
02:15 AM 50.7°F10.4°C 39.4°F4.1°C 65% 1.0 mph ESE1.6 kmh ESE 6.0 mph9.7 kmh 29.64 in1003.7 mb 0.00 in0.0 mm 0.00 in/hr0.0 mm/hr 0.00 in0.0 mm
02:18 AM 50.9°F10.5°C 39.6°F4.2°C 65% 4.0 mph ESE6.4 kmh ESE 6.0 mph9.7 kmh 29.64 in1003.7 mb 0.00 in0.0 mm 0.00 in/hr0.0 mm/hr 0.00 in0.0 mm
02:19 AM 51.0°F10.6°C 39.7°F4.3°C 65% 2.0 mph ESE3.2 kmh ESE 6.0 mph9.7 kmh 29.64 in1003.7 mb 0.00 in0.0 mm 0.00 in/hr0.0 mm/hr 0.00 in0.0 mm
02:20 AM 51.0°F10.6°C 39.7°F4.3°C 65% 1.0 mph ESE1.6 kmh ESE 6.0 mph9.7 kmh 29.64 in1003.7 mb 0.00 in0.0 mm 0.00 in/hr0.0 mm/hr 0.00 in0.0 mm
02:23 AM 51.2°F10.7°C 39.5°F4.2°C 64% 5.0 mph ESE8.0 kmh ESE 6.0 mph9.7 kmh 29.63 in1003.4 mb 0.00 in0.0 mm 0.00 in/hr0.0 mm/hr 0.00 in0.0 mm
02:24 AM 51.2°F10.7°C 39.5°F4.2°C 64% 4.0 mph ESE6.4 kmh ESE 6.0 mph9.7 kmh 29.63 in1003.4 mb 0.00 in0.0 mm 0.00 in/hr0.0 mm/hr 0.00 in0.0 mm
02:25 AM 51.3°F10.7°C 39.6°F4.2°C 64% 1.0 mph ESE1.6 kmh ESE 6.0 mph9.7 kmh 29.63 in1003.4 mb 0.00 in0.0 mm 0.00 in/hr0.0 mm/hr 0.00 in0.0 mm
02:28 AM 51.5°F10.8°C 40.1°F4.5°C 65% 5.0 mph ESE8.0 kmh ESE 6.0 mph9.7 kmh 29.62 in1003.0 mb 0.00 in0.0 mm 0.00 in/hr0.0 mm/hr 0.00 in0.0 mm
02:29 AM 51.6°F10.9°C 39.8°F4.3°C 64% 8.0 mph E12.9 kmh E 8.0 mph12.9 kmh 29.62 in1003.0 mb 0.00 in0.0 mm 0.00 in/hr0.0 mm/hr 0.00 in0.0 mm
02:30 AM 51.6°F10.9°C 39.8°F4.3°C 64% 5.0 mph E8.0 kmh E 8.0 mph12.9 kmh 29.62 in1003.0 mb 0.00 in0.0 mm 0.00 in/hr0.0 mm/hr 0.00 in0.0 mm
02:33 AM 51.9°F11.1°C 40.1°F4.5°C 64% 4.0 mph E6.4 kmh E 8.0 mph12.9 kmh 29.62 in1003.0 mb 0.00 in0.0 mm 0.00 in/hr0.0 mm/hr 0.00 in0.0 mm
02:34 AM 52.0°F11.1°C 40.2°F4.6°C 64% 4.0 mph E6.4 kmh E 8.0 mph12.9 kmh 29.63 in1003.4 mb 0.00 in0.0 mm 0.00 in/hr0.0 mm/hr 0.00 in0.0 mm
02:35 AM 52.0°F11.1°C 40.2°F4.6°C 64% 4.0 mph E6.4 kmh E 8.0 mph12.9 kmh 29.63 in1003.4 mb 0.00 in0.0 mm 0.00 in/hr0.0 mm/hr 0.00 in0.0 mm
02:38 AM 52.1°F11.2°C 39.9°F4.4°C 63% 1.0 mph E1.6 kmh E 8.0 mph12.9 kmh 29.64 in1003.7 mb 0.00 in0.0 mm 0.00 in/hr0.0 mm/hr 0.00 in0.0 mm
02:39 AM 52.1°F11.2°C 39.9°F4.4°C 63% 8.0 mph E12.9 kmh E 8.0 mph12.9 kmh 29.64 in1003.7 mb 0.00 in0.0 mm 0.00 in/hr0.0 mm/hr 0.00 in0.0 mm
02:40 AM 52.0°F11.1°C 39.8°F4.3°C 63% 2.0 mph SSE3.2 kmh SSE 13.0 mph20.9 kmh 29.65 in1004.1 mb 0.00 in0.0 mm 0.00 in/hr0.0 mm/hr 0.00 in0.0 mm
02:43 AM 50.7°F10.4°C 38.6°F3.7°C 63% 4.0 mph SSE6.4 kmh SSE 13.0 mph20.9 kmh 29.65 in1004.1 mb 0.00 in0.0 mm 0.00 in/hr0.0 mm/hr 0.00 in0.0 mm
02:44 AM 50.2°F10.1°C 38.1°F3.4°C 63% 5.0 mph SSE8.0 kmh SSE 13.0 mph20.9 kmh 29.64 in1003.7 mb 0.00 in0.0 mm 0.00 in/hr0.0 mm/hr 0.00 in0.0 mm
02:45 AM 49.9°F9.9°C 38.2°F3.4°C 64% 4.0 mph SSE6.4 kmh SSE 13.0 mph20.9 kmh 29.64 in1003.7 mb 0.00 in0.0 mm 0.00 in/hr0.0 mm/hr 0.00 in0.0 mm
02:48 AM 49.4°F9.7°C 38.1°F3.4°C 65% 1.0 mph SSE1.6 kmh SSE 13.0 mph20.9 kmh 29.64 in1003.7 mb 0.00 in0.0 mm 0.00 in/hr0.0 mm/hr 0.00 in0.0 mm
02:49 AM 49.3°F9.6°C 38.4°F3.6°C 66% 2.0 mph SSE3.2 kmh SSE 13.0 mph20.9 kmh 29.64 in1003.7 mb 0.00 in0.0 mm 0.00 in/hr0.0 mm/hr 0.00 in0.0 mm
02:50 AM 49.1°F9.5°C 38.3°F3.5°C 66% 4.0 mph SSE6.4 kmh SSE 13.0 mph20.9 kmh 29.64 in1003.7 mb 0.00 in0.0 mm 0.00 in/hr0.0 mm/hr 0.00 in0.0 mm
02:53 AM 48.8°F9.3°C 38.0°F3.3°C 66% 2.0 mph SSE3.2 kmh SSE 13.0 mph20.9 kmh 29.64 in1003.7 mb 0.00 in0.0 mm 0.00 in/hr0.0 mm/hr 0.00 in0.0 mm
02:54 AM 48.6°F9.2°C 37.8°F3.2°C 66% 1.0 mph SSE1.6 kmh SSE 13.0 mph20.9 kmh 29.64 in1003.7 mb 0.00 in0.0 mm 0.00 in/hr0.0 mm/hr 0.00 in0.0 mm
02:55 AM 48.5°F9.2°C 37.7°F3.2°C 66% 4.0 mph SSE6.4 kmh SSE 13.0 mph20.9 kmh 29.64 in1003.7 mb 0.00 in0.0 mm 0.00 in/hr0.0 mm/hr 0.00 in0.0 mm
02:58 AM 48.2°F9.0°C 37.8°F3.2°C 67% Calm Calm 13.0 mph20.9 kmh 29.64 in1003.7 mb 0.00 in0.0 mm 0.00 in/hr0.0 mm/hr 0.00 in0.0 mm
02:59 AM 48.1°F8.9°C 38.1°F3.4°C 68% Calm Calm 13.0 mph20.9 kmh 29.64 in1003.7 mb 0.00 in0.0 mm 0.00 in/hr0.0 mm/hr 0.00 in0.0 mm
03:00 AM 48.2°F9.0°C 38.2°F3.4°C 68% Calm Calm 1.0 mph1.6 kmh 29.63 in1003.4 mb 0.00 in0.0 mm 0.00 in/hr0.0 mm/hr 0.00 in0.0 mm
03:03 AM 48.2°F9.0°C 38.5°F3.6°C 69% 1.0 mph SSE1.6 kmh SSE 2.0 mph3.2 kmh 29.63 in1003.4 mb 0.00 in0.0 mm 0.00 in/hr0.0 mm/hr 0.00 in0.0 mm
03:04 AM 48.3°F9.1°C 38.6°F3.7°C 69% 2.0 mph SSE3.2 kmh SSE 4.0 mph6.4 kmh 29.62 in1003.0 mb 0.00 in0.0 mm 0.00 in/hr0.0 mm/hr 0.00 in0.0 mm
03:05 AM 48.3°F9.1°C 38.6°F3.7°C 69% 1.0 mph SSE1.6 kmh SSE 4.0 mph6.4 kmh 29.62 in1003.0 mb 0.00 in0.0 mm 0.00 in/hr0.0 mm/hr 0.00 in0.0 mm
03:08 AM 48.4°F9.1°C 38.7°F3.7°C 69% Calm Calm 4.0 mph6.4 kmh 29.62 in1003.0 mb 0.00 in0.0 mm 0.00 in/hr0.0 mm/hr 0.00 in0.0 mm
03:09 AM 48.4°F9.1°C 38.7°F3.7°C 69% Calm Calm 4.0 mph6.4 kmh 29.63 in1003.4 mb 0.00 in0.0 mm 0.00 in/hr0.0 mm/hr 0.00 in0.0 mm
03:10 AM 48.4°F9.1°C 38.7°F3.7°C 69% Calm Calm 4.0 mph6.4 kmh 29.63 in1003.4 mb 0.00 in0.0 mm 0.00 in/hr0.0 mm/hr 0.00 in0.0 mm
03:13 AM 48.7°F9.3°C 39.4°F4.1°C 70% Calm Calm 4.0 mph6.4 kmh 29.63 in1003.4 mb 0.00 in0.0 mm 0.00 in/hr0.0 mm/hr 0.00 in0.0 mm
03:14 AM 48.8°F9.3°C 39.5°F4.2°C 70% Calm Calm 4.0 mph6.4 kmh 29.62 in1003.0 mb 0.00 in0.0 mm 0.00 in/hr0.0 mm/hr 0.00 in0.0 mm
03:15 AM 48.9°F9.4°C 39.6°F4.2°C 70% Calm Calm 4.0 mph6.4 kmh 29.62 in1003.0 mb 0.00 in0.0 mm 0.00 in/hr0.0 mm/hr 0.00 in0.0 mm
03:18 AM 49.2°F9.6°C 39.5°F4.2°C 69% Calm Calm 4.0 mph6.4 kmh 29.63 in1003.4 mb 0.00 in0.0 mm 0.00 in/hr0.0 mm/hr 0.00 in0.0 mm
03:19 AM 49.3°F9.6°C 39.6°F4.2°C 69% Calm Calm 4.0 mph6.4 kmh 29.63 in1003.4 mb 0.00 in0.0 mm 0.00 in/hr0.0 mm/hr 0.00 in0.0 mm
03:20 AM 49.3°F9.6°C 39.6°F4.2°C 69% 2.0 mph SSE3.2 kmh SSE 4.0 mph6.4 kmh 29.63 in1003.4 mb 0.00 in0.0 mm 0.00 in/hr0.0 mm/hr 0.00 in0.0 mm
03:23 AM 49.5°F9.7°C 39.8°F4.3°C 69% 1.0 mph SSE1.6 kmh SSE 4.0 mph6.4 kmh 29.63 in1003.4 mb 0.00 in0.0 mm 0.00 in/hr0.0 mm/hr 0.00 in0.0 mm
03:24 AM 49.5°F9.7°C 39.4°F4.1°C 68% 2.0 mph SSE3.2 kmh SSE 4.0 mph6.4 kmh 29.63 in1003.4 mb 0.00 in0.0 mm 0.00 in/hr0.0 mm/hr 0.00 in0.0 mm
03:25 AM 49.6°F9.8°C 39.5°F4.2°C 68% Calm Calm 4.0 mph6.4 kmh 29.63 in1003.4 mb 0.00 in0.0 mm 0.00 in/hr0.0 mm/hr 0.00 in0.0 mm
03:28 AM 49.7°F9.8°C 39.6°F4.2°C 68% Calm Calm 4.0 mph6.4 kmh 29.62 in1003.0 mb 0.00 in0.0 mm 0.00 in/hr0.0 mm/hr 0.00 in0.0 mm
03:29 AM 49.7°F9.8°C 39.6°F4.2°C 68% Calm Calm 4.0 mph6.4 kmh 29.62 in1003.0 mb 0.00 in0.0 mm 0.00 in/hr0.0 mm/hr 0.00 in0.0 mm
03:30 AM 49.8°F9.9°C 39.7°F4.3°C 68% Calm Calm 4.0 mph6.4 kmh 29.62 in1003.0 mb 0.00 in0.0 mm 0.00 in/hr0.0 mm/hr 0.00 in0.0 mm
03:33 AM 50.0°F10.0°C 39.9°F4.4°C 68% 2.0 mph SSE3.2 kmh SSE 4.0 mph6.4 kmh 29.62 in1003.0 mb 0.00 in0.0 mm 0.00 in/hr0.0 mm/hr 0.00 in0.0 mm
03:34 AM 50.1°F10.1°C 40.0°F4.4°C 68% Calm Calm 4.0 mph6.4 kmh 29.62 in1003.0 mb 0.00 in0.0 mm 0.00 in/hr0.0 mm/hr 0.00 in0.0 mm
03:35 AM 50.2°F10.1°C 40.1°F4.5°C 68% 4.0 mph SSE6.4 kmh SSE 4.0 mph6.4 kmh 29.62 in1003.0 mb 0.00 in0.0 mm 0.00 in/hr0.0 mm/hr 0.00 in0.0 mm
03:38 AM 50.4°F10.2°C 39.9°F4.4°C 67% 1.0 mph SSE1.6 kmh SSE 5.0 mph8.0 kmh 29.62 in1003.0 mb 0.00 in0.0 mm 0.00 in/hr0.0 mm/hr 0.00 in0.0 mm
03:39 AM 50.4°F10.2°C 39.9°F4.4°C 67% 4.0 mph SSE6.4 kmh SSE 5.0 mph8.0 kmh 29.62 in1003.0 mb 0.00 in0.0 mm 0.00 in/hr0.0 mm/hr 0.00 in0.0 mm
03:40 AM 50.4°F10.2°C 39.9°F4.4°C 67% 2.0 mph SSE3.2 kmh SSE 5.0 mph8.0 kmh 29.62 in1003.0 mb 0.00 in0.0 mm 0.00 in/hr0.0 mm/hr 0.00 in0.0 mm
03:43 AM 50.5°F10.3°C 40.0°F4.4°C 67% 4.0 mph SSE6.4 kmh SSE 6.0 mph9.7 kmh 29.62 in1003.0 mb 0.00 in0.0 mm 0.00 in/hr0.0 mm/hr 0.00 in0.0 mm
03:44 AM 50.5°F10.3°C 40.0°F4.4°C 67% 4.0 mph SSE6.4 kmh SSE 7.0 mph11.3 kmh 29.62 in1003.0 mb 0.00 in0.0 mm 0.00 in/hr0.0 mm/hr 0.00 in0.0 mm
03:45 AM 50.5°F10.3°C 40.0°F4.4°C 67% 5.0 mph SSE8.0 kmh SSE 7.0 mph11.3 kmh 29.62 in1003.0 mb 0.00 in0.0 mm 0.00 in/hr0.0 mm/hr 0.00 in0.0 mm
03:48 AM 50.6°F10.3°C 40.4°F4.7°C 68% 1.0 mph SSE1.6 kmh SSE 7.0 mph11.3 kmh 29.62 in1003.0 mb 0.00 in0.0 mm 0.00 in/hr0.0 mm/hr 0.00 in0.0 mm
03:49 AM 50.6°F10.3°C 40.4°F4.7°C 68% 2.0 mph SSE3.2 kmh SSE 7.0 mph11.3 kmh 29.61 in1002.7 mb 0.00 in0.0 mm 0.00 in/hr0.0 mm/hr 0.00 in0.0 mm
03:50 AM 50.6°F10.3°C 40.4°F4.7°C 68% 1.0 mph SSE1.6 kmh SSE 7.0 mph11.3 kmh 29.61 in1002.7 mb 0.00 in0.0 mm 0.00 in/hr0.0 mm/hr 0.00 in0.0 mm
03:53 AM 50.7°F10.4°C 40.5°F4.7°C 68% Calm Calm 7.0 mph11.3 kmh 29.61 in1002.7 mb 0.00 in0.0 mm 0.00 in/hr0.0 mm/hr 0.00 in0.0 mm
03:54 AM 50.8°F10.4°C 40.6°F4.8°C 68% Calm Calm 7.0 mph11.3 kmh 29.61 in1002.7 mb 0.00 in0.0 mm 0.00 in/hr0.0 mm/hr 0.00 in0.0 mm
03:55 AM 50.8°F10.4°C 40.6°F4.8°C 68% Calm Calm 7.0 mph11.3 kmh 29.61 in1002.7 mb 0.00 in0.0 mm 0.00 in/hr0.0 mm/hr 0.00 in0.0 mm
03:58 AM 51.0°F10.6°C 41.2°F5.1°C 69% 2.0 mph SSE3.2 kmh SSE 7.0 mph11.3 kmh 29.61 in1002.7 mb 0.00 in0.0 mm 0.00 in/hr0.0 mm/hr 0.00 in0.0 mm
03:59 AM 51.1°F10.6°C 41.3°F5.2°C 69% 2.0 mph SSE3.2 kmh SSE 7.0 mph11.3 kmh 29.61 in1002.7 mb 0.00 in0.0 mm 0.00 in/hr0.0 mm/hr 0.00 in0.0 mm
04:00 AM 51.1°F10.6°C 40.9°F4.9°C 68% 5.0 mph SSE8.0 kmh SSE 5.0 mph8.0 kmh 29.61 in1002.7 mb 0.00 in0.0 mm 0.00 in/hr0.0 mm/hr 0.00 in0.0 mm
04:03 AM 51.3°F10.7°C 41.1°F5.1°C 68% 2.0 mph SSE3.2 kmh SSE 5.0 mph8.0 kmh 29.60 in1002.4 mb 0.00 in0.0 mm 0.00 in/hr0.0 mm/hr 0.00 in0.0 mm
04:04 AM 51.4°F10.8°C 41.2°F5.1°C 68% 4.0 mph SSE6.4 kmh SSE 5.0 mph8.0 kmh 29.60 in1002.4 mb 0.00 in0.0 mm 0.00 in/hr0.0 mm/hr 0.00 in0.0 mm
04:05 AM 51.5°F10.8°C 41.3°F5.2°C 68% 4.0 mph SSE6.4 kmh SSE 5.0 mph8.0 kmh 29.60 in1002.4 mb 0.00 in0.0 mm 0.00 in/hr0.0 mm/hr 0.00 in0.0 mm
04:08 AM 51.7°F10.9°C 41.5°F5.3°C 68% 2.0 mph SSE3.2 kmh SSE 5.0 mph8.0 kmh 29.60 in1002.4 mb 0.00 in0.0 mm 0.00 in/hr0.0 mm/hr 0.00 in0.0 mm
04:09 AM 51.8°F11.0°C 41.6°F5.3°C 68% 2.0 mph SSE3.2 kmh SSE 5.0 mph8.0 kmh 29.60 in1002.4 mb 0.00 in0.0 mm 0.00 in/hr0.0 mm/hr 0.00 in0.0 mm
04:10 AM 51.9°F11.1°C 41.7°F5.4°C 68% 1.0 mph SSE1.6 kmh SSE 5.0 mph8.0 kmh 29.60 in1002.4 mb 0.00 in0.0 mm 0.00 in/hr0.0 mm/hr 0.00 in0.0 mm
04:13 AM 52.1°F11.2°C 41.9°F5.5°C 68% 5.0 mph SSE8.0 kmh SSE 5.0 mph8.0 kmh 29.60 in1002.4 mb 0.00 in0.0 mm 0.00 in/hr0.0 mm/hr 0.00 in0.0 mm
04:14 AM 52.2°F11.2°C 42.0°F5.6°C 68% 2.0 mph SSE3.2 kmh SSE 5.0 mph8.0 kmh 29.60 in1002.4 mb 0.00 in0.0 mm 0.00 in/hr0.0 mm/hr 0.00 in0.0 mm
04:15 AM 52.2°F11.2°C 42.0°F5.6°C 68% 5.0 mph SSE8.0 kmh SSE 6.0 mph9.7 kmh 29.60 in1002.4 mb 0.00 in0.0 mm 0.00 in/hr0.0 mm/hr 0.00 in0.0 mm
04:18 AM 52.4°F11.3°C 42.2°F5.7°C 68% 4.0 mph SSE6.4 kmh SSE 6.0 mph9.7 kmh 29.60 in1002.4 mb 0.00 in0.0 mm 0.00 in/hr0.0 mm/hr 0.00 in0.0 mm
04:19 AM 52.4°F11.3°C 42.2°F5.7°C 68% Calm Calm 6.0 mph9.7 kmh 29.60 in1002.4 mb 0.00 in0.0 mm 0.00 in/hr0.0 mm/hr 0.00 in0.0 mm
04:20 AM 52.5°F11.4°C 42.3°F5.7°C 68% 2.0 mph SSE3.2 kmh SSE 6.0 mph9.7 kmh 29.60 in1002.4 mb 0.00 in0.0 mm 0.00 in/hr0.0 mm/hr 0.00 in0.0 mm
04:23 AM 52.6°F11.4°C 42.4°F5.8°C 68% 1.0 mph SSE1.6 kmh SSE 6.0 mph9.7 kmh 29.60 in1002.4 mb 0.00 in0.0 mm 0.00 in/hr0.0 mm/hr 0.00 in0.0 mm
04:24 AM 52.7°F11.5°C 42.5°F5.8°C 68% 2.0 mph SSE3.2 kmh SSE 6.0 mph9.7 kmh 29.60 in1002.4 mb 0.00 in0.0 mm 0.00 in/hr0.0 mm/hr 0.00 in0.0 mm
04:25 AM 52.7°F11.5°C 42.5°F5.8°C 68% 1.0 mph SSE1.6 kmh SSE 6.0 mph9.7 kmh 29.60 in1002.4 mb 0.00 in0.0 mm 0.00 in/hr0.0 mm/hr 0.00 in0.0 mm
04:28 AM 52.8°F11.6°C 42.5°F5.8°C 68% 2.0 mph SSE3.2 kmh SSE 6.0 mph9.7 kmh 29.60 in1002.4 mb 0.00 in0.0 mm 0.00 in/hr0.0 mm/hr 0.00 in0.0 mm
04:29 AM 52.9°F11.6°C 42.6°F5.9°C 68% 4.0 mph SSE6.4 kmh SSE 6.0 mph9.7 kmh 29.60 in1002.4 mb 0.00 in0.0 mm 0.00 in/hr0.0 mm/hr 0.00 in0.0 mm
04:30 AM 52.9°F11.6°C 42.6°F5.9°C 68% 2.0 mph SSE3.2 kmh SSE 6.0 mph9.7 kmh 29.60 in1002.4 mb 0.00 in0.0 mm 0.00 in/hr0.0 mm/hr 0.00 in0.0 mm
04:33 AM 53.0°F11.7°C 42.7°F5.9°C 68% Calm Calm 6.0 mph9.7 kmh 29.60 in1002.4 mb 0.00 in0.0 mm 0.00 in/hr0.0 mm/hr 0.00 in0.0 mm
04:34 AM 53.1°F11.7°C 43.2°F6.2°C 69% Calm Calm 6.0 mph9.7 kmh 29.60 in1002.4 mb 0.00 in0.0 mm 0.00 in/hr0.0 mm/hr 0.00 in0.0 mm
04:35 AM 53.1°F11.7°C 43.2°F6.2°C 69% Calm Calm 6.0 mph9.7 kmh 29.60 in1002.4 mb 0.00 in0.0 mm 0.00 in/hr0.0 mm/hr 0.00 in0.0 mm
04:38 AM 53.2°F11.8°C 43.3°F6.3°C 69% Calm Calm 6.0 mph9.7 kmh 29.60 in1002.4 mb 0.00 in0.0 mm 0.00 in/hr0.0 mm/hr 0.00 in0.0 mm
04:39 AM 53.3°F11.8°C 43.4°F6.3°C 69% Calm Calm 6.0 mph9.7 kmh 29.60 in1002.4 mb 0.00 in0.0 mm 0.00 in/hr0.0 mm/hr 0.00 in0.0 mm
04:40 AM 53.3°F11.8°C 43.4°F6.3°C 69% Calm Calm 6.0 mph9.7 kmh 29.60 in1002.4 mb 0.00 in0.0 mm 0.00 in/hr0.0 mm/hr 0.00 in0.0 mm
04:43 AM 53.4°F11.9°C 43.5°F6.4°C 69% Calm Calm 6.0 mph9.7 kmh 29.60 in1002.4 mb 0.00 in0.0 mm 0.00 in/hr0.0 mm/hr 0.00 in0.0 mm
04:44 AM 53.4°F11.9°C 43.5°F6.4°C 69% Calm Calm 6.0 mph9.7 kmh 29.60 in1002.4 mb 0.00 in0.0 mm 0.00 in/hr0.0 mm/hr 0.00 in0.0 mm
04:45 AM 53.4°F11.9°C 43.5°F6.4°C 69% Calm Calm 6.0 mph9.7 kmh 29.60 in1002.4 mb 0.00 in0.0 mm 0.00 in/hr0.0 mm/hr 0.00 in0.0 mm
04:48 AM 53.6°F12.0°C 43.7°F6.5°C 69% Calm Calm 6.0 mph9.7 kmh 29.60 in1002.4 mb 0.00 in0.0 mm 0.00 in/hr0.0 mm/hr 0.00 in0.0 mm
04:49 AM 53.6°F12.0°C 44.1°F6.7°C 70% Calm Calm 6.0 mph9.7 kmh 29.60 in1002.4 mb 0.00 in0.0 mm 0.00 in/hr0.0 mm/hr 0.00 in0.0 mm
04:50 AM 53.6°F12.0°C 44.1°F6.7°C 70% Calm Calm 6.0 mph9.7 kmh 29.60 in1002.4 mb 0.00 in0.0 mm 0.00 in/hr0.0 mm/hr 0.00 in0.0 mm
04:53 AM 53.7°F12.1°C 44.2°F6.8°C 70% 1.0 mph SSE1.6 kmh SSE 6.0 mph9.7 kmh 29.60 in1002.4 mb 0.00 in0.0 mm 0.00 in/hr0.0 mm/hr 0.00 in0.0 mm
04:54 AM 53.8°F12.1°C 44.3°F6.8°C 70% Calm Calm 6.0 mph9.7 kmh 29.60 in1002.4 mb 0.00 in0.0 mm 0.00 in/hr0.0 mm/hr 0.00 in0.0 mm
04:55 AM 53.7°F12.1°C 44.2°F6.8°C 70% Calm Calm 6.0 mph9.7 kmh 29.60 in1002.4 mb 0.00 in0.0 mm 0.00 in/hr0.0 mm/hr 0.00 in0.0 mm
04:58 AM 53.8°F12.1°C 44.6°F7.0°C 71% Calm Calm 6.0 mph9.7 kmh 29.60 in1002.4 mb 0.00 in0.0 mm 0.00 in/hr0.0 mm/hr 0.00 in0.0 mm
04:59 AM 53.8°F12.1°C 44.6°F7.0°C 71% Calm Calm 6.0 mph9.7 kmh 29.60 in1002.4 mb 0.00 in0.0 mm 0.00 in/hr0.0 mm/hr 0.00 in0.0 mm
05:00 AM 53.8°F12.1°C 44.6°F7.0°C 71% Calm Calm -- 29.60 in1002.4 mb 0.00 in0.0 mm 0.00 in/hr0.0 mm/hr 0.00 in0.0 mm
05:03 AM 53.9°F12.2°C 45.1°F7.3°C 72% Calm Calm 2.0 mph3.2 kmh 29.60 in1002.4 mb 0.00 in0.0 mm 0.00 in/hr0.0 mm/hr 0.00 in0.0 mm
05:04 AM 54.0°F12.2°C 45.2°F7.3°C 72% Calm Calm 2.0 mph3.2 kmh 29.60 in1002.4 mb 0.00 in0.0 mm 0.00 in/hr0.0 mm/hr 0.00 in0.0 mm
05:05 AM 54.0°F12.2°C 45.2°F7.3°C 72% Calm Calm 2.0 mph3.2 kmh 29.60 in1002.4 mb 0.00 in0.0 mm 0.00 in/hr0.0 mm/hr 0.00 in0.0 mm
05:08 AM 53.9°F12.2°C 45.1°F7.3°C 72% Calm Calm 2.0 mph3.2 kmh 29.59 in1002.0 mb 0.00 in0.0 mm 0.00 in/hr0.0 mm/hr 0.00 in0.0 mm
05:09 AM 53.9°F12.2°C 45.1°F7.3°C 72% Calm Calm 2.0 mph3.2 kmh 29.59 in1002.0 mb 0.00 in0.0 mm 0.00 in/hr0.0 mm/hr 0.00 in0.0 mm
05:10 AM 53.9°F12.2°C 45.5°F7.5°C 73% Calm Calm 2.0 mph3.2 kmh 29.59 in1002.0 mb 0.00 in0.0 mm 0.00 in/hr0.0 mm/hr 0.00 in0.0 mm
05:13 AM 53.7°F12.1°C 45.3°F7.4°C 73% Calm Calm 2.0 mph3.2 kmh 29.59 in1002.0 mb 0.00 in0.0 mm 0.00 in/hr0.0 mm/hr 0.00 in0.0 mm
05:14 AM 53.7°F12.1°C 45.6°F7.6°C 74% 1.0 mph SSE1.6 kmh SSE 2.0 mph3.2 kmh 29.59 in1002.0 mb 0.00 in0.0 mm 0.00 in/hr0.0 mm/hr 0.00 in0.0 mm
05:15 AM 53.7°F12.1°C 45.6°F7.6°C 74% 1.0 mph SSE1.6 kmh SSE 2.0 mph3.2 kmh 29.59 in1002.0 mb 0.00 in0.0 mm 0.00 in/hr0.0 mm/hr 0.00 in0.0 mm
05:18 AM 53.6°F12.0°C 45.5°F7.5°C 74% Calm Calm 2.0 mph3.2 kmh 29.59 in1002.0 mb 0.00 in0.0 mm 0.00 in/hr0.0 mm/hr 0.00 in0.0 mm
05:19 AM 53.6°F12.0°C 45.5°F7.5°C 74% Calm Calm 2.0 mph3.2 kmh 29.59 in1002.0 mb 0.00 in0.0 mm 0.00 in/hr0.0 mm/hr 0.00 in0.0 mm
05:20 AM 53.6°F12.0°C 45.9°F7.7°C 75% Calm Calm 2.0 mph3.2 kmh 29.59 in1002.0 mb 0.00 in0.0 mm 0.00 in/hr0.0 mm/hr 0.00 in0.0 mm
05:23 AM 53.5°F11.9°C 46.1°F7.8°C 76% Calm Calm 2.0 mph3.2 kmh 29.59 in1002.0 mb 0.00 in0.0 mm 0.00 in/hr0.0 mm/hr 0.00 in0.0 mm
05:24 AM 53.6°F12.0°C 46.2°F7.9°C 76% 2.0 mph SSE3.2 kmh SSE 2.0 mph3.2 kmh 29.59 in1002.0 mb 0.00 in0.0 mm 0.00 in/hr0.0 mm/hr 0.00 in0.0 mm
05:25 AM 53.6°F12.0°C 46.2°F7.9°C 76% 9.0 mph SSE14.5 kmh SSE 11.0 mph17.7 kmh 29.59 in1002.0 mb 0.01 in0.3 mm 0.60 in/hr15.2 mm/hr 0.01 in0.3 mm
05:28 AM 52.3°F11.3°C 44.6°F7.0°C 75% 5.0 mph S8.0 kmh S 14.0 mph22.5 kmh 29.60 in1002.4 mb 0.01 in0.3 mm 0.00 in/hr0.0 mm/hr 0.01 in0.3 mm
05:29 AM 51.7°F10.9°C 43.7°F6.5°C 74% 3.0 mph S4.8 kmh S 14.0 mph22.5 kmh 29.60 in1002.4 mb 0.01 in0.3 mm 0.00 in/hr0.0 mm/hr 0.01 in0.3 mm
05:30 AM 51.1°F10.6°C 43.1°F6.2°C 74% 6.0 mph S9.7 kmh S 14.0 mph22.5 kmh 29.60 in1002.4 mb 0.01 in0.3 mm 0.00 in/hr0.0 mm/hr 0.01 in0.3 mm
05:33 AM 48.9°F9.4°C 41.0°F5.0°C 74% 3.0 mph S4.8 kmh S 14.0 mph22.5 kmh 29.59 in1002.0 mb 0.01 in0.3 mm 0.00 in/hr0.0 mm/hr 0.01 in0.3 mm
05:34 AM 48.5°F9.2°C 41.0°F5.0°C 75% 3.0 mph S4.8 kmh S 14.0 mph22.5 kmh 29.59 in1002.0 mb 0.01 in0.3 mm 0.00 in/hr0.0 mm/hr 0.01 in0.3 mm
05:35 AM 48.0°F8.9°C 40.5°F4.7°C 75% 7.0 mph S11.3 kmh S 14.0 mph22.5 kmh 29.59 in1002.0 mb 0.01 in0.3 mm 0.00 in/hr0.0 mm/hr 0.01 in0.3 mm
05:38 AM 46.6°F8.1°C 39.8°F4.3°C 77% 3.0 mph S4.8 kmh S 14.0 mph22.5 kmh 29.59 in1002.0 mb 0.01 in0.3 mm 0.00 in/hr0.0 mm/hr 0.01 in0.3 mm
05:39 AM 46.3°F7.9°C 39.5°F4.2°C 77% 3.0 mph S4.8 kmh S 14.0 mph22.5 kmh 29.59 in1002.0 mb 0.01 in0.3 mm 0.00 in/hr0.0 mm/hr 0.01 in0.3 mm
05:40 AM 46.1°F7.8°C 39.3°F4.1°C 77% 5.0 mph S8.0 kmh S 14.0 mph22.5 kmh 29.59 in1002.0 mb 0.01 in0.3 mm 0.00 in/hr0.0 mm/hr 0.01 in0.3 mm
05:43 AM 45.6°F7.6°C 39.2°F4.0°C 78% 2.0 mph S3.2 kmh S 14.0 mph22.5 kmh 29.59 in1002.0 mb 0.01 in0.3 mm 0.00 in/hr0.0 mm/hr 0.01 in0.3 mm
05:44 AM 45.5°F7.5°C 39.4°F4.1°C 79% 2.0 mph S3.2 kmh S 14.0 mph22.5 kmh 29.59 in1002.0 mb 0.01 in0.3 mm 0.00 in/hr0.0 mm/hr 0.01 in0.3 mm
05:45 AM 45.4°F7.4°C 39.3°F4.1°C 79% 1.0 mph S1.6 kmh S 14.0 mph22.5 kmh 29.59 in1002.0 mb 0.01 in0.3 mm 0.00 in/hr0.0 mm/hr 0.01 in0.3 mm
05:48 AM 45.3°F7.4°C 39.5°F4.2°C 80% Calm Calm 14.0 mph22.5 kmh 29.59 in1002.0 mb 0.01 in0.3 mm 0.00 in/hr0.0 mm/hr 0.01 in0.3 mm
05:49 AM 45.4°F7.4°C 39.6°F4.2°C 80% Calm Calm 14.0 mph22.5 kmh 29.58 in1001.7 mb 0.01 in0.3 mm 0.00 in/hr0.0 mm/hr 0.01 in0.3 mm
05:50 AM 45.4°F7.4°C 39.9°F4.4°C 81% 1.0 mph S1.6 kmh S 14.0 mph22.5 kmh 29.58 in1001.7 mb 0.01 in0.3 mm 0.00 in/hr0.0 mm/hr 0.01 in0.3 mm
05:53 AM 45.8°F7.7°C 40.3°F4.6°C 81% 1.0 mph S1.6 kmh S 14.0 mph22.5 kmh 29.58 in1001.7 mb 0.01 in0.3 mm 0.00 in/hr0.0 mm/hr 0.01 in0.3 mm
05:54 AM 45.9°F7.7°C 40.7°F4.8°C 82% Calm Calm 14.0 mph22.5 kmh 29.58 in1001.7 mb 0.01 in0.3 mm 0.00 in/hr0.0 mm/hr 0.01 in0.3 mm
05:55 AM 46.0°F7.8°C 40.5°F4.7°C 81% 2.0 mph S3.2 kmh S 14.0 mph22.5 kmh 29.58 in1001.7 mb 0.01 in0.3 mm 0.00 in/hr0.0 mm/hr 0.01 in0.3 mm
05:58 AM 46.3°F7.9°C 41.1°F5.1°C 82% Calm Calm 14.0 mph22.5 kmh 29.58 in1001.7 mb 0.01 in0.3 mm 0.00 in/hr0.0 mm/hr 0.01 in0.3 mm
05:59 AM 46.4°F8.0°C 41.2°F5.1°C 82% Calm Calm 14.0 mph22.5 kmh 29.58 in1001.7 mb 0.01 in0.3 mm 0.00 in/hr0.0 mm/hr 0.01 in0.3 mm
06:00 AM 46.5°F8.1°C 41.3°F5.2°C 82% Calm Calm -- 29.58 in1001.7 mb 0.01 in0.3 mm 0.00 in/hr0.0 mm/hr 0.01 in0.3 mm
06:03 AM 46.8°F8.2°C 41.6°F5.3°C 82% Calm Calm 1.0 mph1.6 kmh 29.58 in1001.7 mb 0.02 in0.5 mm 0.20 in/hr5.1 mm/hr 0.02 in0.5 mm
06:04 AM 46.9°F8.3°C 41.7°F5.4°C 82% 1.0 mph S1.6 kmh S 1.0 mph1.6 kmh 29.58 in1001.7 mb 0.02 in0.5 mm 0.00 in/hr0.0 mm/hr 0.02 in0.5 mm
06:05 AM 47.0°F8.3°C 41.8°F5.4°C 82% Calm Calm 1.0 mph1.6 kmh 29.58 in1001.7 mb 0.02 in0.5 mm 0.00 in/hr0.0 mm/hr 0.02 in0.5 mm
06:08 AM 47.2°F8.4°C 42.0°F5.6°C 82% Calm Calm 2.0 mph3.2 kmh 29.58 in1001.7 mb 0.02 in0.5 mm 0.00 in/hr0.0 mm/hr 0.02 in0.5 mm
06:09 AM 47.3°F8.5°C 42.4°F5.8°C 83% Calm Calm 2.0 mph3.2 kmh 29.58 in1001.7 mb 0.02 in0.5 mm 0.00 in/hr0.0 mm/hr 0.02 in0.5 mm
06:10 AM 47.4°F8.6°C 42.5°F5.8°C 83% Calm Calm 2.0 mph3.2 kmh 29.58 in1001.7 mb 0.02 in0.5 mm 0.00 in/hr0.0 mm/hr 0.02 in0.5 mm
06:13 AM 47.5°F8.6°C 42.6°F5.9°C 83% 1.0 mph S1.6 kmh S 2.0 mph3.2 kmh 29.57 in1001.4 mb 0.02 in0.5 mm 0.00 in/hr0.0 mm/hr 0.02 in0.5 mm
06:14 AM 47.5°F8.6°C 42.6°F5.9°C 83% 1.0 mph S1.6 kmh S 2.0 mph3.2 kmh 29.58 in1001.7 mb 0.02 in0.5 mm 0.00 in/hr0.0 mm/hr 0.02 in0.5 mm
06:15 AM 47.5°F8.6°C 42.6°F5.9°C 83% 1.0 mph S1.6 kmh S 2.0 mph3.2 kmh 29.57 in1001.4 mb 0.02 in0.5 mm 0.00 in/hr0.0 mm/hr 0.02 in0.5 mm
06:18 AM 47.6°F8.7°C 42.7°F5.9°C 83% Calm Calm 2.0 mph3.2 kmh 29.57 in1001.4 mb 0.02 in0.5 mm 0.00 in/hr0.0 mm/hr 0.02 in0.5 mm
06:19 AM 47.7°F8.7°C 42.8°F6.0°C 83% Calm Calm 2.0 mph3.2 kmh 29.57 in1001.4 mb 0.02 in0.5 mm 0.00 in/hr0.0 mm/hr 0.02 in0.5 mm
06:20 AM 47.7°F8.7°C 42.8°F6.0°C 83% Calm Calm 2.0 mph3.2 kmh 29.57 in1001.4 mb 0.02 in0.5 mm 0.00 in/hr0.0 mm/hr 0.02 in0.5 mm
06:23 AM 47.9°F8.8°C 43.3°F6.3°C 84% Calm Calm 2.0 mph3.2 kmh 29.57 in1001.4 mb 0.02 in0.5 mm 0.00 in/hr0.0 mm/hr 0.02 in0.5 mm
06:24 AM 48.0°F8.9°C 43.4°F6.3°C 84% Calm Calm 2.0 mph3.2 kmh 29.57 in1001.4 mb 0.02 in0.5 mm 0.00 in/hr0.0 mm/hr 0.02 in0.5 mm
06:25 AM 48.0°F8.9°C 43.4°F6.3°C 84% Calm Calm 2.0 mph3.2 kmh 29.57 in1001.4 mb 0.02 in0.5 mm 0.00 in/hr0.0 mm/hr 0.02 in0.5 mm
06:28 AM 48.2°F9.0°C 43.6°F6.4°C 84% Calm Calm 2.0 mph3.2 kmh 29.57 in1001.4 mb 0.03 in0.8 mm 0.20 in/hr5.1 mm/hr 0.03 in0.8 mm
06:29 AM 48.2°F9.0°C 43.6°F6.4°C 84% Calm Calm 2.0 mph3.2 kmh 29.57 in1001.4 mb 0.03 in0.8 mm 0.00 in/hr0.0 mm/hr 0.03 in0.8 mm
06:30 AM 48.3°F9.1°C 43.7°F6.5°C 84% Calm Calm 2.0 mph3.2 kmh 29.57 in1001.4 mb 0.03 in0.8 mm 0.00 in/hr0.0 mm/hr 0.03 in0.8 mm
06:33 AM 48.6°F9.2°C 44.3°F6.8°C 85% Calm Calm 2.0 mph3.2 kmh 29.57 in1001.4 mb 0.03 in0.8 mm 0.00 in/hr0.0 mm/hr 0.03 in0.8 mm
06:34 AM 48.6°F9.2°C 44.3°F6.8°C 85% Calm Calm 2.0 mph3.2 kmh 29.57 in1001.4 mb 0.03 in0.8 mm 0.00 in/hr0.0 mm/hr 0.03 in0.8 mm
06:35 AM 48.7°F9.3°C 44.4°F6.9°C 85% Calm Calm 2.0 mph3.2 kmh 29.57 in1001.4 mb 0.03 in0.8 mm 0.00 in/hr0.0 mm/hr 0.03 in0.8 mm
06:38 AM 48.8°F9.3°C 44.2°F6.8°C 84% 1.0 mph S1.6 kmh S 2.0 mph3.2 kmh 29.57 in1001.4 mb 0.04 in1.0 mm 0.20 in/hr5.1 mm/hr 0.04 in1.0 mm
06:39 AM 48.8°F9.3°C 44.2°F6.8°C 84% Calm Calm 2.0 mph3.2 kmh 29.57 in1001.4 mb 0.04 in1.0 mm 0.00 in/hr0.0 mm/hr 0.04 in1.0 mm
06:40 AM 48.8°F9.3°C 44.2°F6.8°C 84% Calm Calm 2.0 mph3.2 kmh 29.57 in1001.4 mb 0.04 in1.0 mm 0.00 in/hr0.0 mm/hr 0.04 in1.0 mm
06:43 AM 48.9°F9.4°C 44.6°F7.0°C 85% Calm Calm 2.0 mph3.2 kmh 29.57 in1001.4 mb 0.04 in1.0 mm 0.00 in/hr0.0 mm/hr 0.04 in1.0 mm
06:44 AM 48.9°F9.4°C 44.6°F7.0°C 85% 2.0 mph S3.2 kmh S 2.0 mph3.2 kmh 29.57 in1001.4 mb 0.04 in1.0 mm 0.00 in/hr0.0 mm/hr 0.04 in1.0 mm
06:45 AM 48.9°F9.4°C 44.6°F7.0°C 85% 4.0 mph S6.4 kmh S 4.0 mph6.4 kmh 29.57 in1001.4 mb 0.04 in1.0 mm 0.00 in/hr0.0 mm/hr 0.04 in1.0 mm
06:48 AM 48.8°F9.3°C 44.5°F6.9°C 85% 1.0 mph S1.6 kmh S 4.0 mph6.4 kmh 29.57 in1001.4 mb 0.04 in1.0 mm 0.00 in/hr0.0 mm/hr 0.04 in1.0 mm
06:49 AM 48.7°F9.3°C 44.4°F6.9°C 85% Calm Calm 4.0 mph6.4 kmh 29.57 in1001.4 mb 0.04 in1.0 mm 0.00 in/hr0.0 mm/hr 0.04 in1.0 mm
06:50 AM 48.7°F9.3°C 44.4°F6.9°C 85% 2.0 mph S3.2 kmh S 4.0 mph6.4 kmh 29.57 in1001.4 mb 0.04 in1.0 mm 0.00 in/hr0.0 mm/hr 0.04 in1.0 mm
06:53 AM 48.7°F9.3°C 44.7°F7.1°C 86% Calm Calm 4.0 mph6.4 kmh 29.57 in1001.4 mb 0.04 in1.0 mm 0.00 in/hr0.0 mm/hr 0.04 in1.0 mm
06:54 AM 48.7°F9.3°C 44.7°F7.1°C 86% Calm Calm 4.0 mph6.4 kmh 29.57 in1001.4 mb 0.04 in1.0 mm 0.00 in/hr0.0 mm/hr 0.04 in1.0 mm
06:55 AM 48.6°F9.2°C 44.6°F7.0°C 86% Calm Calm 4.0 mph6.4 kmh 29.57 in1001.4 mb 0.05 in1.3 mm 0.60 in/hr15.2 mm/hr 0.05 in1.3 mm
06:58 AM 48.7°F9.3°C 44.7°F7.1°C 86% Calm Calm 4.0 mph6.4 kmh 29.57 in1001.4 mb 0.05 in1.3 mm 0.00 in/hr0.0 mm/hr 0.05 in1.3 mm
06:59 AM 48.8°F9.3°C 44.8°F7.1°C 86% Calm Calm 4.0 mph6.4 kmh 29.57 in1001.4 mb 0.05 in1.3 mm 0.00 in/hr0.0 mm/hr 0.05 in1.3 mm
07:00 AM 48.8°F9.3°C 44.8°F7.1°C 86% Calm Calm -- 29.57 in1001.4 mb 0.04 in1.0 mm 0.00 in/hr0.0 mm/hr 0.05 in1.3 mm
07:03 AM 48.9°F9.4°C 44.9°F7.2°C 86% 1.0 mph S1.6 kmh S 2.0 mph3.2 kmh 29.57 in1001.4 mb 0.05 in1.3 mm 0.20 in/hr5.1 mm/hr 0.06 in1.5 mm
07:04 AM 48.9°F9.4°C 44.9°F7.2°C 86% Calm Calm 2.0 mph3.2 kmh 29.57 in1001.4 mb 0.05 in1.3 mm 0.00 in/hr0.0 mm/hr 0.06 in1.5 mm
07:05 AM 48.9°F9.4°C 44.9°F7.2°C 86% Calm Calm 2.0 mph3.2 kmh 29.57 in1001.4 mb 0.05 in1.3 mm 0.00 in/hr0.0 mm/hr 0.06 in1.5 mm
07:08 AM 48.9°F9.4°C 44.9°F7.2°C 86% Calm Calm 2.0 mph3.2 kmh 29.57 in1001.4 mb 0.05 in1.3 mm 0.00 in/hr0.0 mm/hr 0.06 in1.5 mm
07:09 AM 49.0°F9.4°C 45.3°F7.4°C 87% Calm Calm 2.0 mph3.2 kmh 29.57 in1001.4 mb 0.05 in1.3 mm 0.00 in/hr0.0 mm/hr 0.06 in1.5 mm
07:10 AM 49.0°F9.4°C 45.3°F7.4°C 87% Calm Calm 2.0 mph3.2 kmh 29.57 in1001.4 mb 0.05 in1.3 mm 0.00 in/hr0.0 mm/hr 0.06 in1.5 mm
07:13 AM 49.2°F9.6°C 45.5°F7.5°C 87% Calm Calm 2.0 mph3.2 kmh 29.57 in1001.4 mb 0.06 in1.5 mm 0.20 in/hr5.1 mm/hr 0.07 in1.8 mm
07:14 AM 49.2°F9.6°C 45.5°F7.5°C 87% Calm Calm 2.0 mph3.2 kmh 29.57 in1001.4 mb 0.06 in1.5 mm 0.00 in/hr0.0 mm/hr 0.07 in1.8 mm
07:15 AM 49.3°F9.6°C 45.6°F7.6°C 87% Calm Calm 2.0 mph3.2 kmh 29.57 in1001.4 mb 0.06 in1.5 mm 0.00 in/hr0.0 mm/hr 0.07 in1.8 mm
07:18 AM 49.4°F9.7°C 45.7°F7.6°C 87% Calm Calm 2.0 mph3.2 kmh 29.57 in1001.4 mb 0.07 in1.8 mm 0.20 in/hr5.1 mm/hr 0.08 in2.0 mm
07:19 AM 49.5°F9.7°C 45.8°F7.7°C 87% Calm Calm 2.0 mph3.2 kmh 29.57 in1001.4 mb 0.07 in1.8 mm 0.00 in/hr0.0 mm/hr 0.08 in2.0 mm
07:20 AM 49.5°F9.7°C 45.8°F7.7°C 87% Calm Calm 2.0 mph3.2 kmh 29.57 in1001.4 mb 0.07 in1.8 mm 0.00 in/hr0.0 mm/hr 0.08 in2.0 mm
07:23 AM 49.6°F9.8°C 45.9°F7.7°C 87% Calm Calm 2.0 mph3.2 kmh 29.57 in1001.4 mb 0.07 in1.8 mm 0.00 in/hr0.0 mm/hr 0.08 in2.0 mm
07:24 AM 49.7°F9.8°C 46.0°F7.8°C 87% Calm Calm 2.0 mph3.2 kmh 29.57 in1001.4 mb 0.07 in1.8 mm 0.00 in/hr0.0 mm/hr 0.08 in2.0 mm
07:25 AM 49.7°F9.8°C 46.0°F7.8°C 87% Calm Calm 2.0 mph3.2 kmh 29.57 in1001.4 mb 0.07 in1.8 mm 0.00 in/hr0.0 mm/hr 0.08 in2.0 mm
07:28 AM 49.8°F9.9°C 46.1°F7.8°C 87% Calm Calm 2.0 mph3.2 kmh 29.57 in1001.4 mb 0.07 in1.8 mm 0.00 in/hr0.0 mm/hr 0.08 in2.0 mm
07:29 AM 49.9°F9.9°C 46.2°F7.9°C 87% Calm Calm 2.0 mph3.2 kmh 29.57 in1001.4 mb 0.07 in1.8 mm 0.00 in/hr0.0 mm/hr 0.08 in2.0 mm
07:30 AM 50.0°F10.0°C 46.3°F7.9°C 87% Calm Calm 2.0 mph3.2 kmh 29.57 in1001.4 mb 0.07 in1.8 mm 0.00 in/hr0.0 mm/hr 0.08 in2.0 mm
07:33 AM 50.1°F10.1°C 46.4°F8.0°C 87% Calm Calm 2.0 mph3.2 kmh 29.57 in1001.4 mb 0.07 in1.8 mm 0.00 in/hr0.0 mm/hr 0.08 in2.0 mm
07:34 AM 50.1°F10.1°C 46.4°F8.0°C 87% Calm Calm 2.0 mph3.2 kmh 29.57 in1001.4 mb 0.07 in1.8 mm 0.00 in/hr0.0 mm/hr 0.08 in2.0 mm
07:35 AM 50.1°F10.1°C 46.4°F8.0°C 87% Calm Calm 2.0 mph3.2 kmh 29.57 in1001.4 mb 0.07 in1.8 mm 0.00 in/hr0.0 mm/hr 0.08 in2.0 mm
07:38 AM 50.2°F10.1°C 46.5°F8.1°C 87% Calm Calm 2.0 mph3.2 kmh 29.56 in1001.0 mb 0.07 in1.8 mm 0.00 in/hr0.0 mm/hr 0.08 in2.0 mm
07:39 AM 50.2°F10.1°C 46.5°F8.1°C 87% Calm Calm 2.0 mph3.2 kmh 29.56 in1001.0 mb 0.07 in1.8 mm 0.00 in/hr0.0 mm/hr 0.08 in2.0 mm
07:40 AM 50.3°F10.2°C 46.9°F8.3°C 88% Calm Calm 2.0 mph3.2 kmh 29.56 in1001.0 mb 0.07 in1.8 mm 0.00 in/hr0.0 mm/hr 0.08 in2.0 mm
07:43 AM 50.4°F10.2°C 47.0°F8.3°C 88% Calm Calm 2.0 mph3.2 kmh 29.56 in1001.0 mb 0.07 in1.8 mm 0.00 in/hr0.0 mm/hr 0.08 in2.0 mm
07:44 AM 50.4°F10.2°C 46.7°F8.2°C 87% Calm Calm 2.0 mph3.2 kmh 29.57 in1001.4 mb 0.07 in1.8 mm 0.00 in/hr0.0 mm/hr 0.08 in2.0 mm
07:45 AM 50.4°F10.2°C 46.7°F8.2°C 87% Calm Calm 2.0 mph3.2 kmh 29.56 in1001.0 mb 0.07 in1.8 mm 0.00 in/hr0.0 mm/hr 0.08 in2.0 mm
07:48 AM 50.4°F10.2°C 46.7°F8.2°C 87% Calm Calm 2.0 mph3.2 kmh 29.56 in1001.0 mb 0.07 in1.8 mm 0.00 in/hr0.0 mm/hr 0.08 in2.0 mm
07:49 AM 50.4°F10.2°C 46.7°F8.2°C 87% Calm Calm 2.0 mph3.2 kmh 29.56 in1001.0 mb 0.07 in1.8 mm 0.00 in/hr0.0 mm/hr 0.08 in2.0 mm
07:50 AM 50.3°F10.2°C 46.6°F8.1°C 87% Calm Calm 2.0 mph3.2 kmh 29.57 in1001.4 mb 0.07 in1.8 mm 0.00 in/hr0.0 mm/hr 0.08 in2.0 mm
07:53 AM 50.2°F10.1°C 46.5°F8.1°C 87% Calm Calm 2.0 mph3.2 kmh 29.57 in1001.4 mb 0.07 in1.8 mm 0.00 in/hr0.0 mm/hr 0.08 in2.0 mm
07:54 AM 50.2°F10.1°C 46.5°F8.1°C 87% Calm Calm 2.0 mph3.2 kmh 29.56 in1001.0 mb 0.07 in1.8 mm 0.00 in/hr0.0 mm/hr 0.08 in2.0 mm
07:55 AM 50.2°F10.1°C 46.8°F8.2°C 88% Calm Calm 2.0 mph3.2 kmh 29.57 in1001.4 mb 0.07 in1.8 mm 0.00 in/hr0.0 mm/hr 0.08 in2.0 mm
07:58 AM 50.3°F10.2°C 46.9°F8.3°C 88% Calm Calm 2.0 mph3.2 kmh 29.56 in1001.0 mb 0.08 in2.0 mm 0.20 in/hr5.1 mm/hr 0.09 in2.3 mm
07:59 AM 50.3°F10.2°C 46.9°F8.3°C 88% Calm Calm 2.0 mph3.2 kmh 29.56 in1001.0 mb 0.08 in2.0 mm 0.00 in/hr0.0 mm/hr 0.09 in2.3 mm
08:00 AM 50.3°F10.2°C 46.9°F8.3°C 88% Calm Calm -- 29.56 in1001.0 mb 0.04 in1.0 mm 0.00 in/hr0.0 mm/hr 0.09 in2.3 mm
08:03 AM 50.4°F10.2°C 47.0°F8.3°C 88% 1.0 mph S1.6 kmh S 1.0 mph1.6 kmh 29.56 in1001.0 mb 0.04 in1.0 mm 0.00 in/hr0.0 mm/hr 0.09 in2.3 mm
08:04 AM 50.4°F10.2°C 47.0°F8.3°C 88% 1.0 mph S1.6 kmh S 2.0 mph3.2 kmh 29.56 in1001.0 mb 0.04 in1.0 mm 0.00 in/hr0.0 mm/hr 0.09 in2.3 mm
08:05 AM 50.5°F10.3°C 47.1°F8.4°C 88% 1.0 mph S1.6 kmh S 2.0 mph3.2 kmh 29.57 in1001.4 mb 0.04 in1.0 mm 0.00 in/hr0.0 mm/hr 0.09 in2.3 mm
08:08 AM 50.6°F10.3°C 47.2°F8.4°C 88% Calm Calm 2.0 mph3.2 kmh 29.56 in1001.0 mb 0.04 in1.0 mm 0.00 in/hr0.0 mm/hr 0.09 in2.3 mm
08:09 AM 50.7°F10.4°C 47.3°F8.5°C 88% Calm Calm 2.0 mph3.2 kmh 29.56 in1001.0 mb 0.04 in1.0 mm 0.00 in/hr0.0 mm/hr 0.09 in2.3 mm
08:10 AM 50.7°F10.4°C 47.3°F8.5°C 88% Calm Calm 2.0 mph3.2 kmh 29.57 in1001.4 mb 0.04 in1.0 mm 0.00 in/hr0.0 mm/hr 0.09 in2.3 mm
08:13 AM 50.9°F10.5°C 47.5°F8.6°C 88% 1.0 mph S1.6 kmh S 2.0 mph3.2 kmh 29.57 in1001.4 mb 0.04 in1.0 mm 0.00 in/hr0.0 mm/hr 0.09 in2.3 mm
08:14 AM 51.0°F10.6°C 47.6°F8.7°C 88% 1.0 mph S1.6 kmh S 2.0 mph3.2 kmh 29.57 in1001.4 mb 0.04 in1.0 mm 0.00 in/hr0.0 mm/hr 0.09 in2.3 mm
08:15 AM 51.0°F10.6°C 47.6°F8.7°C 88% Calm Calm 2.0 mph3.2 kmh 29.57 in1001.4 mb 0.04 in1.0 mm 0.00 in/hr0.0 mm/hr 0.09 in2.3 mm
08:18 AM 51.1°F10.6°C 47.7°F8.7°C 88% Calm Calm 2.0 mph3.2 kmh 29.56 in1001.0 mb 0.04 in1.0 mm 0.00 in/hr0.0 mm/hr 0.09 in2.3 mm
08:19 AM 51.1°F10.6°C 47.7°F8.7°C 88% Calm Calm 2.0 mph3.2 kmh 29.56 in1001.0 mb 0.04 in1.0 mm 0.00 in/hr0.0 mm/hr 0.09 in2.3 mm
08:20 AM 51.2°F10.7°C 47.8°F8.8°C 88% Calm Calm 2.0 mph3.2 kmh 29.56 in1001.0 mb 0.04 in1.0 mm 0.00 in/hr0.0 mm/hr 0.09 in2.3 mm
08:23 AM 51.3°F10.7°C 48.2°F9.0°C 89% Calm Calm 2.0 mph3.2 kmh 29.56 in1001.0 mb 0.04 in1.0 mm 0.00 in/hr0.0 mm/hr 0.09 in2.3 mm
08:24 AM 51.5°F10.8°C 48.4°F9.1°C 89% Calm Calm 2.0 mph3.2 kmh 29.56 in1001.0 mb 0.04 in1.0 mm 0.00 in/hr0.0 mm/hr 0.09 in2.3 mm
08:25 AM 51.5°F10.8°C 48.1°F8.9°C 88% Calm Calm 2.0 mph3.2 kmh 29.56 in1001.0 mb 0.04 in1.0 mm 0.00 in/hr0.0 mm/hr 0.09 in2.3 mm
08:28 AM 51.6°F10.9°C 48.2°F9.0°C 88% 1.0 mph S1.6 kmh S 2.0 mph3.2 kmh 29.56 in1001.0 mb 0.04 in1.0 mm 0.00 in/hr0.0 mm/hr 0.09 in2.3 mm
08:29 AM 51.6°F10.9°C 48.2°F9.0°C 88% Calm Calm 2.0 mph3.2 kmh 29.56 in1001.0 mb 0.04 in1.0 mm 0.00 in/hr0.0 mm/hr 0.09 in2.3 mm
08:30 AM 51.5°F10.8°C 48.1°F8.9°C 88% 2.0 mph S3.2 kmh S 3.0 mph4.8 kmh 29.56 in1001.0 mb 0.04 in1.0 mm 0.00 in/hr0.0 mm/hr 0.09 in2.3 mm
08:33 AM 51.2°F10.7°C 47.5°F8.6°C 87% 1.0 mph S1.6 kmh S 3.0 mph4.8 kmh 29.56 in1001.0 mb 0.04 in1.0 mm 0.00 in/hr0.0 mm/hr 0.09 in2.3 mm
08:34 AM 51.1°F10.6°C 47.4°F8.6°C 87% 2.0 mph S3.2 kmh S 3.0 mph4.8 kmh 29.57 in1001.4 mb 0.04 in1.0 mm 0.00 in/hr0.0 mm/hr 0.09 in2.3 mm
08:35 AM 51.1°F10.6°C 47.7°F8.7°C 88% Calm Calm 3.0 mph4.8 kmh 29.57 in1001.4 mb 0.04 in1.0 mm 0.00 in/hr0.0 mm/hr 0.09 in2.3 mm
08:38 AM 51.0°F10.6°C 47.6°F8.7°C 88% Calm Calm 3.0 mph4.8 kmh 29.57 in1001.4 mb 0.04 in1.0 mm 0.00 in/hr0.0 mm/hr 0.09 in2.3 mm
08:39 AM 51.1°F10.6°C 47.7°F8.7°C 88% Calm Calm 3.0 mph4.8 kmh 29.57 in1001.4 mb 0.04 in1.0 mm 0.00 in/hr0.0 mm/hr 0.09 in2.3 mm
08:40 AM 51.1°F10.6°C 47.7°F8.7°C 88% Calm Calm 3.0 mph4.8 kmh 29.57 in1001.4 mb 0.04 in1.0 mm 0.00 in/hr0.0 mm/hr 0.09 in2.3 mm
08:43 AM 51.2°F10.7°C 47.8°F8.8°C 88% Calm Calm 3.0 mph4.8 kmh 29.57 in1001.4 mb 0.04 in1.0 mm 0.00 in/hr0.0 mm/hr 0.09 in2.3 mm
08:44 AM 51.2°F10.7°C 47.8°F8.8°C 88% Calm Calm 3.0 mph4.8 kmh 29.57 in1001.4 mb 0.04 in1.0 mm 0.00 in/hr0.0 mm/hr 0.09 in2.3 mm
08:45 AM 51.3°F10.7°C 47.9°F8.8°C 88% Calm Calm 3.0 mph4.8 kmh 29.57 in1001.4 mb 0.04 in1.0 mm 0.00 in/hr0.0 mm/hr 0.09 in2.3 mm
08:48 AM 51.4°F10.8°C 48.0°F8.9°C 88% Calm Calm 3.0 mph4.8 kmh 29.57 in1001.4 mb 0.04 in1.0 mm 0.00 in/hr0.0 mm/hr 0.09 in2.3 mm
08:49 AM 51.4°F10.8°C 48.0°F8.9°C 88% Calm Calm 3.0 mph4.8 kmh 29.57 in1001.4 mb 0.04 in1.0 mm 0.00 in/hr0.0 mm/hr 0.09 in2.3 mm
08:50 AM 51.5°F10.8°C 48.1°F8.9°C 88% Calm Calm 3.0 mph4.8 kmh 29.57 in1001.4 mb 0.04 in1.0 mm 0.00 in/hr0.0 mm/hr 0.09 in2.3 mm
08:53 AM 51.5°F10.8°C 48.1°F8.9°C 88% Calm Calm 3.0 mph4.8 kmh 29.57 in1001.4 mb 0.04 in1.0 mm 0.00 in/hr0.0 mm/hr 0.09 in2.3 mm
08:54 AM 51.5°F10.8°C 48.1°F8.9°C 88% Calm Calm 3.0 mph4.8 kmh 29.57 in1001.4 mb 0.04 in1.0 mm 0.00 in/hr0.0 mm/hr 0.09 in2.3 mm
08:55 AM 51.5°F10.8°C 48.1°F8.9°C 88% Calm Calm 3.0 mph4.8 kmh 29.57 in1001.4 mb 0.04 in1.0 mm 0.00 in/hr0.0 mm/hr 0.09 in2.3 mm
08:58 AM 51.6°F10.9°C 48.2°F9.0°C 88% Calm Calm 3.0 mph4.8 kmh 29.57 in1001.4 mb 0.04 in1.0 mm 0.00 in/hr0.0 mm/hr 0.09 in2.3 mm
08:59 AM 51.6°F10.9°C 48.2°F9.0°C 88% Calm Calm 3.0 mph4.8 kmh 29.57 in1001.4 mb 0.04 in1.0 mm 0.00 in/hr0.0 mm/hr 0.09 in2.3 mm
09:00 AM 51.7°F10.9°C 48.3°F9.1°C 88% 1.0 mph S1.6 kmh S 1.0 mph1.6 kmh 29.57 in1001.4 mb 0.00 in0.0 mm 0.00 in/hr0.0 mm/hr 0.09 in2.3 mm
09:03 AM 51.8°F11.0°C 48.7°F9.3°C 89% Calm Calm 1.0 mph1.6 kmh 29.57 in1001.4 mb 0.00 in0.0 mm 0.00 in/hr0.0 mm/hr 0.09 in2.3 mm
09:04 AM 52.0°F11.1°C 48.9°F9.4°C 89% 1.0 mph S1.6 kmh S 1.0 mph1.6 kmh 29.57 in1001.4 mb 0.00 in0.0 mm 0.00 in/hr0.0 mm/hr 0.09 in2.3 mm
09:05 AM 52.0°F11.1°C 48.9°F9.4°C 89% Calm Calm 1.0 mph1.6 kmh 29.57 in1001.4 mb 0.00 in0.0 mm 0.00 in/hr0.0 mm/hr 0.09 in2.3 mm
09:08 AM 52.2°F11.2°C 48.8°F9.3°C 88% 1.0 mph S1.6 kmh S 2.0 mph3.2 kmh 29.57 in1001.4 mb 0.00 in0.0 mm 0.00 in/hr0.0 mm/hr 0.09 in2.3 mm
09:09 AM 52.2°F11.2°C 48.8°F9.3°C 88% Calm Calm 2.0 mph3.2 kmh 29.57 in1001.4 mb 0.00 in0.0 mm 0.00 in/hr0.0 mm/hr 0.09 in2.3 mm
09:10 AM 52.2°F11.2°C 48.8°F9.3°C 88% 1.0 mph S1.6 kmh S 3.0 mph4.8 kmh 29.57 in1001.4 mb 0.00 in0.0 mm 0.00 in/hr0.0 mm/hr 0.09 in2.3 mm
09:13 AM 52.3°F11.3°C 49.2°F9.6°C 89% 3.0 mph S4.8 kmh S 4.0 mph6.4 kmh 29.58 in1001.7 mb 0.00 in0.0 mm 0.00 in/hr0.0 mm/hr 0.09 in2.3 mm
09:14 AM 52.4°F11.3°C 49.3°F9.6°C 89% 3.0 mph S4.8 kmh S 4.0 mph6.4 kmh 29.58 in1001.7 mb 0.00 in0.0 mm 0.00 in/hr0.0 mm/hr 0.09 in2.3 mm
09:15 AM 52.5°F11.4°C 49.4°F9.7°C 89% 4.0 mph S6.4 kmh S 5.0 mph8.0 kmh 29.58 in1001.7 mb 0.00 in0.0 mm 0.00 in/hr0.0 mm/hr 0.09 in2.3 mm
09:18 AM 52.7°F11.5°C 49.6°F9.8°C 89% 1.0 mph S1.6 kmh S 5.0 mph8.0 kmh 29.58 in1001.7 mb 0.00 in0.0 mm 0.00 in/hr0.0 mm/hr 0.09 in2.3 mm
09:19 AM 52.8°F11.6°C 49.7°F9.8°C 89% 2.0 mph S3.2 kmh S 5.0 mph8.0 kmh 29.58 in1001.7 mb 0.00 in0.0 mm 0.00 in/hr0.0 mm/hr 0.09 in2.3 mm
09:20 AM 52.9°F11.6°C 49.8°F9.9°C 89% 1.0 mph S1.6 kmh S 5.0 mph8.0 kmh 29.58 in1001.7 mb 0.00 in0.0 mm 0.00 in/hr0.0 mm/hr 0.09 in2.3 mm
09:23 AM 53.1°F11.7°C 50.0°F10.0°C 89% 2.0 mph S3.2 kmh S 5.0 mph8.0 kmh 29.58 in1001.7 mb 0.00 in0.0 mm 0.00 in/hr0.0 mm/hr 0.09 in2.3 mm
09:24 AM 53.2°F11.8°C 50.1°F10.1°C 89% 2.0 mph S3.2 kmh S 5.0 mph8.0 kmh 29.58 in1001.7 mb 0.00 in0.0 mm 0.00 in/hr0.0 mm/hr 0.09 in2.3 mm
09:25 AM 53.3°F11.8°C 50.5°F10.3°C 90% 1.0 mph S1.6 kmh S 5.0 mph8.0 kmh 29.58 in1001.7 mb 0.00 in0.0 mm 0.00 in/hr0.0 mm/hr 0.09 in2.3 mm
09:28 AM 53.7°F12.1°C 50.8°F10.4°C 90% 4.0 mph S6.4 kmh S 7.0 mph11.3 kmh 29.58 in1001.7 mb 0.00 in0.0 mm 0.00 in/hr0.0 mm/hr 0.09 in2.3 mm
09:29 AM 53.9°F12.2°C 51.0°F10.6°C 90% 3.0 mph S4.8 kmh S 7.0 mph11.3 kmh 29.58 in1001.7 mb 0.00 in0.0 mm 0.00 in/hr0.0 mm/hr 0.09 in2.3 mm
09:30 AM 54.1°F12.3°C 51.2°F10.7°C 90% 5.0 mph SW8.0 kmh SW 10.0 mph16.1 kmh 29.58 in1001.7 mb 0.00 in0.0 mm 0.00 in/hr0.0 mm/hr 0.09 in2.3 mm
09:33 AM 54.6°F12.6°C 51.7°F10.9°C 90% 4.0 mph SW6.4 kmh SW 10.0 mph16.1 kmh 29.58 in1001.7 mb 0.00 in0.0 mm 0.00 in/hr0.0 mm/hr 0.09 in2.3 mm
09:34 AM 54.7°F12.6°C 51.8°F11.0°C 90% 3.0 mph SW4.8 kmh SW 10.0 mph16.1 kmh 29.58 in1001.7 mb 0.00 in0.0 mm 0.00 in/hr0.0 mm/hr 0.09 in2.3 mm
09:35 AM 54.8°F12.7°C 51.9°F11.1°C 90% 2.0 mph SW3.2 kmh SW 10.0 mph16.1 kmh 29.58 in1001.7 mb 0.00 in0.0 mm 0.00 in/hr0.0 mm/hr 0.09 in2.3 mm
09:38 AM 55.0°F12.8°C 52.1°F11.2°C 90% 9.0 mph WSW14.5 kmh WSW 11.0 mph17.7 kmh 29.57 in1001.4 mb 0.00 in0.0 mm 0.00 in/hr0.0 mm/hr 0.09 in2.3 mm
09:39 AM 55.0°F12.8°C 52.1°F11.2°C 90% 2.0 mph WSW3.2 kmh WSW 11.0 mph17.7 kmh 29.57 in1001.4 mb 0.00 in0.0 mm 0.00 in/hr0.0 mm/hr 0.09 in2.3 mm
09:40 AM 55.1°F12.8°C 52.2°F11.2°C 90% 1.0 mph WSW1.6 kmh WSW 11.0 mph17.7 kmh 29.57 in1001.4 mb 0.00 in0.0 mm 0.00 in/hr0.0 mm/hr 0.09 in2.3 mm
09:43 AM 55.2°F12.9°C 52.3°F11.3°C 90% 2.0 mph WSW3.2 kmh WSW 11.0 mph17.7 kmh 29.57 in1001.4 mb 0.00 in0.0 mm 0.00 in/hr0.0 mm/hr 0.09 in2.3 mm
09:44 AM 55.2°F12.9°C 52.3°F11.3°C 90% 3.0 mph WSW4.8 kmh WSW 11.0 mph17.7 kmh 29.56 in1001.0 mb 0.00 in0.0 mm 0.00 in/hr0.0 mm/hr 0.09 in2.3 mm
09:45 AM 55.2°F12.9°C 52.3°F11.3°C 90% 4.0 mph WSW6.4 kmh WSW 11.0 mph17.7 kmh 29.56 in1001.0 mb 0.00 in0.0 mm 0.00 in/hr0.0 mm/hr 0.09 in2.3 mm
09:48 AM 55.3°F12.9°C 52.4°F11.3°C 90% 2.0 mph WSW3.2 kmh WSW 11.0 mph17.7 kmh 29.56 in1001.0 mb 0.00 in0.0 mm 0.00 in/hr0.0 mm/hr 0.09 in2.3 mm
09:49 AM 55.3°F12.9°C 52.4°F11.3°C 90% Calm Calm 11.0 mph17.7 kmh 29.56 in1001.0 mb 0.00 in0.0 mm 0.00 in/hr0.0 mm/hr 0.09 in2.3 mm
09:50 AM 55.4°F13.0°C 52.5°F11.4°C 90% 3.0 mph WSW4.8 kmh WSW 11.0 mph17.7 kmh 29.56 in1001.0 mb 0.00 in0.0 mm 0.00 in/hr0.0 mm/hr 0.09 in2.3 mm
09:53 AM 55.4°F13.0°C 52.5°F11.4°C 90% 3.0 mph WSW4.8 kmh WSW 11.0 mph17.7 kmh 29.54 in1000.3 mb 0.00 in0.0 mm 0.00 in/hr0.0 mm/hr 0.09 in2.3 mm
09:54 AM 55.4°F13.0°C 52.5°F11.4°C 90% 4.0 mph WSW6.4 kmh WSW 11.0 mph17.7 kmh 29.54 in1000.3 mb 0.00 in0.0 mm 0.00 in/hr0.0 mm/hr 0.09 in2.3 mm
09:55 AM 55.4°F13.0°C 52.2°F11.2°C 89% 2.0 mph WSW3.2 kmh WSW 11.0 mph17.7 kmh 29.54 in1000.3 mb 0.00 in0.0 mm 0.00 in/hr0.0 mm/hr 0.09 in2.3 mm
09:58 AM 55.4°F13.0°C 52.5°F11.4°C 90% 1.0 mph WSW1.6 kmh WSW 11.0 mph17.7 kmh 29.54 in1000.3 mb 0.00 in0.0 mm 0.00 in/hr0.0 mm/hr 0.09 in2.3 mm
09:59 AM 55.5°F13.1°C 52.6°F11.4°C 90% 1.0 mph WSW1.6 kmh WSW 11.0 mph17.7 kmh 29.54 in1000.3 mb 0.00 in0.0 mm 0.00 in/hr0.0 mm/hr 0.09 in2.3 mm
10:00 AM 55.5°F13.1°C 52.6°F11.4°C 90% 3.0 mph WSW4.8 kmh WSW 3.0 mph4.8 kmh 29.54 in1000.3 mb 0.00 in0.0 mm 0.00 in/hr0.0 mm/hr 0.09 in2.3 mm
10:03 AM 55.6°F13.1°C 52.7°F11.5°C 90% 4.0 mph WSW6.4 kmh WSW 4.0 mph6.4 kmh 29.54 in1000.3 mb 0.00 in0.0 mm 0.00 in/hr0.0 mm/hr 0.09 in2.3 mm
10:04 AM 55.6°F13.1°C 52.7°F11.5°C 90% 2.0 mph WSW3.2 kmh WSW 5.0 mph8.0 kmh 29.53 in1000.0 mb 0.00 in0.0 mm 0.00 in/hr0.0 mm/hr 0.09 in2.3 mm
10:05 AM 55.6°F13.1°C 52.7°F11.5°C 90% 3.0 mph WSW4.8 kmh WSW 5.0 mph8.0 kmh 29.53 in1000.0 mb 0.00 in0.0 mm 0.00 in/hr0.0 mm/hr 0.09 in2.3 mm
10:08 AM 55.6°F13.1°C 52.7°F11.5°C 90% 1.0 mph WSW1.6 kmh WSW 5.0 mph8.0 kmh 29.53 in1000.0 mb 0.00 in0.0 mm 0.00 in/hr0.0 mm/hr 0.09 in2.3 mm
10:09 AM 55.7°F13.2°C 52.8°F11.6°C 90% 3.0 mph WSW4.8 kmh WSW 5.0 mph8.0 kmh 29.52 in999.7 mb 0.00 in0.0 mm 0.00 in/hr0.0 mm/hr 0.09 in2.3 mm
10:10 AM 55.8°F13.2°C 52.9°F11.6°C 90% 4.0 mph WSW6.4 kmh WSW 6.0 mph9.7 kmh 29.52 in999.7 mb 0.00 in0.0 mm 0.00 in/hr0.0 mm/hr 0.09 in2.3 mm
10:13 AM 55.9°F13.3°C 53.0°F11.7°C 90% 2.0 mph WSW3.2 kmh WSW 8.0 mph12.9 kmh 29.52 in999.7 mb 0.00 in0.0 mm 0.00 in/hr0.0 mm/hr 0.09 in2.3 mm
10:14 AM 55.9°F13.3°C 53.0°F11.7°C 90% 4.0 mph WSW6.4 kmh WSW 8.0 mph12.9 kmh 29.52 in999.7 mb 0.00 in0.0 mm 0.00 in/hr0.0 mm/hr 0.09 in2.3 mm
10:15 AM 55.8°F13.2°C 52.9°F11.6°C 90% 1.0 mph WSW1.6 kmh WSW 8.0 mph12.9 kmh 29.52 in999.7 mb 0.00 in0.0 mm 0.00 in/hr0.0 mm/hr 0.09 in2.3 mm
10:18 AM 55.9°F13.3°C 52.7°F11.5°C 89% 4.0 mph WSW6.4 kmh WSW 8.0 mph12.9 kmh 29.52 in999.7 mb 0.00 in0.0 mm 0.00 in/hr0.0 mm/hr 0.09 in2.3 mm
10:19 AM 55.9°F13.3°C 52.7°F11.5°C 89% 1.0 mph WSW1.6 kmh WSW 8.0 mph12.9 kmh 29.52 in999.7 mb 0.00 in0.0 mm 0.00 in/hr0.0 mm/hr 0.09 in2.3 mm
10:20 AM 56.0°F13.3°C 52.8°F11.6°C 89% 4.0 mph WSW6.4 kmh WSW 8.0 mph12.9 kmh 29.52 in999.7 mb 0.00 in0.0 mm 0.00 in/hr0.0 mm/hr 0.09 in2.3 mm
10:23 AM 56.0°F13.3°C 52.8°F11.6°C 89% 2.0 mph W3.2 kmh W 8.0 mph12.9 kmh 29.53 in1000.0 mb 0.00 in0.0 mm 0.00 in/hr0.0 mm/hr 0.09 in2.3 mm
10:24 AM 55.9°F13.3°C 52.7°F11.5°C 89% 3.0 mph W4.8 kmh W 8.0 mph12.9 kmh 29.53 in1000.0 mb 0.00 in0.0 mm 0.00 in/hr0.0 mm/hr 0.09 in2.3 mm
10:25 AM 55.9°F13.3°C 52.7°F11.5°C 89% 4.0 mph W6.4 kmh W 8.0 mph12.9 kmh 29.53 in1000.0 mb 0.00 in0.0 mm 0.00 in/hr0.0 mm/hr 0.09 in2.3 mm
10:28 AM 56.0°F13.3°C 52.8°F11.6°C 89% 2.0 mph W3.2 kmh W 8.0 mph12.9 kmh 29.53 in1000.0 mb 0.00 in0.0 mm 0.00 in/hr0.0 mm/hr 0.09 in2.3 mm
10:29 AM 56.0°F13.3°C 52.8°F11.6°C 89% 1.0 mph W1.6 kmh W 8.0 mph12.9 kmh 29.53 in1000.0 mb 0.00 in0.0 mm 0.00 in/hr0.0 mm/hr 0.09 in2.3 mm
10:30 AM 56.0°F13.3°C 52.8°F11.6°C 89% 2.0 mph W3.2 kmh W 8.0 mph12.9 kmh 29.54 in1000.3 mb 0.00 in0.0 mm 0.00 in/hr0.0 mm/hr 0.09 in2.3 mm
10:33 AM 56.3°F13.5°C 53.1°F11.7°C 89% 3.0 mph W4.8 kmh W 8.0 mph12.9 kmh 29.54 in1000.3 mb 0.00 in0.0 mm 0.00 in/hr0.0 mm/hr 0.09 in2.3 mm
10:34 AM 56.5°F13.6°C 53.3°F11.8°C 89% 5.0 mph W8.0 kmh W 8.0 mph12.9 kmh 29.55 in1000.7 mb 0.00 in0.0 mm 0.00 in/hr0.0 mm/hr 0.09 in2.3 mm
10:35 AM 56.5°F13.6°C 53.3°F11.8°C 89% 5.0 mph W8.0 kmh W 8.0 mph12.9 kmh 29.55 in1000.7 mb 0.00 in0.0 mm 0.00 in/hr0.0 mm/hr 0.09 in2.3 mm
10:38 AM 56.7°F13.7°C 53.5°F11.9°C 89% 6.0 mph W9.7 kmh W 8.0 mph12.9 kmh 29.55 in1000.7 mb 0.00 in0.0 mm 0.00 in/hr0.0 mm/hr 0.09 in2.3 mm
10:39 AM 56.8°F13.8°C 53.6°F12.0°C 89% 2.0 mph W3.2 kmh W 8.0 mph12.9 kmh 29.55 in1000.7 mb 0.00 in0.0 mm 0.00 in/hr0.0 mm/hr 0.09 in2.3 mm
10:40 AM 56.9°F13.8°C 53.7°F12.1°C 89% 8.0 mph W12.9 kmh W 8.0 mph12.9 kmh 29.55 in1000.7 mb 0.00 in0.0 mm 0.00 in/hr0.0 mm/hr 0.09 in2.3 mm
10:43 AM 56.5°F13.6°C 52.4°F11.3°C 86% 3.0 mph WSW4.8 kmh WSW 10.0 mph16.1 kmh 29.56 in1001.0 mb 0.00 in0.0 mm 0.00 in/hr0.0 mm/hr 0.09 in2.3 mm
10:44 AM 56.2°F13.4°C 52.1°F11.2°C 86% 6.0 mph WSW9.7 kmh WSW 10.0 mph16.1 kmh 29.56 in1001.0 mb 0.00 in0.0 mm 0.00 in/hr0.0 mm/hr 0.09 in2.3 mm
10:45 AM 56.0°F13.3°C 51.9°F11.1°C 86% 5.0 mph WSW8.0 kmh WSW 10.0 mph16.1 kmh 29.56 in1001.0 mb 0.00 in0.0 mm 0.00 in/hr0.0 mm/hr 0.09 in2.3 mm
10:48 AM 55.8°F13.2°C 52.3°F11.3°C 88% 2.0 mph WSW3.2 kmh WSW 10.0 mph16.1 kmh 29.56 in1001.0 mb 0.00 in0.0 mm 0.00 in/hr0.0 mm/hr 0.09 in2.3 mm
10:49 AM 55.8°F13.2°C 52.3°F11.3°C 88% 5.0 mph WSW8.0 kmh WSW 10.0 mph16.1 kmh 29.56 in1001.0 mb 0.00 in0.0 mm 0.00 in/hr0.0 mm/hr 0.09 in2.3 mm
10:50 AM 55.8°F13.2°C 52.0°F11.1°C 87% 3.0 mph WSW4.8 kmh WSW 10.0 mph16.1 kmh 29.56 in1001.0 mb 0.00 in0.0 mm 0.00 in/hr0.0 mm/hr 0.09 in2.3 mm
10:53 AM 56.0°F13.3°C 52.5°F11.4°C 88% Calm Calm 10.0 mph16.1 kmh 29.56 in1001.0 mb 0.00 in0.0 mm 0.00 in/hr0.0 mm/hr 0.09 in2.3 mm
10:54 AM 56.1°F13.4°C 52.9°F11.6°C 89% 1.0 mph WSW1.6 kmh WSW 10.0 mph16.1 kmh 29.56 in1001.0 mb 0.00 in0.0 mm 0.00 in/hr0.0 mm/hr 0.09 in2.3 mm
10:55 AM 56.3°F13.5°C 53.1°F11.7°C 89% 1.0 mph WSW1.6 kmh WSW 10.0 mph16.1 kmh 29.56 in1001.0 mb 0.00 in0.0 mm 0.00 in/hr0.0 mm/hr 0.09 in2.3 mm
10:58 AM 57.1°F13.9°C 53.9°F12.2°C 89% 3.0 mph WSW4.8 kmh WSW 10.0 mph16.1 kmh 29.56 in1001.0 mb 0.00 in0.0 mm 0.00 in/hr0.0 mm/hr 0.09 in2.3 mm
10:59 AM 57.3°F14.1°C 54.1°F12.3°C 89% 3.0 mph WSW4.8 kmh WSW 10.0 mph16.1 kmh 29.56 in1001.0 mb 0.00 in0.0 mm 0.00 in/hr0.0 mm/hr 0.09 in2.3 mm
11:00 AM 57.5°F14.2°C 54.3°F12.4°C 89% 3.0 mph WSW4.8 kmh WSW 3.0 mph4.8 kmh 29.56 in1001.0 mb 0.00 in0.0 mm 0.00 in/hr0.0 mm/hr 0.09 in2.3 mm
11:03 AM 57.7°F14.3°C 54.2°F12.3°C 88% 7.0 mph W11.3 kmh W 11.0 mph17.7 kmh 29.56 in1001.0 mb 0.00 in0.0 mm 0.00 in/hr0.0 mm/hr 0.09 in2.3 mm
11:04 AM 57.8°F14.3°C 54.0°F12.2°C 87% 4.0 mph W6.4 kmh W 11.0 mph17.7 kmh 29.56 in1001.0 mb 0.00 in0.0 mm 0.00 in/hr0.0 mm/hr 0.09 in2.3 mm
11:05 AM 57.9°F14.4°C 54.4°F12.4°C 88% 2.0 mph W3.2 kmh W 11.0 mph17.7 kmh 29.56 in1001.0 mb 0.00 in0.0 mm 0.00 in/hr0.0 mm/hr 0.09 in2.3 mm
11:08 AM 58.2°F14.6°C 54.4°F12.4°C 87% 4.0 mph W6.4 kmh W 11.0 mph17.7 kmh 29.56 in1001.0 mb 0.00 in0.0 mm 0.00 in/hr0.0 mm/hr 0.09 in2.3 mm
11:09 AM 58.3°F14.6°C 54.1°F12.3°C 86% 1.0 mph W1.6 kmh W 11.0 mph17.7 kmh 29.56 in1001.0 mb 0.00 in0.0 mm 0.00 in/hr0.0 mm/hr 0.09 in2.3 mm
11:10 AM 58.4°F14.7°C 54.6°F12.6°C 87% 3.0 mph W4.8 kmh W 11.0 mph17.7 kmh 29.56 in1001.0 mb 0.00 in0.0 mm 0.00 in/hr0.0 mm/hr 0.09 in2.3 mm
11:13 AM 58.7°F14.8°C 54.5°F12.5°C 86% 4.0 mph W6.4 kmh W 11.0 mph17.7 kmh 29.56 in1001.0 mb 0.00 in0.0 mm 0.00 in/hr0.0 mm/hr 0.09 in2.3 mm
11:14 AM 58.7°F14.8°C 54.5°F12.5°C 86% 4.0 mph W6.4 kmh W 11.0 mph17.7 kmh 29.56 in1001.0 mb 0.00 in0.0 mm 0.00 in/hr0.0 mm/hr 0.09 in2.3 mm
11:15 AM 58.8°F14.9°C 54.3°F12.4°C 85% 3.0 mph W4.8 kmh W 11.0 mph17.7 kmh 29.56 in1001.0 mb 0.00 in0.0 mm 0.00 in/hr0.0 mm/hr 0.09 in2.3 mm
11:18 AM 58.6°F14.8°C 53.8°F12.1°C 84% 6.0 mph W9.7 kmh W 11.0 mph17.7 kmh 29.56 in1001.0 mb 0.00 in0.0 mm 0.00 in/hr0.0 mm/hr 0.09 in2.3 mm
11:19 AM 58.6°F14.8°C 53.8°F12.1°C 84% 3.0 mph W4.8 kmh W 11.0 mph17.7 kmh 29.56 in1001.0 mb 0.00 in0.0 mm 0.00 in/hr0.0 mm/hr 0.09 in2.3 mm
11:20 AM 58.7°F14.8°C 53.9°F12.2°C 84% 3.0 mph W4.8 kmh W 11.0 mph17.7 kmh 29.56 in1001.0 mb 0.00 in0.0 mm 0.00 in/hr0.0 mm/hr 0.09 in2.3 mm
11:23 AM 58.8°F14.9°C 53.7°F12.1°C 83% 4.0 mph W6.4 kmh W 11.0 mph17.7 kmh 29.56 in1001.0 mb 0.00 in0.0 mm 0.00 in/hr0.0 mm/hr 0.09 in2.3 mm
11:24 AM 58.8°F14.9°C 53.7°F12.1°C 83% 5.0 mph W8.0 kmh W 11.0 mph17.7 kmh 29.56 in1001.0 mb 0.00 in0.0 mm 0.00 in/hr0.0 mm/hr 0.09 in2.3 mm
11:25 AM 58.8°F14.9°C 53.7°F12.1°C 83% 8.0 mph W12.9 kmh W 11.0 mph17.7 kmh 29.56 in1001.0 mb 0.00 in0.0 mm 0.00 in/hr0.0 mm/hr 0.09 in2.3 mm
11:28 AM 58.6°F14.8°C 53.1°F11.7°C 82% 10.0 mph WNW16.1 kmh WNW 15.0 mph24.1 kmh 29.57 in1001.4 mb 0.00 in0.0 mm 0.00 in/hr0.0 mm/hr 0.09 in2.3 mm
11:29 AM 58.5°F14.7°C 53.0°F11.7°C 82% 7.0 mph WNW11.3 kmh WNW 15.0 mph24.1 kmh 29.57 in1001.4 mb 0.00 in0.0 mm 0.00 in/hr0.0 mm/hr 0.09 in2.3 mm
11:30 AM 58.4°F14.7°C 52.9°F11.6°C 82% 7.0 mph W11.3 kmh W 15.0 mph24.1 kmh 29.57 in1001.4 mb 0.00 in0.0 mm 0.00 in/hr0.0 mm/hr 0.09 in2.3 mm
11:33 AM 58.1°F14.5°C 52.6°F11.4°C 82% 5.0 mph NW8.0 kmh NW 18.0 mph29.0 kmh 29.57 in1001.4 mb 0.00 in0.0 mm 0.00 in/hr0.0 mm/hr 0.09 in2.3 mm
11:34 AM 58.0°F14.4°C 52.5°F11.4°C 82% 4.0 mph NW6.4 kmh NW 18.0 mph29.0 kmh 29.57 in1001.4 mb 0.00 in0.0 mm 0.00 in/hr0.0 mm/hr 0.09 in2.3 mm
11:35 AM 57.9°F14.4°C 52.5°F11.4°C 82% 9.0 mph NW14.5 kmh NW 18.0 mph29.0 kmh 29.57 in1001.4 mb 0.00 in0.0 mm 0.00 in/hr0.0 mm/hr 0.09 in2.3 mm
11:38 AM 57.7°F14.3°C 51.9°F11.1°C 81% 7.0 mph WNW11.3 kmh WNW 18.0 mph29.0 kmh 29.57 in1001.4 mb 0.00 in0.0 mm 0.00 in/hr0.0 mm/hr 0.09 in2.3 mm
11:39 AM 57.6°F14.2°C 51.8°F11.0°C 81% 8.0 mph NW12.9 kmh NW 18.0 mph29.0 kmh 29.57 in1001.4 mb 0.00 in0.0 mm 0.00 in/hr0.0 mm/hr 0.09 in2.3 mm
11:40 AM 57.6°F14.2°C 51.8°F11.0°C 81% 7.0 mph NW11.3 kmh NW 18.0 mph29.0 kmh 29.57 in1001.4 mb 0.00 in0.0 mm 0.00 in/hr0.0 mm/hr 0.09 in2.3 mm
11:43 AM 57.6°F14.2°C 51.8°F11.0°C 81% 6.0 mph WNW9.7 kmh WNW 18.0 mph29.0 kmh 29.57 in1001.4 mb 0.00 in0.0 mm 0.00 in/hr0.0 mm/hr 0.09 in2.3 mm
11:44 AM 57.6°F14.2°C 51.8°F11.0°C 81% 6.0 mph WNW9.7 kmh WNW 18.0 mph29.0 kmh 29.57 in1001.4 mb 0.00 in0.0 mm 0.00 in/hr0.0 mm/hr 0.09 in2.3 mm
11:45 AM 57.7°F14.3°C 51.9°F11.1°C 81% 5.0 mph WNW8.0 kmh WNW 18.0 mph29.0 kmh 29.57 in1001.4 mb 0.00 in0.0 mm 0.00 in/hr0.0 mm/hr 0.09 in2.3 mm
11:48 AM 57.7°F14.3°C 51.9°F11.1°C 81% 9.0 mph NW14.5 kmh NW 18.0 mph29.0 kmh 29.57 in1001.4 mb 0.00 in0.0 mm 0.00 in/hr0.0 mm/hr 0.09 in2.3 mm
11:49 AM 57.7°F14.3°C 51.9°F11.1°C 81% 6.0 mph NW9.7 kmh NW 18.0 mph29.0 kmh 29.58 in1001.7 mb 0.00 in0.0 mm 0.00 in/hr0.0 mm/hr 0.09 in2.3 mm
11:50 AM 57.7°F14.3°C 51.9°F11.1°C 81% 7.0 mph NW11.3 kmh NW 18.0 mph29.0 kmh 29.58 in1001.7 mb 0.00 in0.0 mm 0.00 in/hr0.0 mm/hr 0.09 in2.3 mm
11:53 AM 57.3°F14.1°C 51.2°F10.7°C 80% 10.0 mph WNW16.1 kmh WNW 18.0 mph29.0 kmh 29.58 in1001.7 mb 0.00 in0.0 mm 0.00 in/hr0.0 mm/hr 0.09 in2.3 mm
11:54 AM 57.2°F14.0°C 51.1°F10.6°C 80% 9.0 mph WNW14.5 kmh WNW 18.0 mph29.0 kmh 29.58 in1001.7 mb 0.00 in0.0 mm 0.00 in/hr0.0 mm/hr 0.09 in2.3 mm
11:55 AM 56.8°F13.8°C 50.7°F10.4°C 80% 10.0 mph SW16.1 kmh SW 18.0 mph29.0 kmh 29.58 in1001.7 mb 0.00 in0.0 mm 0.00 in/hr0.0 mm/hr 0.09 in2.3 mm
11:58 AM 56.1°F13.4°C 50.0°F10.0°C 80% 9.0 mph WNW14.5 kmh WNW 23.0 mph37.0 kmh 29.58 in1001.7 mb 0.00 in0.0 mm 0.00 in/hr0.0 mm/hr 0.09 in2.3 mm
11:59 AM 56.1°F13.4°C 50.0°F10.0°C 80% 4.0 mph NW6.4 kmh NW 23.0 mph37.0 kmh 29.58 in1001.7 mb 0.00 in0.0 mm 0.00 in/hr0.0 mm/hr 0.09 in2.3 mm
12:00 PM 56.1°F13.4°C 50.4°F10.2°C 81% 11.0 mph WNW17.7 kmh WNW 11.0 mph17.7 kmh 29.58 in1001.7 mb 0.00 in0.0 mm 0.00 in/hr0.0 mm/hr 0.09 in2.3 mm
12:03 PM 55.9°F13.3°C 50.2°F10.1°C 81% 8.0 mph NW12.9 kmh NW 16.0 mph25.7 kmh 29.58 in1001.7 mb 0.00 in0.0 mm 0.00 in/hr0.0 mm/hr 0.09 in2.3 mm
12:04 PM 55.5°F13.1°C 49.4°F9.7°C 80% 12.0 mph WNW19.3 kmh WNW 18.0 mph29.0 kmh 29.59 in1002.0 mb 0.00 in0.0 mm 0.00 in/hr0.0 mm/hr 0.09 in2.3 mm
12:05 PM 55.1°F12.8°C 49.1°F9.5°C 80% 7.0 mph WNW11.3 kmh WNW 18.0 mph29.0 kmh 29.59 in1002.0 mb 0.00 in0.0 mm 0.00 in/hr0.0 mm/hr 0.09 in2.3 mm
12:08 PM 54.5°F12.5°C 48.5°F9.2°C 80% 9.0 mph W14.5 kmh W 18.0 mph29.0 kmh 29.59 in1002.0 mb 0.00 in0.0 mm 0.00 in/hr0.0 mm/hr 0.09 in2.3 mm
12:09 PM 54.5°F12.5°C 48.5°F9.2°C 80% 6.0 mph WNW9.7 kmh WNW 18.0 mph29.0 kmh 29.58 in1001.7 mb 0.00 in0.0 mm 0.00 in/hr0.0 mm/hr 0.09 in2.3 mm
12:10 PM 54.5°F12.5°C 48.5°F9.2°C 80% 5.0 mph WNW8.0 kmh WNW 18.0 mph29.0 kmh 29.59 in1002.0 mb 0.00 in0.0 mm 0.00 in/hr0.0 mm/hr 0.09 in2.3 mm
12:13 PM 54.4°F12.4°C 48.4°F9.1°C 80% 13.0 mph WNW20.9 kmh WNW 18.0 mph29.0 kmh 29.59 in1002.0 mb 0.00 in0.0 mm 0.00 in/hr0.0 mm/hr 0.09 in2.3 mm
12:14 PM 54.3°F12.4°C 48.3°F9.1°C 80% 16.0 mph W25.7 kmh W 18.0 mph29.0 kmh 29.59 in1002.0 mb 0.00 in0.0 mm 0.00 in/hr0.0 mm/hr 0.09 in2.3 mm
12:15 PM 54.1°F12.3°C 48.1°F8.9°C 80% 7.0 mph W11.3 kmh W 18.0 mph29.0 kmh 29.58 in1001.7 mb 0.00 in0.0 mm 0.00 in/hr0.0 mm/hr 0.09 in2.3 mm
12:18 PM 53.9°F12.2°C 47.9°F8.8°C 80% 15.0 mph NW24.1 kmh NW 18.0 mph29.0 kmh 29.58 in1001.7 mb 0.00 in0.0 mm 0.00 in/hr0.0 mm/hr 0.09 in2.3 mm
12:19 PM 54.0°F12.2°C 48.0°F8.9°C 80% 7.0 mph WNW11.3 kmh WNW 18.0 mph29.0 kmh 29.58 in1001.7 mb 0.00 in0.0 mm 0.00 in/hr0.0 mm/hr 0.09 in2.3 mm
12:20 PM 54.0°F12.2°C 48.0°F8.9°C 80% 11.0 mph NW17.7 kmh NW 18.0 mph29.0 kmh 29.58 in1001.7 mb 0.00 in0.0 mm 0.00 in/hr0.0 mm/hr 0.09 in2.3 mm
12:23 PM 53.8°F12.1°C 47.5°F8.6°C 79% 7.0 mph NW11.3 kmh NW 18.0 mph29.0 kmh 29.58 in1001.7 mb 0.00 in0.0 mm 0.00 in/hr0.0 mm/hr 0.09 in2.3 mm
12:24 PM 53.8°F12.1°C 47.8°F8.8°C 80% 3.0 mph NW4.8 kmh NW 18.0 mph29.0 kmh 29.58 in1001.7 mb 0.00 in0.0 mm 0.00 in/hr0.0 mm/hr 0.09 in2.3 mm
12:25 PM 54.0°F12.2°C 48.0°F8.9°C 80% 6.0 mph NW9.7 kmh NW 18.0 mph29.0 kmh 29.58 in1001.7 mb 0.00 in0.0 mm 0.00 in/hr0.0 mm/hr 0.09 in2.3 mm
12:28 PM 54.6°F12.6°C 48.6°F9.2°C 80% 5.0 mph NW8.0 kmh NW 18.0 mph29.0 kmh 29.58 in1001.7 mb 0.00 in0.0 mm 0.00 in/hr0.0 mm/hr 0.09 in2.3 mm
12:29 PM 54.5°F12.5°C 48.1°F8.9°C 79% 5.0 mph NNW8.0 kmh NNW 18.0 mph29.0 kmh 29.58 in1001.7 mb 0.00 in0.0 mm 0.00 in/hr0.0 mm/hr 0.09 in2.3 mm
12:30 PM 54.5°F12.5°C 48.1°F8.9°C 79% 6.0 mph N9.7 kmh N 18.0 mph29.0 kmh 29.58 in1001.7 mb 0.00 in0.0 mm 0.00 in/hr0.0 mm/hr 0.09 in2.3 mm
12:33 PM 54.8°F12.7°C 48.8°F9.3°C 80% 5.0 mph NE8.0 kmh NE 18.0 mph29.0 kmh 29.58 in1001.7 mb 0.00 in0.0 mm 0.00 in/hr0.0 mm/hr 0.09 in2.3 mm
12:34 PM 54.9°F12.7°C 48.5°F9.2°C 79% 10.0 mph NNE16.1 kmh NNE 18.0 mph29.0 kmh 29.58 in1001.7 mb 0.00 in0.0 mm 0.00 in/hr0.0 mm/hr 0.09 in2.3 mm
12:35 PM 54.8°F12.7°C 48.4°F9.1°C 79% 7.0 mph NNW11.3 kmh NNW 18.0 mph29.0 kmh 29.57 in1001.4 mb 0.00 in0.0 mm 0.00 in/hr0.0 mm/hr 0.09 in2.3 mm
12:38 PM 54.3°F12.4°C 47.6°F8.7°C 78% 7.0 mph N11.3 kmh N 18.0 mph29.0 kmh 29.57 in1001.4 mb 0.00 in0.0 mm 0.00 in/hr0.0 mm/hr 0.09 in2.3 mm
12:39 PM 54.2°F12.3°C 47.8°F8.8°C 79% 8.0 mph NNW12.9 kmh NNW 18.0 mph29.0 kmh 29.57 in1001.4 mb 0.00 in0.0 mm 0.00 in/hr0.0 mm/hr 0.09 in2.3 mm
12:40 PM 54.2°F12.3°C 47.8°F8.8°C 79% 10.0 mph NNE16.1 kmh NNE 18.0 mph29.0 kmh 29.57 in1001.4 mb 0.00 in0.0 mm 0.00 in/hr0.0 mm/hr 0.09 in2.3 mm
12:43 PM 54.3°F12.4°C 48.3°F9.1°C 80% 2.0 mph NNE3.2 kmh NNE 18.0 mph29.0 kmh 29.57 in1001.4 mb 0.00 in0.0 mm 0.00 in/hr0.0 mm/hr 0.09 in2.3 mm
12:44 PM 54.5°F12.5°C 48.5°F9.2°C 80% 7.0 mph WNW11.3 kmh WNW 18.0 mph29.0 kmh 29.57 in1001.4 mb 0.00 in0.0 mm 0.00 in/hr0.0 mm/hr 0.09 in2.3 mm
12:45 PM 54.5°F12.5°C 48.1°F8.9°C 79% 6.0 mph NW9.7 kmh NW 18.0 mph29.0 kmh 29.58 in1001.7 mb 0.00 in0.0 mm 0.00 in/hr0.0 mm/hr 0.09 in2.3 mm
12:48 PM 54.5°F12.5°C 48.1°F8.9°C 79% 2.0 mph NW3.2 kmh NW 18.0 mph29.0 kmh 29.57 in1001.4 mb 0.00 in0.0 mm 0.00 in/hr0.0 mm/hr 0.09 in2.3 mm
12:49 PM 54.5°F12.5°C 48.1°F8.9°C 79% 11.0 mph NW17.7 kmh NW 18.0 mph29.0 kmh 29.58 in1001.7 mb 0.00 in0.0 mm 0.00 in/hr0.0 mm/hr 0.09 in2.3 mm
12:50 PM 54.4°F12.4°C 47.7°F8.7°C 78% 6.0 mph NW9.7 kmh NW 18.0 mph29.0 kmh 29.58 in1001.7 mb 0.00 in0.0 mm 0.00 in/hr0.0 mm/hr 0.09 in2.3 mm
12:53 PM 54.0°F12.2°C 47.3°F8.5°C 78% 12.0 mph NW19.3 kmh NW 18.0 mph29.0 kmh 29.58 in1001.7 mb 0.00 in0.0 mm 0.00 in/hr0.0 mm/hr 0.09 in2.3 mm
12:54 PM 53.8°F12.1°C 47.1°F8.4°C 78% 6.0 mph NW9.7 kmh NW 18.0 mph29.0 kmh 29.58 in1001.7 mb 0.00 in0.0 mm 0.00 in/hr0.0 mm/hr 0.09 in2.3 mm
12:55 PM 53.9°F12.2°C 47.6°F8.7°C 79% 2.0 mph NW3.2 kmh NW 18.0 mph29.0 kmh 29.57 in1001.4 mb 0.00 in0.0 mm 0.00 in/hr0.0 mm/hr 0.09 in2.3 mm
12:58 PM 54.0°F12.2°C 47.6°F8.7°C 79% 7.0 mph NE11.3 kmh NE 18.0 mph29.0 kmh 29.57 in1001.4 mb 0.00 in0.0 mm 0.00 in/hr0.0 mm/hr 0.09 in2.3 mm
12:59 PM 54.2°F12.3°C 47.8°F8.8°C 79% 11.0 mph N17.7 kmh N 18.0 mph29.0 kmh 29.57 in1001.4 mb 0.00 in0.0 mm 0.00 in/hr0.0 mm/hr 0.09 in2.3 mm
01:00 PM 54.1°F12.3°C 47.4°F8.6°C 78% 7.0 mph N11.3 kmh N 7.0 mph11.3 kmh 29.57 in1001.4 mb 0.00 in0.0 mm 0.00 in/hr0.0 mm/hr 0.09 in2.3 mm
01:03 PM 54.2°F12.3°C 47.5°F8.6°C 78% 5.0 mph N8.0 kmh N 12.0 mph19.3 kmh 29.58 in1001.7 mb 0.00 in0.0 mm 0.00 in/hr0.0 mm/hr 0.09 in2.3 mm
01:04 PM 54.2°F12.3°C 47.5°F8.6°C 78% 11.0 mph W17.7 kmh W 12.0 mph19.3 kmh 29.58 in1001.7 mb 0.00 in0.0 mm 0.00 in/hr0.0 mm/hr 0.09 in2.3 mm
01:05 PM 54.2°F12.3°C 47.5°F8.6°C 78% 3.0 mph WNW4.8 kmh WNW 12.0 mph19.3 kmh 29.58 in1001.7 mb 0.00 in0.0 mm 0.00 in/hr0.0 mm/hr 0.09 in2.3 mm
01:08 PM 54.5°F12.5°C 47.8°F8.8°C 78% 6.0 mph NW9.7 kmh NW 12.0 mph19.3 kmh 29.58 in1001.7 mb 0.00 in0.0 mm 0.00 in/hr0.0 mm/hr 0.09 in2.3 mm
01:09 PM 54.5°F12.5°C 47.5°F8.6°C 77% 4.0 mph NW6.4 kmh NW 12.0 mph19.3 kmh 29.58 in1001.7 mb 0.00 in0.0 mm 0.00 in/hr0.0 mm/hr 0.09 in2.3 mm
01:10 PM 54.5°F12.5°C 47.5°F8.6°C 77% 5.0 mph NNW8.0 kmh NNW 14.0 mph22.5 kmh 29.58 in1001.7 mb 0.00 in0.0 mm 0.00 in/hr0.0 mm/hr 0.09 in2.3 mm
01:13 PM 54.2°F12.3°C 46.8°F8.2°C 76% 9.0 mph NW14.5 kmh NW 15.0 mph24.1 kmh 29.58 in1001.7 mb 0.00 in0.0 mm 0.00 in/hr0.0 mm/hr 0.09 in2.3 mm
01:14 PM 54.1°F12.3°C 46.7°F8.2°C 76% 7.0 mph W11.3 kmh W 15.0 mph24.1 kmh 29.58 in1001.7 mb 0.00 in0.0 mm 0.00 in/hr0.0 mm/hr 0.09 in2.3 mm
01:15 PM 54.0°F12.2°C 46.6°F8.1°C 76% 7.0 mph NW11.3 kmh NW 15.0 mph24.1 kmh 29.58 in1001.7 mb 0.00 in0.0 mm 0.00 in/hr0.0 mm/hr 0.09 in2.3 mm
01:18 PM 53.9°F12.2°C 46.9°F8.3°C 77% 4.0 mph N6.4 kmh N 15.0 mph24.1 kmh 29.58 in1001.7 mb 0.00 in0.0 mm 0.00 in/hr0.0 mm/hr 0.09 in2.3 mm
01:19 PM 54.1°F12.3°C 47.1°F8.4°C 77% 4.0 mph N6.4 kmh N 15.0 mph24.1 kmh 29.58 in1001.7 mb 0.00 in0.0 mm 0.00 in/hr0.0 mm/hr 0.09 in2.3 mm
01:20 PM 54.3°F12.4°C 47.3°F8.5°C 77% 5.0 mph N8.0 kmh N 15.0 mph24.1 kmh 29.58 in1001.7 mb 0.00 in0.0 mm 0.00 in/hr0.0 mm/hr 0.09 in2.3 mm
01:23 PM 54.2°F12.3°C 46.5°F8.1°C 75% 9.0 mph NW14.5 kmh NW 15.0 mph24.1 kmh 29.58 in1001.7 mb 0.00 in0.0 mm 0.00 in/hr0.0 mm/hr 0.09 in2.3 mm
01:24 PM 54.0°F12.2°C 46.3°F7.9°C 75% 7.0 mph NW11.3 kmh NW 15.0 mph24.1 kmh 29.58 in1001.7 mb 0.00 in0.0 mm 0.00 in/hr0.0 mm/hr 0.09 in2.3 mm
01:25 PM 54.1°F12.3°C 46.4°F8.0°C 75% 6.0 mph WNW9.7 kmh WNW 15.0 mph24.1 kmh 29.59 in1002.0 mb 0.00 in0.0 mm 0.00 in/hr0.0 mm/hr 0.09 in2.3 mm
01:28 PM 54.1°F12.3°C 45.7°F7.6°C 73% 9.0 mph N14.5 kmh N 20.0 mph32.2 kmh 29.59 in1002.0 mb 0.00 in0.0 mm 0.00 in/hr0.0 mm/hr 0.09 in2.3 mm
01:29 PM 54.1°F12.3°C 45.7°F7.6°C 73% 6.0 mph NW9.7 kmh NW 20.0 mph32.2 kmh 29.59 in1002.0 mb 0.00 in0.0 mm 0.00 in/hr0.0 mm/hr 0.09 in2.3 mm
01:30 PM 53.9°F12.2°C 45.5°F7.5°C 73% 16.0 mph W25.7 kmh W 20.0 mph32.2 kmh 29.59 in1002.0 mb 0.00 in0.0 mm 0.00 in/hr0.0 mm/hr 0.09 in2.3 mm
01:33 PM 53.6°F12.0°C 45.5°F7.5°C 74% 9.0 mph NW14.5 kmh NW 20.0 mph32.2 kmh 29.59 in1002.0 mb 0.00 in0.0 mm 0.00 in/hr0.0 mm/hr 0.09 in2.3 mm
01:34 PM 53.7°F12.1°C 45.6°F7.6°C 74% 9.0 mph NW14.5 kmh NW 20.0 mph32.2 kmh 29.59 in1002.0 mb 0.00 in0.0 mm 0.00 in/hr0.0 mm/hr 0.09 in2.3 mm
01:35 PM 53.7°F12.1°C 45.3°F7.4°C 73% 5.0 mph NW8.0 kmh NW 20.0 mph32.2 kmh 29.59 in1002.0 mb 0.00 in0.0 mm 0.00 in/hr0.0 mm/hr 0.09 in2.3 mm
01:38 PM 53.8°F12.1°C 45.4°F7.4°C 73% 1.0 mph WNW1.6 kmh WNW 20.0 mph32.2 kmh 29.58 in1001.7 mb 0.00 in0.0 mm 0.00 in/hr0.0 mm/hr 0.09 in2.3 mm
01:39 PM 54.0°F12.2°C 45.6°F7.6°C 73% 3.0 mph WNW4.8 kmh WNW 20.0 mph32.2 kmh 29.59 in1002.0 mb 0.00 in0.0 mm 0.00 in/hr0.0 mm/hr 0.09 in2.3 mm
01:40 PM 54.2°F12.3°C 45.8°F7.7°C 73% 5.0 mph WNW8.0 kmh WNW 20.0 mph32.2 kmh 29.59 in1002.0 mb 0.00 in0.0 mm 0.00 in/hr0.0 mm/hr 0.09 in2.3 mm
01:43 PM 54.4°F12.4°C 45.6°F7.6°C 72% 2.0 mph NW3.2 kmh NW 20.0 mph32.2 kmh 29.59 in1002.0 mb 0.00 in0.0 mm 0.00 in/hr0.0 mm/hr 0.09 in2.3 mm
01:44 PM 54.4°F12.4°C 45.2°F7.3°C 71% 7.0 mph NW11.3 kmh NW 20.0 mph32.2 kmh 29.59 in1002.0 mb 0.00 in0.0 mm 0.00 in/hr0.0 mm/hr 0.09 in2.3 mm
01:45 PM 54.3°F12.4°C 45.1°F7.3°C 71% 3.0 mph NW4.8 kmh NW 20.0 mph32.2 kmh 29.59 in1002.0 mb 0.00 in0.0 mm 0.00 in/hr0.0 mm/hr 0.09 in2.3 mm
01:48 PM 54.5°F12.5°C 45.3°F7.4°C 71% 3.0 mph NNW4.8 kmh NNW 20.0 mph32.2 kmh 29.58 in1001.7 mb 0.00 in0.0 mm 0.00 in/hr0.0 mm/hr 0.09 in2.3 mm
01:49 PM 54.6°F12.6°C 45.4°F7.4°C 71% 8.0 mph NW12.9 kmh NW 20.0 mph32.2 kmh 29.58 in1001.7 mb 0.00 in0.0 mm 0.00 in/hr0.0 mm/hr 0.09 in2.3 mm
01:50 PM 54.8°F12.7°C 45.6°F7.6°C 71% 6.0 mph NNE9.7 kmh NNE 20.0 mph32.2 kmh 29.58 in1001.7 mb 0.00 in0.0 mm 0.00 in/hr0.0 mm/hr 0.09 in2.3 mm
01:53 PM 54.4°F12.4°C 44.8°F7.1°C 70% 7.0 mph WNW11.3 kmh WNW 20.0 mph32.2 kmh 29.59 in1002.0 mb 0.00 in0.0 mm 0.00 in/hr0.0 mm/hr 0.09 in2.3 mm
01:54 PM 54.2°F12.3°C 44.6°F7.0°C 70% 10.0 mph WSW16.1 kmh WSW 20.0 mph32.2 kmh 29.59 in1002.0 mb 0.00 in0.0 mm 0.00 in/hr0.0 mm/hr 0.09 in2.3 mm
01:55 PM 54.0°F12.2°C 44.1°F6.7°C 69% 8.0 mph WNW12.9 kmh WNW 20.0 mph32.2 kmh 29.59 in1002.0 mb 0.00 in0.0 mm 0.00 in/hr0.0 mm/hr 0.09 in2.3 mm
01:58 PM 53.7°F12.1°C 44.5°F6.9°C 71% 10.0 mph W16.1 kmh W 20.0 mph32.2 kmh 29.59 in1002.0 mb 0.00 in0.0 mm 0.00 in/hr0.0 mm/hr 0.09 in2.3 mm
01:59 PM 53.6°F12.0°C 44.4°F6.9°C 71% 10.0 mph W16.1 kmh W 20.0 mph32.2 kmh 29.59 in1002.0 mb 0.00 in0.0 mm 0.00 in/hr0.0 mm/hr 0.09 in2.3 mm
02:00 PM 53.4°F11.9°C 43.9°F6.6°C 70% 8.0 mph WSW12.9 kmh WSW 11.0 mph17.7 kmh 29.59 in1002.0 mb 0.00 in0.0 mm 0.00 in/hr0.0 mm/hr 0.09 in2.3 mm
02:03 PM 53.6°F12.0°C 44.4°F6.9°C 71% 4.0 mph W6.4 kmh W 12.0 mph19.3 kmh 29.59 in1002.0 mb 0.00 in0.0 mm 0.00 in/hr0.0 mm/hr 0.09 in2.3 mm
02:04 PM 53.8°F12.1°C 44.6°F7.0°C 71% 6.0 mph W9.7 kmh W 12.0 mph19.3 kmh 29.59 in1002.0 mb 0.00 in0.0 mm 0.00 in/hr0.0 mm/hr 0.09 in2.3 mm
02:05 PM 53.8°F12.1°C 44.6°F7.0°C 71% 11.0 mph W17.7 kmh W 13.0 mph20.9 kmh 29.59 in1002.0 mb 0.00 in0.0 mm 0.00 in/hr0.0 mm/hr 0.09 in2.3 mm
02:08 PM 53.6°F12.0°C 44.1°F6.7°C 70% 9.0 mph W14.5 kmh W 13.0 mph20.9 kmh 29.59 in1002.0 mb 0.00 in0.0 mm 0.00 in/hr0.0 mm/hr 0.09 in2.3 mm
02:09 PM 53.4°F11.9°C 43.5°F6.4°C 69% 11.0 mph WNW17.7 kmh WNW 15.0 mph24.1 kmh 29.59 in1002.0 mb 0.00 in0.0 mm 0.00 in/hr0.0 mm/hr 0.09 in2.3 mm
02:10 PM 53.0°F11.7°C 43.1°F6.2°C 69% 10.0 mph WNW16.1 kmh WNW 15.0 mph24.1 kmh 29.59 in1002.0 mb 0.00 in0.0 mm 0.00 in/hr0.0 mm/hr 0.09 in2.3 mm
02:13 PM 53.4°F11.9°C 43.9°F6.6°C 70% 6.0 mph NW9.7 kmh NW 15.0 mph24.1 kmh 29.59 in1002.0 mb 0.00 in0.0 mm 0.00 in/hr0.0 mm/hr 0.09 in2.3 mm
02:14 PM 53.6°F12.0°C 44.1°F6.7°C 70% 11.0 mph NNW17.7 kmh NNW 17.0 mph27.4 kmh 29.59 in1002.0 mb 0.00 in0.0 mm 0.00 in/hr0.0 mm/hr 0.09 in2.3 mm
02:15 PM 53.3°F11.8°C 43.4°F6.3°C 69% 11.0 mph WNW17.7 kmh WNW 17.0 mph27.4 kmh 29.60 in1002.4 mb 0.00 in0.0 mm 0.00 in/hr0.0 mm/hr 0.09 in2.3 mm
02:18 PM 53.2°F11.8°C 43.3°F6.3°C 69% 10.0 mph WNW16.1 kmh WNW 17.0 mph27.4 kmh 29.59 in1002.0 mb 0.00 in0.0 mm 0.00 in/hr0.0 mm/hr 0.09 in2.3 mm
02:19 PM 53.1°F11.7°C 43.2°F6.2°C 69% 11.0 mph NW17.7 kmh NW 17.0 mph27.4 kmh 29.59 in1002.0 mb 0.00 in0.0 mm 0.00 in/hr0.0 mm/hr 0.09 in2.3 mm
02:20 PM 53.0°F11.7°C 43.1°F6.2°C 69% 13.0 mph WNW20.9 kmh WNW 17.0 mph27.4 kmh 29.60 in1002.4 mb 0.00 in0.0 mm 0.00 in/hr0.0 mm/hr 0.09 in2.3 mm
02:23 PM 52.4°F11.3°C 42.5°F5.8°C 69% 7.0 mph WNW11.3 kmh WNW 17.0 mph27.4 kmh 29.59 in1002.0 mb 0.00 in0.0 mm 0.00 in/hr0.0 mm/hr 0.09 in2.3 mm
02:24 PM 52.2°F11.2°C 42.4°F5.8°C 69% 10.0 mph WSW16.1 kmh WSW 17.0 mph27.4 kmh 29.60 in1002.4 mb 0.00 in0.0 mm 0.00 in/hr0.0 mm/hr 0.09 in2.3 mm
02:25 PM 52.2°F11.2°C 42.7°F5.9°C 70% 10.0 mph NW16.1 kmh NW 17.0 mph27.4 kmh 29.60 in1002.4 mb 0.00 in0.0 mm 0.00 in/hr0.0 mm/hr 0.09 in2.3 mm
02:28 PM 52.8°F11.6°C 43.3°F6.3°C 70% 8.0 mph NNW12.9 kmh NNW 17.0 mph27.4 kmh 29.60 in1002.4 mb 0.00 in0.0 mm 0.00 in/hr0.0 mm/hr 0.09 in2.3 mm
02:29 PM 53.0°F11.7°C 43.5°F6.4°C 70% 4.0 mph NW6.4 kmh NW 17.0 mph27.4 kmh 29.60 in1002.4 mb 0.00 in0.0 mm 0.00 in/hr0.0 mm/hr 0.09 in2.3 mm
02:30 PM 53.0°F11.7°C 43.1°F6.2°C 69% 8.0 mph N12.9 kmh N 17.0 mph27.4 kmh 29.59 in1002.0 mb 0.00 in0.0 mm 0.00 in/hr0.0 mm/hr 0.09 in2.3 mm
02:33 PM 53.3°F11.8°C 43.0°F6.1°C 68% 4.0 mph SW6.4 kmh SW 17.0 mph27.4 kmh 29.59 in1002.0 mb 0.00 in0.0 mm 0.00 in/hr0.0 mm/hr 0.09 in2.3 mm
02:34 PM 53.4°F11.9°C 43.5°F6.4°C 69% 3.0 mph WSW4.8 kmh WSW 17.0 mph27.4 kmh 29.60 in1002.4 mb 0.00 in0.0 mm 0.00 in/hr0.0 mm/hr 0.09 in2.3 mm
02:35 PM 53.6°F12.0°C 43.7°F6.5°C 69% 10.0 mph NW16.1 kmh NW 17.0 mph27.4 kmh 29.60 in1002.4 mb 0.00 in0.0 mm 0.00 in/hr0.0 mm/hr 0.09 in2.3 mm
02:38 PM 53.3°F11.8°C 42.6°F5.9°C 67% 11.0 mph WNW17.7 kmh WNW 17.0 mph27.4 kmh 29.60 in1002.4 mb 0.00 in0.0 mm 0.00 in/hr0.0 mm/hr 0.09 in2.3 mm
02:39 PM 53.1°F11.7°C 42.5°F5.8°C 67% 7.0 mph W11.3 kmh W 17.0 mph27.4 kmh 29.59 in1002.0 mb 0.00 in0.0 mm 0.00 in/hr0.0 mm/hr 0.09 in2.3 mm
02:40 PM 52.9°F11.6°C 42.3°F5.7°C 67% 6.0 mph WNW9.7 kmh WNW 17.0 mph27.4 kmh 29.59 in1002.0 mb 0.00 in0.0 mm 0.00 in/hr0.0 mm/hr 0.09 in2.3 mm
02:43 PM 52.8°F11.6°C 42.5°F5.8°C 68% 7.0 mph WNW11.3 kmh WNW 17.0 mph27.4 kmh 29.59 in1002.0 mb 0.00 in0.0 mm 0.00 in/hr0.0 mm/hr 0.09 in2.3 mm
02:44 PM 52.7°F11.5°C 42.5°F5.8°C 68% 6.0 mph NW9.7 kmh NW 17.0 mph27.4 kmh 29.60 in1002.4 mb 0.00 in0.0 mm 0.00 in/hr0.0 mm/hr 0.09 in2.3 mm
02:45 PM 52.7°F11.5°C 42.5°F5.8°C 68% 9.0 mph WNW14.5 kmh WNW 17.0 mph27.4 kmh 29.60 in1002.4 mb 0.00 in0.0 mm 0.00 in/hr0.0 mm/hr 0.09 in2.3 mm
02:48 PM 52.3°F11.3°C 42.1°F5.6°C 68% 6.0 mph WNW9.7 kmh WNW 17.0 mph27.4 kmh 29.60 in1002.4 mb 0.00 in0.0 mm 0.00 in/hr0.0 mm/hr 0.09 in2.3 mm
02:49 PM 52.3°F11.3°C 42.5°F5.8°C 69% 4.0 mph NNE6.4 kmh NNE 17.0 mph27.4 kmh 29.60 in1002.4 mb 0.00 in0.0 mm 0.00 in/hr0.0 mm/hr 0.09 in2.3 mm
02:50 PM 52.4°F11.3°C 42.5°F5.8°C 69% 8.0 mph W12.9 kmh W 17.0 mph27.4 kmh 29.60 in1002.4 mb 0.00 in0.0 mm 0.00 in/hr0.0 mm/hr 0.09 in2.3 mm
02:53 PM 52.5°F11.4°C 42.3°F5.7°C 68% 5.0 mph W8.0 kmh W 17.0 mph27.4 kmh 29.60 in1002.4 mb 0.00 in0.0 mm 0.00 in/hr0.0 mm/hr 0.09 in2.3 mm
02:54 PM 52.5°F11.4°C 42.3°F5.7°C 68% 3.0 mph WSW4.8 kmh WSW 17.0 mph27.4 kmh 29.59 in1002.0 mb 0.00 in0.0 mm 0.00 in/hr0.0 mm/hr 0.09 in2.3 mm
02:55 PM 52.8°F11.6°C 42.5°F5.8°C 68% 10.0 mph NW16.1 kmh NW 17.0 mph27.4 kmh 29.60 in1002.4 mb 0.00 in0.0 mm 0.00 in/hr0.0 mm/hr 0.09 in2.3 mm
02:58 PM 52.8°F11.6°C 42.2°F5.7°C 67% 7.0 mph N11.3 kmh N 17.0 mph27.4 kmh 29.59 in1002.0 mb 0.00 in0.0 mm 0.00 in/hr0.0 mm/hr 0.09 in2.3 mm
02:59 PM 52.7°F11.5°C 42.1°F5.6°C 67% 10.0 mph NE16.1 kmh NE 17.0 mph27.4 kmh 29.60 in1002.4 mb 0.00 in0.0 mm 0.00 in/hr0.0 mm/hr 0.09 in2.3 mm
03:00 PM 52.6°F11.4°C 42.0°F5.6°C 67% 5.0 mph W8.0 kmh W 6.0 mph9.7 kmh 29.60 in1002.4 mb 0.00 in0.0 mm 0.00 in/hr0.0 mm/hr 0.09 in2.3 mm
03:03 PM 52.3°F11.3°C 41.7°F5.4°C 67% 4.0 mph NNW6.4 kmh NNW 15.0 mph24.1 kmh 29.60 in1002.4 mb 0.00 in0.0 mm 0.00 in/hr0.0 mm/hr 0.09 in2.3 mm
03:04 PM 52.4°F11.3°C 42.2°F5.7°C 68% 7.0 mph N11.3 kmh N 15.0 mph24.1 kmh 29.59 in1002.0 mb 0.00 in0.0 mm 0.00 in/hr0.0 mm/hr 0.09 in2.3 mm
03:05 PM 52.6°F11.4°C 42.4°F5.8°C 68% 14.0 mph WNW22.5 kmh WNW 15.0 mph24.1 kmh 29.59 in1002.0 mb 0.00 in0.0 mm 0.00 in/hr0.0 mm/hr 0.09 in2.3 mm
03:08 PM 52.6°F11.4°C 42.0°F5.6°C 67% 3.0 mph W4.8 kmh W 17.0 mph27.4 kmh 29.59 in1002.0 mb 0.00 in0.0 mm 0.00 in/hr0.0 mm/hr 0.09 in2.3 mm
03:09 PM 52.7°F11.5°C 42.5°F5.8°C 68% 8.0 mph W12.9 kmh W 17.0 mph27.4 kmh 29.59 in1002.0 mb 0.00 in0.0 mm 0.00 in/hr0.0 mm/hr 0.09 in2.3 mm
03:10 PM 52.9°F11.6°C 42.6°F5.9°C 68% 10.0 mph WSW16.1 kmh WSW 17.0 mph27.4 kmh 29.60 in1002.4 mb 0.00 in0.0 mm 0.00 in/hr0.0 mm/hr 0.09 in2.3 mm
03:13 PM 52.4°F11.3°C 42.2°F5.7°C 68% 2.0 mph NW3.2 kmh NW 17.0 mph27.4 kmh 29.59 in1002.0 mb 0.00 in0.0 mm 0.00 in/hr0.0 mm/hr 0.09 in2.3 mm
03:14 PM 52.7°F11.5°C 42.8°F6.0°C 69% 8.0 mph WNW12.9 kmh WNW 17.0 mph27.4 kmh 29.59 in1002.0 mb 0.00 in0.0 mm 0.00 in/hr0.0 mm/hr 0.09 in2.3 mm
03:15 PM 53.0°F11.7°C 42.7°F5.9°C 68% 12.0 mph WSW19.3 kmh WSW 17.0 mph27.4 kmh 29.60 in1002.4 mb 0.00 in0.0 mm 0.00 in/hr0.0 mm/hr 0.09 in2.3 mm
03:18 PM 53.2°F11.8°C 42.5°F5.8°C 67% 9.0 mph W14.5 kmh W 17.0 mph27.4 kmh 29.60 in1002.4 mb 0.00 in0.0 mm 0.00 in/hr0.0 mm/hr 0.09 in2.3 mm
03:19 PM 53.2°F11.8°C 42.5°F5.8°C 67% 8.0 mph WNW12.9 kmh WNW 17.0 mph27.4 kmh 29.60 in1002.4 mb 0.00 in0.0 mm 0.00 in/hr0.0 mm/hr 0.09 in2.3 mm
03:20 PM 53.1°F11.7°C 42.5°F5.8°C 67% 7.0 mph WNW11.3 kmh WNW 17.0 mph27.4 kmh 29.59 in1002.0 mb 0.00 in0.0 mm 0.00 in/hr0.0 mm/hr 0.09 in2.3 mm
03:23 PM 52.9°F11.6°C 42.3°F5.7°C 67% 12.0 mph WNW19.3 kmh WNW 17.0 mph27.4 kmh 29.59 in1002.0 mb 0.00 in0.0 mm 0.00 in/hr0.0 mm/hr 0.09 in2.3 mm
03:24 PM 52.9°F11.6°C 42.3°F5.7°C 67% 9.0 mph NW14.5 kmh NW 17.0 mph27.4 kmh 29.59 in1002.0 mb 0.00 in0.0 mm 0.00 in/hr0.0 mm/hr 0.09 in2.3 mm
03:25 PM 53.0°F11.7°C 42.4°F5.8°C 67% 5.0 mph NW8.0 kmh NW 17.0 mph27.4 kmh 29.59 in1002.0 mb 0.00 in0.0 mm 0.00 in/hr0.0 mm/hr 0.09 in2.3 mm
03:28 PM 53.4°F11.9°C 42.3°F5.7°C 66% 3.0 mph WNW4.8 kmh WNW 17.0 mph27.4 kmh 29.59 in1002.0 mb 0.00 in0.0 mm 0.00 in/hr0.0 mm/hr 0.09 in2.3 mm
03:29 PM 53.4°F11.9°C 42.7°F5.9°C 67% 9.0 mph W14.5 kmh W 17.0 mph27.4 kmh 29.59 in1002.0 mb 0.00 in0.0 mm 0.00 in/hr0.0 mm/hr 0.09 in2.3 mm
03:30 PM 53.3°F11.8°C 42.3°F5.7°C 66% 18.0 mph WNW29.0 kmh WNW 22.0 mph35.4 kmh 29.60 in1002.4 mb 0.00 in0.0 mm 0.00 in/hr0.0 mm/hr 0.09 in2.3 mm
03:33 PM 52.9°F11.6°C 42.3°F5.7°C 67% 7.0 mph W11.3 kmh W 22.0 mph35.4 kmh 29.60 in1002.4 mb 0.00 in0.0 mm 0.00 in/hr0.0 mm/hr 0.09 in2.3 mm
03:34 PM 53.2°F11.8°C 42.9°F6.1°C 68% 12.0 mph W19.3 kmh W 22.0 mph35.4 kmh 29.60 in1002.4 mb 0.00 in0.0 mm 0.00 in/hr0.0 mm/hr 0.09 in2.3 mm
03:35 PM 53.2°F11.8°C 42.2°F5.7°C 66% 4.0 mph WSW6.4 kmh WSW 22.0 mph35.4 kmh 29.60 in1002.4 mb 0.00 in0.0 mm 0.00 in/hr0.0 mm/hr 0.09 in2.3 mm
03:38 PM 53.2°F11.8°C 42.2°F5.7°C 66% 6.0 mph W9.7 kmh W 22.0 mph35.4 kmh 29.60 in1002.4 mb 0.00 in0.0 mm 0.00 in/hr0.0 mm/hr 0.09 in2.3 mm
03:39 PM 53.3°F11.8°C 42.3°F5.7°C 66% 18.0 mph WNW29.0 kmh WNW 22.0 mph35.4 kmh 29.60 in1002.4 mb 0.00 in0.0 mm 0.00 in/hr0.0 mm/hr 0.09 in2.3 mm
03:40 PM 53.3°F11.8°C 42.6°F5.9°C 67% 7.0 mph W11.3 kmh W 22.0 mph35.4 kmh 29.60 in1002.4 mb 0.00 in0.0 mm 0.00 in/hr0.0 mm/hr 0.09 in2.3 mm
03:43 PM 53.3°F11.8°C 42.6°F5.9°C 67% 4.0 mph W6.4 kmh W 22.0 mph35.4 kmh 29.59 in1002.0 mb 0.00 in0.0 mm 0.00 in/hr0.0 mm/hr 0.09 in2.3 mm
03:44 PM 53.4°F11.9°C 42.7°F5.9°C 67% 7.0 mph WNW11.3 kmh WNW 22.0 mph35.4 kmh 29.59 in1002.0 mb 0.00 in0.0 mm 0.00 in/hr0.0 mm/hr 0.09 in2.3 mm
03:45 PM 53.6°F12.0°C 42.5°F5.8°C 66% 5.0 mph W8.0 kmh W 22.0 mph35.4 kmh 29.60 in1002.4 mb 0.00 in0.0 mm 0.00 in/hr0.0 mm/hr 0.09 in2.3 mm
03:48 PM 53.7°F12.1°C 42.2°F5.7°C 65% 10.0 mph W16.1 kmh W 22.0 mph35.4 kmh 29.59 in1002.0 mb 0.00 in0.0 mm 0.00 in/hr0.0 mm/hr 0.09 in2.3 mm
03:49 PM 53.7°F12.1°C 42.2°F5.7°C 65% 7.0 mph WSW11.3 kmh WSW 22.0 mph35.4 kmh 29.60 in1002.4 mb 0.00 in0.0 mm 0.00 in/hr0.0 mm/hr 0.09 in2.3 mm
03:50 PM 53.7°F12.1°C 42.2°F5.7°C 65% 6.0 mph W9.7 kmh W 22.0 mph35.4 kmh 29.59 in1002.0 mb 0.00 in0.0 mm 0.00 in/hr0.0 mm/hr 0.09 in2.3 mm
03:53 PM 53.9°F12.2°C 42.4°F5.8°C 65% 8.0 mph NW12.9 kmh NW 22.0 mph35.4 kmh 29.59 in1002.0 mb 0.00 in0.0 mm 0.00 in/hr0.0 mm/hr 0.09 in2.3 mm
03:54 PM 54.0°F12.2°C 42.5°F5.8°C 65% 11.0 mph WNW17.7 kmh WNW 22.0 mph35.4 kmh 29.60 in1002.4 mb 0.00 in0.0 mm 0.00 in/hr0.0 mm/hr 0.09 in2.3 mm
03:55 PM 54.1°F12.3°C 42.6°F5.9°C 65% 11.0 mph WNW17.7 kmh WNW 22.0 mph35.4 kmh 29.60 in1002.4 mb 0.00 in0.0 mm 0.00 in/hr0.0 mm/hr 0.09 in2.3 mm
03:58 PM 54.2°F12.3°C 42.7°F5.9°C 65% 7.0 mph W11.3 kmh W 22.0 mph35.4 kmh 29.60 in1002.4 mb 0.00 in0.0 mm 0.00 in/hr0.0 mm/hr 0.09 in2.3 mm
03:59 PM 54.1°F12.3°C 42.2°F5.7°C 64% 10.0 mph NW16.1 kmh NW 22.0 mph35.4 kmh 29.59 in1002.0 mb 0.00 in0.0 mm 0.00 in/hr0.0 mm/hr 0.09 in2.3 mm
04:00 PM 54.1°F12.3°C 42.2°F5.7°C 64% 5.0 mph W8.0 kmh W 5.0 mph8.0 kmh 29.60 in1002.4 mb 0.00 in0.0 mm 0.00 in/hr0.0 mm/hr 0.09 in2.3 mm
04:03 PM 54.1°F12.3°C 42.2°F5.7°C 64% 5.0 mph W8.0 kmh W 13.0 mph20.9 kmh 29.59 in1002.0 mb 0.00 in0.0 mm 0.00 in/hr0.0 mm/hr 0.09 in2.3 mm
04:04 PM 54.2°F12.3°C 42.3°F5.7°C 64% 6.0 mph WNW9.7 kmh WNW 13.0 mph20.9 kmh 29.59 in1002.0 mb 0.00 in0.0 mm 0.00 in/hr0.0 mm/hr 0.09 in2.3 mm
04:05 PM 54.2°F12.3°C 42.7°F5.9°C 65% 5.0 mph WSW8.0 kmh WSW 13.0 mph20.9 kmh 29.60 in1002.4 mb 0.00 in0.0 mm 0.00 in/hr0.0 mm/hr 0.09 in2.3 mm
04:08 PM 54.5°F12.5°C 42.6°F5.9°C 64% 11.0 mph NW17.7 kmh NW 15.0 mph24.1 kmh 29.60 in1002.4 mb 0.00 in0.0 mm 0.00 in/hr0.0 mm/hr 0.09 in2.3 mm
04:09 PM 54.3°F12.4°C 42.0°F5.6°C 63% 10.0 mph NNW16.1 kmh NNW 15.0 mph24.1 kmh 29.59 in1002.0 mb 0.00 in0.0 mm 0.00 in/hr0.0 mm/hr 0.09 in2.3 mm
04:10 PM 53.9°F12.2°C 41.6°F5.3°C 63% 12.0 mph NW19.3 kmh NW 17.0 mph27.4 kmh 29.59 in1002.0 mb 0.00 in0.0 mm 0.00 in/hr0.0 mm/hr 0.09 in2.3 mm
04:13 PM 53.6°F12.0°C 42.1°F5.6°C 65% 10.0 mph WSW16.1 kmh WSW 17.0 mph27.4 kmh 29.60 in1002.4 mb 0.00 in0.0 mm 0.00 in/hr0.0 mm/hr 0.09 in2.3 mm
04:14 PM 53.7°F12.1°C 42.2°F5.7°C 65% 8.0 mph W12.9 kmh W 17.0 mph27.4 kmh 29.60 in1002.4 mb 0.00 in0.0 mm 0.00 in/hr0.0 mm/hr 0.09 in2.3 mm
04:15 PM 53.6°F12.0°C 41.7°F5.4°C 64% 8.0 mph W12.9 kmh W 17.0 mph27.4 kmh 29.60 in1002.4 mb 0.00 in0.0 mm 0.00 in/hr0.0 mm/hr 0.09 in2.3 mm
04:18 PM 53.1°F11.7°C 40.9°F4.9°C 63% 10.0 mph WNW16.1 kmh WNW 18.0 mph29.0 kmh 29.60 in1002.4 mb 0.00 in0.0 mm 0.00 in/hr0.0 mm/hr 0.09 in2.3 mm
04:19 PM 53.0°F11.7°C 41.2°F5.1°C 64% 7.0 mph W11.3 kmh W 18.0 mph29.0 kmh 29.60 in1002.4 mb 0.00 in0.0 mm 0.00 in/hr0.0 mm/hr 0.09 in2.3 mm
04:20 PM 52.9°F11.6°C 41.5°F5.3°C 65% 6.0 mph W9.7 kmh W 18.0 mph29.0 kmh 29.60 in1002.4 mb 0.00 in0.0 mm 0.00 in/hr0.0 mm/hr 0.09 in2.3 mm
04:23 PM 53.3°F11.8°C 42.3°F5.7°C 66% 5.0 mph WNW8.0 kmh WNW 18.0 mph29.0 kmh 29.60 in1002.4 mb 0.00 in0.0 mm 0.00 in/hr0.0 mm/hr 0.09 in2.3 mm
04:24 PM 53.7°F12.1°C 42.2°F5.7°C 65% 1.0 mph WNW1.6 kmh WNW 18.0 mph29.0 kmh 29.60 in1002.4 mb 0.00 in0.0 mm 0.00 in/hr0.0 mm/hr 0.09 in2.3 mm
04:25 PM 54.1°F12.3°C 42.6°F5.9°C 65% 10.0 mph WSW16.1 kmh WSW 18.0 mph29.0 kmh 29.60 in1002.4 mb 0.00 in0.0 mm 0.00 in/hr0.0 mm/hr 0.09 in2.3 mm
04:28 PM 53.6°F12.0°C 41.3°F5.2°C 63% 6.0 mph WNW9.7 kmh WNW 18.0 mph29.0 kmh 29.60 in1002.4 mb 0.00 in0.0 mm 0.00 in/hr0.0 mm/hr 0.09 in2.3 mm
04:29 PM 53.3°F11.8°C 41.0°F5.0°C 63% 10.0 mph W16.1 kmh W 18.0 mph29.0 kmh 29.61 in1002.7 mb 0.00 in0.0 mm 0.00 in/hr0.0 mm/hr 0.09 in2.3 mm
04:30 PM 53.0°F11.7°C 40.8°F4.9°C 63% 7.0 mph NW11.3 kmh NW 18.0 mph29.0 kmh 29.61 in1002.7 mb 0.00 in0.0 mm 0.00 in/hr0.0 mm/hr 0.09 in2.3 mm
04:33 PM 52.9°F11.6°C 41.1°F5.1°C 64% 8.0 mph NW12.9 kmh NW 18.0 mph29.0 kmh 29.61 in1002.7 mb 0.00 in0.0 mm 0.00 in/hr0.0 mm/hr 0.09 in2.3 mm
04:34 PM 52.9°F11.6°C 41.1°F5.1°C 64% 11.0 mph W17.7 kmh W 18.0 mph29.0 kmh 29.61 in1002.7 mb 0.00 in0.0 mm 0.00 in/hr0.0 mm/hr 0.09 in2.3 mm
04:35 PM 52.9°F11.6°C 41.1°F5.1°C 64% 14.0 mph NW22.5 kmh NW 18.0 mph29.0 kmh 29.61 in1002.7 mb 0.00 in0.0 mm 0.00 in/hr0.0 mm/hr 0.09 in2.3 mm
04:38 PM 52.2°F11.2°C 40.4°F4.7°C 64% 8.0 mph WNW12.9 kmh WNW 18.0 mph29.0 kmh 29.61 in1002.7 mb 0.00 in0.0 mm 0.00 in/hr0.0 mm/hr 0.09 in2.3 mm
04:39 PM 52.2°F11.2°C 40.4°F4.7°C 64% 7.0 mph N11.3 kmh N 18.0 mph29.0 kmh 29.61 in1002.7 mb 0.00 in0.0 mm 0.00 in/hr0.0 mm/hr 0.09 in2.3 mm
04:40 PM 52.2°F11.2°C 40.8°F4.9°C 65% 13.0 mph WNW20.9 kmh WNW 18.0 mph29.0 kmh 29.61 in1002.7 mb 0.00 in0.0 mm 0.00 in/hr0.0 mm/hr 0.09 in2.3 mm
04:43 PM 52.3°F11.3°C 40.5°F4.7°C 64% 12.0 mph WNW19.3 kmh WNW 18.0 mph29.0 kmh 29.61 in1002.7 mb 0.00 in0.0 mm 0.00 in/hr0.0 mm/hr 0.09 in2.3 mm
04:44 PM 52.2°F11.2°C 40.4°F4.7°C 64% 10.0 mph NW16.1 kmh NW 18.0 mph29.0 kmh 29.61 in1002.7 mb 0.00 in0.0 mm 0.00 in/hr0.0 mm/hr 0.09 in2.3 mm
04:45 PM 52.2°F11.2°C 40.4°F4.7°C 64% 9.0 mph NW14.5 kmh NW 18.0 mph29.0 kmh 29.61 in1002.7 mb 0.00 in0.0 mm 0.00 in/hr0.0 mm/hr 0.09 in2.3 mm
04:48 PM 51.8°F11.0°C 40.4°F4.7°C 65% 11.0 mph NW17.7 kmh NW 18.0 mph29.0 kmh 29.61 in1002.7 mb 0.00 in0.0 mm 0.00 in/hr0.0 mm/hr 0.09 in2.3 mm
04:49 PM 51.6°F10.9°C 39.8°F4.3°C 64% 8.0 mph W12.9 kmh W 18.0 mph29.0 kmh 29.61 in1002.7 mb 0.00 in0.0 mm 0.00 in/hr0.0 mm/hr 0.09 in2.3 mm
04:50 PM 51.6°F10.9°C 40.2°F4.6°C 65% 10.0 mph N16.1 kmh N 18.0 mph29.0 kmh 29.61 in1002.7 mb 0.00 in0.0 mm 0.00 in/hr0.0 mm/hr 0.09 in2.3 mm
04:53 PM 51.0°F10.6°C 39.7°F4.3°C 65% 12.0 mph W19.3 kmh W 18.0 mph29.0 kmh 29.62 in1003.0 mb 0.00 in0.0 mm 0.00 in/hr0.0 mm/hr 0.09 in2.3 mm
04:54 PM 50.8°F10.4°C 39.5°F4.2°C 65% 9.0 mph WNW14.5 kmh WNW 18.0 mph29.0 kmh 29.62 in1003.0 mb 0.00 in0.0 mm 0.00 in/hr0.0 mm/hr 0.09 in2.3 mm
04:55 PM 50.8°F10.4°C 39.9°F4.4°C 66% 4.0 mph NW6.4 kmh NW 18.0 mph29.0 kmh 29.62 in1003.0 mb 0.00 in0.0 mm 0.00 in/hr0.0 mm/hr 0.09 in2.3 mm
04:58 PM 50.7°F10.4°C 39.4°F4.1°C 65% 13.0 mph WNW20.9 kmh WNW 20.0 mph32.2 kmh 29.62 in1003.0 mb 0.00 in0.0 mm 0.00 in/hr0.0 mm/hr 0.09 in2.3 mm
04:59 PM 50.4°F10.2°C 39.1°F3.9°C 65% 16.0 mph WNW25.7 kmh WNW 21.0 mph33.8 kmh 29.62 in1003.0 mb 0.00 in0.0 mm 0.00 in/hr0.0 mm/hr 0.09 in2.3 mm
05:00 PM 50.2°F10.1°C 39.3°F4.1°C 66% 4.0 mph NW6.4 kmh NW 4.0 mph6.4 kmh 29.62 in1003.0 mb 0.00 in0.0 mm 0.00 in/hr0.0 mm/hr 0.09 in2.3 mm
05:03 PM 50.6°F10.3°C 39.7°F4.3°C 66% 11.0 mph NW17.7 kmh NW 18.0 mph29.0 kmh 29.62 in1003.0 mb 0.00 in0.0 mm 0.00 in/hr0.0 mm/hr 0.09 in2.3 mm
05:04 PM 50.6°F10.3°C 39.7°F4.3°C 66% 13.0 mph NW20.9 kmh NW 18.0 mph29.0 kmh 29.62 in1003.0 mb 0.00 in0.0 mm 0.00 in/hr0.0 mm/hr 0.09 in2.3 mm
05:05 PM 50.4°F10.2°C 39.1°F3.9°C 65% 16.0 mph NNW25.7 kmh NNW 21.0 mph33.8 kmh 29.63 in1003.4 mb 0.00 in0.0 mm 0.00 in/hr0.0 mm/hr 0.09 in2.3 mm
05:08 PM 50.2°F10.1°C 39.3°F4.1°C 66% 9.0 mph WSW14.5 kmh WSW 21.0 mph33.8 kmh 29.63 in1003.4 mb 0.00 in0.0 mm 0.00 in/hr0.0 mm/hr 0.09 in2.3 mm
05:09 PM 50.1°F10.1°C 38.8°F3.8°C 65% 12.0 mph W19.3 kmh W 23.0 mph37.0 kmh 29.63 in1003.4 mb 0.00 in0.0 mm 0.00 in/hr0.0 mm/hr 0.09 in2.3 mm
05:10 PM 49.9°F9.9°C 38.6°F3.7°C 65% 11.0 mph WNW17.7 kmh WNW 23.0 mph37.0 kmh 29.63 in1003.4 mb 0.00 in0.0 mm 0.00 in/hr0.0 mm/hr 0.09 in2.3 mm
05:13 PM 49.3°F9.6°C 38.4°F3.6°C 66% 11.0 mph W17.7 kmh W 23.0 mph37.0 kmh 29.63 in1003.4 mb 0.00 in0.0 mm 0.00 in/hr0.0 mm/hr 0.09 in2.3 mm
05:14 PM 49.3°F9.6°C 38.4°F3.6°C 66% 6.0 mph WNW9.7 kmh WNW 23.0 mph37.0 kmh 29.63 in1003.4 mb 0.00 in0.0 mm 0.00 in/hr0.0 mm/hr 0.09 in2.3 mm
05:15 PM 49.4°F9.7°C 38.9°F3.8°C 67% 6.0 mph NNW9.7 kmh NNW 23.0 mph37.0 kmh 29.63 in1003.4 mb 0.00 in0.0 mm 0.00 in/hr0.0 mm/hr 0.09 in2.3 mm
05:18 PM 49.7°F9.8°C 38.8°F3.8°C 66% 12.0 mph W19.3 kmh W 23.0 mph37.0 kmh 29.63 in1003.4 mb 0.00 in0.0 mm 0.00 in/hr0.0 mm/hr 0.09 in2.3 mm
05:19 PM 49.8°F9.9°C 38.9°F3.8°C 66% 10.0 mph W16.1 kmh W 23.0 mph37.0 kmh 29.63 in1003.4 mb 0.00 in0.0 mm 0.00 in/hr0.0 mm/hr 0.09 in2.3 mm
05:20 PM 49.8°F9.9°C 38.9°F3.8°C 66% 8.0 mph NW12.9 kmh NW 23.0 mph37.0 kmh 29.64 in1003.7 mb 0.00 in0.0 mm 0.00 in/hr0.0 mm/hr 0.09 in2.3 mm
05:23 PM 49.7°F9.8°C 38.8°F3.8°C 66% 15.0 mph W24.1 kmh W 23.0 mph37.0 kmh 29.64 in1003.7 mb 0.00 in0.0 mm 0.00 in/hr0.0 mm/hr 0.09 in2.3 mm
05:24 PM 49.5°F9.7°C 38.2°F3.4°C 65% 12.0 mph NW19.3 kmh NW 23.0 mph37.0 kmh 29.64 in1003.7 mb 0.00 in0.0 mm 0.00 in/hr0.0 mm/hr 0.09 in2.3 mm
05:25 PM 49.3°F9.6°C 38.1°F3.4°C 65% 10.0 mph WNW16.1 kmh WNW 23.0 mph37.0 kmh 29.64 in1003.7 mb 0.00 in0.0 mm 0.00 in/hr0.0 mm/hr 0.09 in2.3 mm
05:28 PM 49.0°F9.4°C 38.2°F3.4°C 66% 7.0 mph W11.3 kmh W 23.0 mph37.0 kmh 29.64 in1003.7 mb 0.00 in0.0 mm 0.00 in/hr0.0 mm/hr 0.09 in2.3 mm
05:29 PM 49.1°F9.5°C 38.3°F3.5°C 66% 6.0 mph W9.7 kmh W 23.0 mph37.0 kmh 29.64 in1003.7 mb 0.00 in0.0 mm 0.00 in/hr0.0 mm/hr 0.09 in2.3 mm
05:30 PM 49.2°F9.6°C 38.7°F3.7°C 67% 6.0 mph WSW9.7 kmh WSW 23.0 mph37.0 kmh 29.64 in1003.7 mb 0.00 in0.0 mm 0.00 in/hr0.0 mm/hr 0.09 in2.3 mm
05:33 PM 48.7°F9.3°C 37.9°F3.3°C 66% 10.0 mph WNW16.1 kmh WNW 25.0 mph40.2 kmh 29.64 in1003.7 mb 0.01 in0.3 mm 0.20 in/hr5.1 mm/hr 0.10 in2.5 mm
05:34 PM 48.6°F9.2°C 37.8°F3.2°C 66% 11.0 mph NW17.7 kmh NW 25.0 mph40.2 kmh 29.64 in1003.7 mb 0.01 in0.3 mm 0.00 in/hr0.0 mm/hr 0.10 in2.5 mm
05:35 PM 48.5°F9.2°C 37.7°F3.2°C 66% 14.0 mph W22.5 kmh W 25.0 mph40.2 kmh 29.64 in1003.7 mb 0.01 in0.3 mm 0.00 in/hr0.0 mm/hr 0.10 in2.5 mm
05:38 PM 48.2°F9.0°C 37.8°F3.2°C 67% 7.0 mph W11.3 kmh W 25.0 mph40.2 kmh 29.64 in1003.7 mb 0.01 in0.3 mm 0.00 in/hr0.0 mm/hr 0.10 in2.5 mm
05:39 PM 48.2°F9.0°C 37.8°F3.2°C 67% 12.0 mph W19.3 kmh W 25.0 mph40.2 kmh 29.64 in1003.7 mb 0.01 in0.3 mm 0.00 in/hr0.0 mm/hr 0.10 in2.5 mm
05:40 PM 48.2°F9.0°C 37.8°F3.2°C 67% 8.0 mph WSW12.9 kmh WSW 25.0 mph40.2 kmh 29.64 in1003.7 mb 0.01 in0.3 mm 0.00 in/hr0.0 mm/hr 0.10 in2.5 mm
05:43 PM 47.9°F8.8°C 37.1°F2.8°C 66% 11.0 mph NW17.7 kmh NW 25.0 mph40.2 kmh 29.64 in1003.7 mb 0.01 in0.3 mm 0.00 in/hr0.0 mm/hr 0.10 in2.5 mm
05:44 PM 47.9°F8.8°C 37.1°F2.8°C 66% 16.0 mph WSW25.7 kmh WSW 25.0 mph40.2 kmh 29.64 in1003.7 mb 0.01 in0.3 mm 0.00 in/hr0.0 mm/hr 0.10 in2.5 mm
05:45 PM 47.8°F8.8°C 37.0°F2.8°C 66% 9.0 mph NW14.5 kmh NW 25.0 mph40.2 kmh 29.64 in1003.7 mb 0.01 in0.3 mm 0.00 in/hr0.0 mm/hr 0.10 in2.5 mm
05:48 PM 47.9°F8.8°C 37.5°F3.1°C 67% 14.0 mph WNW22.5 kmh WNW 25.0 mph40.2 kmh 29.65 in1004.1 mb 0.01 in0.3 mm 0.00 in/hr0.0 mm/hr 0.10 in2.5 mm
05:49 PM 48.0°F8.9°C 37.6°F3.1°C 67% 6.0 mph WNW9.7 kmh WNW 25.0 mph40.2 kmh 29.64 in1003.7 mb 0.01 in0.3 mm 0.00 in/hr0.0 mm/hr 0.10 in2.5 mm
05:50 PM 48.1°F8.9°C 37.3°F2.9°C 66% 8.0 mph NW12.9 kmh NW 25.0 mph40.2 kmh 29.65 in1004.1 mb 0.01 in0.3 mm 0.00 in/hr0.0 mm/hr 0.10 in2.5 mm
05:53 PM 48.1°F8.9°C 37.3°F2.9°C 66% 15.0 mph NW24.1 kmh NW 25.0 mph40.2 kmh 29.65 in1004.1 mb 0.01 in0.3 mm 0.00 in/hr0.0 mm/hr 0.10 in2.5 mm
05:54 PM 48.0°F8.9°C 37.2°F2.9°C 66% 7.0 mph WNW11.3 kmh WNW 25.0 mph40.2 kmh 29.65 in1004.1 mb 0.01 in0.3 mm 0.00 in/hr0.0 mm/hr 0.10 in2.5 mm
05:55 PM 47.9°F8.8°C 37.1°F2.8°C 66% 13.0 mph NW20.9 kmh NW 25.0 mph40.2 kmh 29.65 in1004.1 mb 0.01 in0.3 mm 0.00 in/hr0.0 mm/hr 0.10 in2.5 mm
05:58 PM 47.9°F8.8°C 37.1°F2.8°C 66% 8.0 mph NW12.9 kmh NW 25.0 mph40.2 kmh 29.65 in1004.1 mb 0.01 in0.3 mm 0.00 in/hr0.0 mm/hr 0.10 in2.5 mm
05:59 PM 48.0°F8.9°C 37.2°F2.9°C 66% 10.0 mph NW16.1 kmh NW 25.0 mph40.2 kmh 29.65 in1004.1 mb 0.01 in0.3 mm 0.00 in/hr0.0 mm/hr 0.10 in2.5 mm
06:00 PM 48.1°F8.9°C 37.3°F2.9°C 66% 13.0 mph NW20.9 kmh NW 15.0 mph24.1 kmh 29.65 in1004.1 mb 0.01 in0.3 mm 0.00 in/hr0.0 mm/hr 0.10 in2.5 mm
06:03 PM 48.0°F8.9°C 36.8°F2.7°C 65% 9.0 mph WNW14.5 kmh WNW 17.0 mph27.4 kmh 29.65 in1004.1 mb 0.01 in0.3 mm 0.00 in/hr0.0 mm/hr 0.10 in2.5 mm
06:04 PM 47.9°F8.8°C 36.7°F2.6°C 65% 11.0 mph WNW17.7 kmh WNW 18.0 mph29.0 kmh 29.65 in1004.1 mb 0.01 in0.3 mm 0.00 in/hr0.0 mm/hr 0.10 in2.5 mm
06:05 PM 47.8°F8.8°C 36.6°F2.6°C 65% 10.0 mph W16.1 kmh W 18.0 mph29.0 kmh 29.65 in1004.1 mb 0.01 in0.3 mm 0.00 in/hr0.0 mm/hr 0.10 in2.5 mm
06:08 PM 47.8°F8.8°C 37.0°F2.8°C 66% 12.0 mph WNW19.3 kmh WNW 18.0 mph29.0 kmh 29.65 in1004.1 mb 0.01 in0.3 mm 0.00 in/hr0.0 mm/hr 0.10 in2.5 mm
06:09 PM 47.7°F8.7°C 36.5°F2.5°C 65% 5.0 mph NW8.0 kmh NW 18.0 mph29.0 kmh 29.65 in1004.1 mb 0.01 in0.3 mm 0.00 in/hr0.0 mm/hr 0.10 in2.5 mm
06:10 PM 47.8°F8.8°C 37.0°F2.8°C 66% 7.0 mph WNW11.3 kmh WNW 18.0 mph29.0 kmh 29.66 in1004.4 mb 0.01 in0.3 mm 0.00 in/hr0.0 mm/hr 0.10 in2.5 mm
06:13 PM 47.4°F8.6°C 36.2°F2.3°C 65% 21.0 mph W33.8 kmh W 21.0 mph33.8 kmh 29.66 in1004.4 mb 0.01 in0.3 mm 0.00 in/hr0.0 mm/hr 0.10 in2.5 mm
06:14 PM 47.4°F8.6°C 36.6°F2.6°C 66% 18.0 mph NW29.0 kmh NW 21.0 mph33.8 kmh 29.66 in1004.4 mb 0.01 in0.3 mm 0.00 in/hr0.0 mm/hr 0.10 in2.5 mm
06:15 PM 47.3°F8.5°C 36.5°F2.5°C 66% 11.0 mph NNW17.7 kmh NNW 21.0 mph33.8 kmh 29.66 in1004.4 mb 0.01 in0.3 mm 0.00 in/hr0.0 mm/hr 0.10 in2.5 mm
06:18 PM 47.4°F8.6°C 36.6°F2.6°C 66% 13.0 mph WNW20.9 kmh WNW 21.0 mph33.8 kmh 29.66 in1004.4 mb 0.01 in0.3 mm 0.00 in/hr0.0 mm/hr 0.10 in2.5 mm
06:19 PM 47.3°F8.5°C 36.5°F2.5°C 66% 13.0 mph NW20.9 kmh NW 21.0 mph33.8 kmh 29.66 in1004.4 mb 0.01 in0.3 mm 0.00 in/hr0.0 mm/hr 0.10 in2.5 mm
06:20 PM 47.1°F8.4°C 36.0°F2.2°C 65% 9.0 mph W14.5 kmh W 21.0 mph33.8 kmh 29.66 in1004.4 mb 0.01 in0.3 mm 0.00 in/hr0.0 mm/hr 0.10 in2.5 mm
06:23 PM 46.9°F8.3°C 36.2°F2.3°C 66% 8.0 mph W12.9 kmh W 21.0 mph33.8 kmh 29.66 in1004.4 mb 0.01 in0.3 mm 0.00 in/hr0.0 mm/hr 0.10 in2.5 mm
06:24 PM 47.0°F8.3°C 36.3°F2.4°C 66% 9.0 mph W14.5 kmh W 21.0 mph33.8 kmh 29.66 in1004.4 mb 0.01 in0.3 mm 0.00 in/hr0.0 mm/hr 0.10 in2.5 mm
06:25 PM 47.0°F8.3°C 36.3°F2.4°C 66% 6.0 mph W9.7 kmh W 21.0 mph33.8 kmh 29.66 in1004.4 mb 0.01 in0.3 mm 0.00 in/hr0.0 mm/hr 0.10 in2.5 mm
06:28 PM 46.8°F8.2°C 36.1°F2.3°C 66% 8.0 mph WNW12.9 kmh WNW 21.0 mph33.8 kmh 29.66 in1004.4 mb 0.01 in0.3 mm 0.00 in/hr0.0 mm/hr 0.10 in2.5 mm
06:29 PM 46.8°F8.2°C 36.4°F2.4°C 67% 14.0 mph W22.5 kmh W 21.0 mph33.8 kmh 29.66 in1004.4 mb 0.01 in0.3 mm 0.00 in/hr0.0 mm/hr 0.10 in2.5 mm
06:30 PM 46.6°F8.1°C 36.2°F2.3°C 67% 15.0 mph WNW24.1 kmh WNW 21.0 mph33.8 kmh 29.65 in1004.1 mb 0.01 in0.3 mm 0.00 in/hr0.0 mm/hr 0.10 in2.5 mm
06:33 PM 46.6°F8.1°C 36.2°F2.3°C 67% 7.0 mph WNW11.3 kmh WNW 21.0 mph33.8 kmh 29.66 in1004.4 mb 0.01 in0.3 mm 0.00 in/hr0.0 mm/hr 0.10 in2.5 mm
06:34 PM 46.6°F8.1°C 36.2°F2.3°C 67% 5.0 mph NW8.0 kmh NW 21.0 mph33.8 kmh 29.66 in1004.4 mb 0.01 in0.3 mm 0.00 in/hr0.0 mm/hr 0.10 in2.5 mm
06:35 PM 46.5°F8.1°C 36.2°F2.3°C 67% 16.0 mph NW25.7 kmh NW 21.0 mph33.8 kmh 29.66 in1004.4 mb 0.01 in0.3 mm 0.00 in/hr0.0 mm/hr 0.10 in2.5 mm
06:38 PM 46.4°F8.0°C 36.4°F2.4°C 68% 9.0 mph WNW14.5 kmh WNW 21.0 mph33.8 kmh 29.66 in1004.4 mb 0.01 in0.3 mm 0.00 in/hr0.0 mm/hr 0.10 in2.5 mm
06:39 PM 46.4°F8.0°C 36.4°F2.4°C 68% 9.0 mph W14.5 kmh W 21.0 mph33.8 kmh 29.66 in1004.4 mb 0.01 in0.3 mm 0.00 in/hr0.0 mm/hr 0.10 in2.5 mm
06:40 PM 46.4°F8.0°C 36.4°F2.4°C 68% 7.0 mph WNW11.3 kmh WNW 21.0 mph33.8 kmh 29.66 in1004.4 mb 0.01 in0.3 mm 0.00 in/hr0.0 mm/hr 0.10 in2.5 mm
06:43 PM 46.6°F8.1°C 36.6°F2.6°C 68% 6.0 mph NNW9.7 kmh NNW 21.0 mph33.8 kmh 29.66 in1004.4 mb 0.01 in0.3 mm 0.00 in/hr0.0 mm/hr 0.10 in2.5 mm
06:44 PM 46.6°F8.1°C 36.6°F2.6°C 68% 11.0 mph W17.7 kmh W 21.0 mph33.8 kmh 29.66 in1004.4 mb 0.01 in0.3 mm 0.00 in/hr0.0 mm/hr 0.10 in2.5 mm
06:45 PM 46.5°F8.1°C 36.5°F2.5°C 68% 10.0 mph NW16.1 kmh NW 21.0 mph33.8 kmh 29.66 in1004.4 mb 0.01 in0.3 mm 0.00 in/hr0.0 mm/hr 0.10 in2.5 mm
06:48 PM 46.0°F7.8°C 36.4°F2.4°C 69% 9.0 mph WNW14.5 kmh WNW 21.0 mph33.8 kmh 29.67 in1004.7 mb 0.01 in0.3 mm 0.00 in/hr0.0 mm/hr 0.10 in2.5 mm
06:49 PM 45.9°F7.7°C 36.0°F2.2°C 68% 12.0 mph NW19.3 kmh NW 21.0 mph33.8 kmh 29.67 in1004.7 mb 0.01 in0.3 mm 0.00 in/hr0.0 mm/hr 0.10 in2.5 mm
06:50 PM 45.8°F7.7°C 35.9°F2.2°C 68% 6.0 mph WNW9.7 kmh WNW 21.0 mph33.8 kmh 29.67 in1004.7 mb 0.01 in0.3 mm 0.00 in/hr0.0 mm/hr 0.10 in2.5 mm
06:53 PM 45.5°F7.5°C 35.9°F2.2°C 69% 14.0 mph W22.5 kmh W 21.0 mph33.8 kmh 29.67 in1004.7 mb 0.01 in0.3 mm 0.00 in/hr0.0 mm/hr 0.10 in2.5 mm
06:54 PM 45.5°F7.5°C 35.9°F2.2°C 69% 8.0 mph W12.9 kmh W 21.0 mph33.8 kmh 29.67 in1004.7 mb 0.01 in0.3 mm 0.00 in/hr0.0 mm/hr 0.10 in2.5 mm
06:55 PM 45.5°F7.5°C 35.9°F2.2°C 69% 7.0 mph W11.3 kmh W 21.0 mph33.8 kmh 29.67 in1004.7 mb 0.01 in0.3 mm 0.00 in/hr0.0 mm/hr 0.10 in2.5 mm
06:58 PM 45.6°F7.6°C 36.4°F2.4°C 70% 15.0 mph WSW24.1 kmh WSW 21.0 mph33.8 kmh 29.67 in1004.7 mb 0.01 in0.3 mm 0.00 in/hr0.0 mm/hr 0.10 in2.5 mm
06:59 PM 45.5°F7.5°C 36.3°F2.4°C 70% 14.0 mph W22.5 kmh W 21.0 mph33.8 kmh 29.67 in1004.7 mb 0.01 in0.3 mm 0.00 in/hr0.0 mm/hr 0.10 in2.5 mm
07:00 PM 45.3°F7.4°C 36.1°F2.3°C 70% 7.0 mph W11.3 kmh W 7.0 mph11.3 kmh 29.67 in1004.7 mb 0.00 in0.0 mm 0.00 in/hr0.0 mm/hr 0.10 in2.5 mm
07:03 PM 45.2°F7.3°C 36.0°F2.2°C 70% 9.0 mph NW14.5 kmh NW 22.0 mph35.4 kmh 29.67 in1004.7 mb 0.00 in0.0 mm 0.00 in/hr0.0 mm/hr 0.10 in2.5 mm
07:04 PM 45.2°F7.3°C 36.0°F2.2°C 70% 9.0 mph WNW14.5 kmh WNW 22.0 mph35.4 kmh 29.67 in1004.7 mb 0.00 in0.0 mm 0.00 in/hr0.0 mm/hr 0.10 in2.5 mm
07:05 PM 45.2°F7.3°C 36.0°F2.2°C 70% 7.0 mph NNW11.3 kmh NNW 22.0 mph35.4 kmh 29.67 in1004.7 mb 0.00 in0.0 mm 0.00 in/hr0.0 mm/hr 0.10 in2.5 mm
07:08 PM 45.1°F7.3°C 35.9°F2.2°C 70% 9.0 mph WNW14.5 kmh WNW 22.0 mph35.4 kmh 29.67 in1004.7 mb 0.00 in0.0 mm 0.00 in/hr0.0 mm/hr 0.10 in2.5 mm
07:09 PM 45.1°F7.3°C 35.9°F2.2°C 70% 4.0 mph NW6.4 kmh NW 22.0 mph35.4 kmh 29.67 in1004.7 mb 0.00 in0.0 mm 0.00 in/hr0.0 mm/hr 0.10 in2.5 mm
07:10 PM 45.2°F7.3°C 36.0°F2.2°C 70% 9.0 mph NW14.5 kmh NW 22.0 mph35.4 kmh 29.67 in1004.7 mb 0.00 in0.0 mm 0.00 in/hr0.0 mm/hr 0.10 in2.5 mm
07:13 PM 45.2°F7.3°C 36.0°F2.2°C 70% 5.0 mph NW8.0 kmh NW 22.0 mph35.4 kmh 29.67 in1004.7 mb 0.00 in0.0 mm 0.00 in/hr0.0 mm/hr 0.10 in2.5 mm
07:14 PM 45.2°F7.3°C 36.0°F2.2°C 70% 5.0 mph NW8.0 kmh NW 22.0 mph35.4 kmh 29.67 in1004.7 mb 0.00 in0.0 mm 0.00 in/hr0.0 mm/hr 0.10 in2.5 mm
07:15 PM 45.2°F7.3°C 36.0°F2.2°C 70% 6.0 mph N9.7 kmh N 22.0 mph35.4 kmh 29.67 in1004.7 mb 0.00 in0.0 mm 0.00 in/hr0.0 mm/hr 0.10 in2.5 mm
07:18 PM 45.2°F7.3°C 36.0°F2.2°C 70% 8.0 mph WSW12.9 kmh WSW 22.0 mph35.4 kmh 29.67 in1004.7 mb 0.00 in0.0 mm 0.00 in/hr0.0 mm/hr 0.10 in2.5 mm
07:19 PM 45.2°F7.3°C 36.0°F2.2°C 70% 12.0 mph W19.3 kmh W 22.0 mph35.4 kmh 29.67 in1004.7 mb 0.00 in0.0 mm 0.00 in/hr0.0 mm/hr 0.10 in2.5 mm
07:20 PM 45.1°F7.3°C 35.9°F2.2°C 70% 6.0 mph WSW9.7 kmh WSW 22.0 mph35.4 kmh 29.67 in1004.7 mb 0.00 in0.0 mm 0.00 in/hr0.0 mm/hr 0.10 in2.5 mm
07:23 PM 45.0°F7.2°C 35.8°F2.1°C 70% 7.0 mph W11.3 kmh W 22.0 mph35.4 kmh 29.67 in1004.7 mb 0.00 in0.0 mm 0.00 in/hr0.0 mm/hr 0.10 in2.5 mm
07:24 PM 45.0°F7.2°C 35.8°F2.1°C 70% 6.0 mph WSW9.7 kmh WSW 22.0 mph35.4 kmh 29.67 in1004.7 mb 0.00 in0.0 mm 0.00 in/hr0.0 mm/hr 0.10 in2.5 mm
07:25 PM 45.0°F7.2°C 35.8°F2.1°C 70% 8.0 mph W12.9 kmh W 22.0 mph35.4 kmh 29.67 in1004.7 mb 0.00 in0.0 mm 0.00 in/hr0.0 mm/hr 0.10 in2.5 mm
07:28 PM 45.1°F7.3°C 36.3°F2.4°C 71% 2.0 mph NW3.2 kmh NW 22.0 mph35.4 kmh 29.67 in1004.7 mb 0.00 in0.0 mm 0.00 in/hr0.0 mm/hr 0.10 in2.5 mm
07:29 PM 45.2°F7.3°C 36.4°F2.4°C 71% 7.0 mph NW11.3 kmh NW 22.0 mph35.4 kmh 29.67 in1004.7 mb 0.00 in0.0 mm 0.00 in/hr0.0 mm/hr 0.10 in2.5 mm
07:30 PM 45.2°F7.3°C 36.4°F2.4°C 71% 13.0 mph NW20.9 kmh NW 22.0 mph35.4 kmh 29.67 in1004.7 mb 0.00 in0.0 mm 0.00 in/hr0.0 mm/hr 0.10 in2.5 mm
07:33 PM 45.2°F7.3°C 36.0°F2.2°C 70% 4.0 mph W6.4 kmh W 22.0 mph35.4 kmh 29.67 in1004.7 mb 0.00 in0.0 mm 0.00 in/hr0.0 mm/hr 0.10 in2.5 mm
07:34 PM 45.2°F7.3°C 36.0°F2.2°C 70% 10.0 mph W16.1 kmh W 22.0 mph35.4 kmh 29.67 in1004.7 mb 0.00 in0.0 mm 0.00 in/hr0.0 mm/hr 0.10 in2.5 mm
07:35 PM 45.2°F7.3°C 36.0°F2.2°C 70% 12.0 mph W19.3 kmh W 22.0 mph35.4 kmh 29.67 in1004.7 mb 0.00 in0.0 mm 0.00 in/hr0.0 mm/hr 0.10 in2.5 mm
07:38 PM 45.3°F7.4°C 36.5°F2.5°C 71% 10.0 mph W16.1 kmh W 22.0 mph35.4 kmh 29.67 in1004.7 mb 0.00 in0.0 mm 0.00 in/hr0.0 mm/hr 0.10 in2.5 mm
07:39 PM 45.3°F7.4°C 36.5°F2.5°C 71% 11.0 mph NW17.7 kmh NW 22.0 mph35.4 kmh 29.67 in1004.7 mb 0.00 in0.0 mm 0.00 in/hr0.0 mm/hr 0.10 in2.5 mm
07:40 PM 45.3°F7.4°C 36.5°F2.5°C 71% 10.0 mph NNW16.1 kmh NNW 22.0 mph35.4 kmh 29.67 in1004.7 mb 0.00 in0.0 mm 0.00 in/hr0.0 mm/hr 0.10 in2.5 mm
07:43 PM 45.3°F7.4°C 36.5°F2.5°C 71% 8.0 mph WNW12.9 kmh WNW 22.0 mph35.4 kmh 29.67 in1004.7 mb 0.00 in0.0 mm 0.00 in/hr0.0 mm/hr 0.10 in2.5 mm
07:44 PM 45.3°F7.4°C 36.5°F2.5°C 71% 8.0 mph WNW12.9 kmh WNW 22.0 mph35.4 kmh 29.67 in1004.7 mb 0.00 in0.0 mm 0.00 in/hr0.0 mm/hr 0.10 in2.5 mm
07:45 PM 45.3°F7.4°C 36.5°F2.5°C 71% 9.0 mph W14.5 kmh W 22.0 mph35.4 kmh 29.67 in1004.7 mb 0.00 in0.0 mm 0.00 in/hr0.0 mm/hr 0.10 in2.5 mm
07:48 PM 45.4°F7.4°C 36.6°F2.6°C 71% 11.0 mph WNW17.7 kmh WNW 22.0 mph35.4 kmh 29.67 in1004.7 mb 0.00 in0.0 mm 0.00 in/hr0.0 mm/hr 0.10 in2.5 mm
07:49 PM 45.4°F7.4°C 36.6°F2.6°C 71% 6.0 mph WNW9.7 kmh WNW 22.0 mph35.4 kmh 29.67 in1004.7 mb 0.00 in0.0 mm 0.00 in/hr0.0 mm/hr 0.10 in2.5 mm
07:50 PM 45.4°F7.4°C 36.6°F2.6°C 71% 6.0 mph WNW9.7 kmh WNW 22.0 mph35.4 kmh 29.67 in1004.7 mb 0.00 in0.0 mm 0.00 in/hr0.0 mm/hr 0.10 in2.5 mm
07:53 PM 45.2°F7.3°C 36.7°F2.6°C 72% 6.0 mph WNW9.7 kmh WNW 22.0 mph35.4 kmh 29.67 in1004.7 mb 0.00 in0.0 mm 0.00 in/hr0.0 mm/hr 0.10 in2.5 mm
07:54 PM 45.2°F7.3°C 36.7°F2.6°C 72% 5.0 mph WNW8.0 kmh WNW 22.0 mph35.4 kmh 29.67 in1004.7 mb 0.00 in0.0 mm 0.00 in/hr0.0 mm/hr 0.10 in2.5 mm
07:55 PM 45.2°F7.3°C 36.7°F2.6°C 72% 8.0 mph W12.9 kmh W 22.0 mph35.4 kmh 29.67 in1004.7 mb 0.00 in0.0 mm 0.00 in/hr0.0 mm/hr 0.10 in2.5 mm
07:58 PM 45.3°F7.4°C 36.8°F2.7°C 72% 5.0 mph WNW8.0 kmh WNW 22.0 mph35.4 kmh 29.67 in1004.7 mb 0.00 in0.0 mm 0.00 in/hr0.0 mm/hr 0.10 in2.5 mm
07:59 PM 45.3°F7.4°C 36.8°F2.7°C 72% 5.0 mph WNW8.0 kmh WNW 22.0 mph35.4 kmh 29.67 in1004.7 mb 0.00 in0.0 mm 0.00 in/hr0.0 mm/hr 0.10 in2.5 mm
08:00 PM 45.4°F7.4°C 36.9°F2.7°C 72% 9.0 mph NW14.5 kmh NW 11.0 mph17.7 kmh 29.67 in1004.7 mb 0.00 in0.0 mm 0.00 in/hr0.0 mm/hr 0.10 in2.5 mm
08:03 PM 45.5°F7.5°C 37.0°F2.8°C 72% 5.0 mph WNW8.0 kmh WNW 11.0 mph17.7 kmh 29.67 in1004.7 mb 0.00 in0.0 mm 0.00 in/hr0.0 mm/hr 0.10 in2.5 mm
08:04 PM 45.5°F7.5°C 37.0°F2.8°C 72% 3.0 mph WNW4.8 kmh WNW 11.0 mph17.7 kmh 29.67 in1004.7 mb 0.00 in0.0 mm 0.00 in/hr0.0 mm/hr 0.10 in2.5 mm
08:05 PM 45.6°F7.6°C 37.1°F2.8°C 72% 6.0 mph NW9.7 kmh NW 11.0 mph17.7 kmh 29.67 in1004.7 mb 0.00 in0.0 mm 0.00 in/hr0.0 mm/hr 0.10 in2.5 mm
08:08 PM 45.5°F7.5°C 37.0°F2.8°C 72% 5.0 mph NW8.0 kmh NW 12.0 mph19.3 kmh 29.67 in1004.7 mb 0.00 in0.0 mm 0.00 in/hr0.0 mm/hr 0.10 in2.5 mm
08:09 PM 45.5°F7.5°C 37.0°F2.8°C 72% 8.0 mph WNW12.9 kmh WNW 12.0 mph19.3 kmh 29.68 in1005.1 mb 0.00 in0.0 mm 0.00 in/hr0.0 mm/hr 0.10 in2.5 mm
08:10 PM 45.6°F7.6°C 37.1°F2.8°C 72% 7.0 mph NW11.3 kmh NW 12.0 mph19.3 kmh 29.67 in1004.7 mb 0.00 in0.0 mm 0.00 in/hr0.0 mm/hr 0.10 in2.5 mm
08:13 PM 45.5°F7.5°C 37.0°F2.8°C 72% 4.0 mph NW6.4 kmh NW 16.0 mph25.7 kmh 29.68 in1005.1 mb 0.00 in0.0 mm 0.00 in/hr0.0 mm/hr 0.10 in2.5 mm
08:14 PM 45.4°F7.4°C 36.9°F2.7°C 72% 7.0 mph NW11.3 kmh NW 16.0 mph25.7 kmh 29.68 in1005.1 mb 0.00 in0.0 mm 0.00 in/hr0.0 mm/hr 0.10 in2.5 mm
08:15 PM 45.4°F7.4°C 36.9°F2.7°C 72% 5.0 mph NW8.0 kmh NW 16.0 mph25.7 kmh 29.68 in1005.1 mb 0.00 in0.0 mm 0.00 in/hr0.0 mm/hr 0.10 in2.5 mm
08:18 PM 45.3°F7.4°C 36.8°F2.7°C 72% 9.0 mph W14.5 kmh W 16.0 mph25.7 kmh 29.68 in1005.1 mb 0.00 in0.0 mm 0.00 in/hr0.0 mm/hr 0.10 in2.5 mm
08:19 PM 45.3°F7.4°C 36.8°F2.7°C 72% 7.0 mph W11.3 kmh W 16.0 mph25.7 kmh 29.68 in1005.1 mb 0.00 in0.0 mm 0.00 in/hr0.0 mm/hr 0.10 in2.5 mm
08:20 PM 45.2°F7.3°C 36.7°F2.6°C 72% 6.0 mph W9.7 kmh W 16.0 mph25.7 kmh 29.68 in1005.1 mb 0.00 in0.0 mm 0.00 in/hr0.0 mm/hr 0.10 in2.5 mm
08:23 PM 45.2°F7.3°C 37.1°F2.8°C 73% 8.0 mph WNW12.9 kmh WNW 16.0 mph25.7 kmh 29.68 in1005.1 mb 0.00 in0.0 mm 0.00 in/hr0.0 mm/hr 0.10 in2.5 mm
08:24 PM 45.1°F7.3°C 37.0°F2.8°C 73% 9.0 mph WNW14.5 kmh WNW 16.0 mph25.7 kmh 29.68 in1005.1 mb 0.00 in0.0 mm 0.00 in/hr0.0 mm/hr 0.10 in2.5 mm
08:25 PM 45.1°F7.3°C 37.0°F2.8°C 73% 9.0 mph WNW14.5 kmh WNW 16.0 mph25.7 kmh 29.68 in1005.1 mb 0.00 in0.0 mm 0.00 in/hr0.0 mm/hr 0.10 in2.5 mm
08:28 PM 45.1°F7.3°C 37.0°F2.8°C 73% 4.0 mph W6.4 kmh W 16.0 mph25.7 kmh 29.68 in1005.1 mb 0.00 in0.0 mm 0.00 in/hr0.0 mm/hr 0.10 in2.5 mm
08:29 PM 45.1°F7.3°C 37.0°F2.8°C 73% 11.0 mph WNW17.7 kmh WNW 16.0 mph25.7 kmh 29.68 in1005.1 mb 0.00 in0.0 mm 0.00 in/hr0.0 mm/hr 0.10 in2.5 mm
08:30 PM 45.1°F7.3°C 37.0°F2.8°C 73% 8.0 mph W12.9 kmh W 16.0 mph25.7 kmh 29.68 in1005.1 mb 0.00 in0.0 mm 0.00 in/hr0.0 mm/hr 0.10 in2.5 mm
08:33 PM 45.0°F7.2°C 36.9°F2.7°C 73% 6.0 mph W9.7 kmh W 16.0 mph25.7 kmh 29.68 in1005.1 mb 0.00 in0.0 mm 0.00 in/hr0.0 mm/hr 0.10 in2.5 mm
08:34 PM 45.0°F7.2°C 36.9°F2.7°C 73% 8.0 mph W12.9 kmh W 16.0 mph25.7 kmh 29.68 in1005.1 mb 0.00 in0.0 mm 0.00 in/hr0.0 mm/hr 0.10 in2.5 mm
08:35 PM 45.0°F7.2°C 36.9°F2.7°C 73% 7.0 mph WNW11.3 kmh WNW 16.0 mph25.7 kmh 29.68 in1005.1 mb 0.00 in0.0 mm 0.00 in/hr0.0 mm/hr 0.10 in2.5 mm
08:38 PM 45.0°F7.2°C 36.9°F2.7°C 73% 12.0 mph WNW19.3 kmh WNW 16.0 mph25.7 kmh 29.68 in1005.1 mb 0.00 in0.0 mm 0.00 in/hr0.0 mm/hr 0.10 in2.5 mm
08:39 PM 45.0°F7.2°C 36.9°F2.7°C 73% 5.0 mph W8.0 kmh W 16.0 mph25.7 kmh 29.68 in1005.1 mb 0.00 in0.0 mm 0.00 in/hr0.0 mm/hr 0.10 in2.5 mm
08:40 PM 45.0°F7.2°C 36.9°F2.7°C 73% 6.0 mph W9.7 kmh W 16.0 mph25.7 kmh 29.68 in1005.1 mb 0.00 in0.0 mm 0.00 in/hr0.0 mm/hr 0.10 in2.5 mm
08:43 PM 45.2°F7.3°C 37.4°F3.0°C 74% 6.0 mph WNW9.7 kmh WNW 16.0 mph25.7 kmh 29.68 in1005.1 mb 0.00 in0.0 mm 0.00 in/hr0.0 mm/hr 0.10 in2.5 mm
08:44 PM 45.2°F7.3°C 37.4°F3.0°C 74% 4.0 mph WNW6.4 kmh WNW 16.0 mph25.7 kmh 29.68 in1005.1 mb 0.00 in0.0 mm 0.00 in/hr0.0 mm/hr 0.10 in2.5 mm
08:45 PM 45.2°F7.3°C 37.4°F3.0°C 74% 9.0 mph WNW14.5 kmh WNW 16.0 mph25.7 kmh 29.68 in1005.1 mb 0.00 in0.0 mm 0.00 in/hr0.0 mm/hr 0.10 in2.5 mm
08:48 PM 45.1°F7.3°C 37.0°F2.8°C 73% 8.0 mph WNW12.9 kmh WNW 16.0 mph25.7 kmh 29.68 in1005.1 mb 0.00 in0.0 mm 0.00 in/hr0.0 mm/hr 0.10 in2.5 mm
08:49 PM 45.1°F7.3°C 37.0°F2.8°C 73% 4.0 mph WNW6.4 kmh WNW 16.0 mph25.7 kmh 29.68 in1005.1 mb 0.00 in0.0 mm 0.00 in/hr0.0 mm/hr 0.10 in2.5 mm
08:50 PM 45.1°F7.3°C 37.0°F2.8°C 73% 11.0 mph WNW17.7 kmh WNW 16.0 mph25.7 kmh 29.69 in1005.4 mb 0.00 in0.0 mm 0.00 in/hr0.0 mm/hr 0.10 in2.5 mm
08:53 PM 45.1°F7.3°C 37.0°F2.8°C 73% 3.0 mph WNW4.8 kmh WNW 16.0 mph25.7 kmh 29.69 in1005.4 mb 0.00 in0.0 mm 0.00 in/hr0.0 mm/hr 0.10 in2.5 mm
08:54 PM 45.1°F7.3°C 37.3°F2.9°C 74% 9.0 mph NW14.5 kmh NW 16.0 mph25.7 kmh 29.69 in1005.4 mb 0.00 in0.0 mm 0.00 in/hr0.0 mm/hr 0.10 in2.5 mm
08:55 PM 45.1°F7.3°C 37.0°F2.8°C 73% 5.0 mph NW8.0 kmh NW 16.0 mph25.7 kmh 29.69 in1005.4 mb 0.00 in0.0 mm 0.00 in/hr0.0 mm/hr 0.10 in2.5 mm
08:58 PM 45.1°F7.3°C 37.0°F2.8°C 73% 2.0 mph NW3.2 kmh NW 16.0 mph25.7 kmh 29.69 in1005.4 mb 0.00 in0.0 mm 0.00 in/hr0.0 mm/hr 0.10 in2.5 mm
08:59 PM 45.1°F7.3°C 37.3°F2.9°C 74% 4.0 mph NW6.4 kmh NW 16.0 mph25.7 kmh 29.69 in1005.4 mb 0.00 in0.0 mm 0.00 in/hr0.0 mm/hr 0.10 in2.5 mm
09:00 PM 45.2°F7.3°C 37.4°F3.0°C 74% 5.0 mph NW8.0 kmh NW 5.0 mph8.0 kmh 29.69 in1005.4 mb 0.00 in0.0 mm 0.00 in/hr0.0 mm/hr 0.10 in2.5 mm
09:03 PM 45.2°F7.3°C 37.4°F3.0°C 74% 11.0 mph WNW17.7 kmh WNW 11.0 mph17.7 kmh 29.69 in1005.4 mb 0.00 in0.0 mm 0.00 in/hr0.0 mm/hr 0.10 in2.5 mm
09:04 PM 45.2°F7.3°C 37.1°F2.8°C 73% 2.0 mph WNW3.2 kmh WNW 11.0 mph17.7 kmh 29.69 in1005.4 mb 0.00 in0.0 mm 0.00 in/hr0.0 mm/hr 0.10 in2.5 mm
09:05 PM 45.2°F7.3°C 37.1°F2.8°C 73% 7.0 mph WNW11.3 kmh WNW 11.0 mph17.7 kmh 29.69 in1005.4 mb 0.00 in0.0 mm 0.00 in/hr0.0 mm/hr 0.10 in2.5 mm
09:08 PM 45.2°F7.3°C 37.1°F2.8°C 73% 7.0 mph W11.3 kmh W 13.0 mph20.9 kmh 29.69 in1005.4 mb 0.00 in0.0 mm 0.00 in/hr0.0 mm/hr 0.10 in2.5 mm
09:09 PM 45.1°F7.3°C 37.0°F2.8°C 73% 7.0 mph W11.3 kmh W 13.0 mph20.9 kmh 29.69 in1005.4 mb 0.00 in0.0 mm 0.00 in/hr0.0 mm/hr 0.10 in2.5 mm
09:10 PM 45.1°F7.3°C 37.0°F2.8°C 73% 5.0 mph W8.0 kmh W 13.0 mph20.9 kmh 29.69 in1005.4 mb 0.00 in0.0 mm 0.00 in/hr0.0 mm/hr 0.10 in2.5 mm
09:13 PM 45.1°F7.3°C 37.0°F2.8°C 73% 4.0 mph W6.4 kmh W 13.0 mph20.9 kmh 29.69 in1005.4 mb 0.00 in0.0 mm 0.00 in/hr0.0 mm/hr 0.10 in2.5 mm
09:14 PM 45.1°F7.3°C 37.0°F2.8°C 73% 8.0 mph W12.9 kmh W 13.0 mph20.9 kmh 29.69 in1005.4 mb 0.00 in0.0 mm 0.00 in/hr0.0 mm/hr 0.10 in2.5 mm
09:15 PM 45.1°F7.3°C 37.0°F2.8°C 73% 4.0 mph W6.4 kmh W 13.0 mph20.9 kmh 29.69 in1005.4 mb 0.00 in0.0 mm 0.00 in/hr0.0 mm/hr 0.10 in2.5 mm
09:18 PM 45.1°F7.3°C 37.0°F2.8°C 73% 7.0 mph W11.3 kmh W 13.0 mph20.9 kmh 29.69 in1005.4 mb 0.00 in0.0 mm 0.00 in/hr0.0 mm/hr 0.10 in2.5 mm
09:19 PM 45.1°F7.3°C 37.0°F2.8°C 73% 5.0 mph W8.0 kmh W 13.0 mph20.9 kmh 29.69 in1005.4 mb 0.00 in0.0 mm 0.00 in/hr0.0 mm/hr 0.10 in2.5 mm
09:20 PM 45.2°F7.3°C 37.1°F2.8°C 73% 5.0 mph W8.0 kmh W 13.0 mph20.9 kmh 29.69 in1005.4 mb 0.00 in0.0 mm 0.00 in/hr0.0 mm/hr 0.10 in2.5 mm
09:23 PM 45.3°F7.4°C 37.2°F2.9°C 73% 4.0 mph W6.4 kmh W 13.0 mph20.9 kmh 29.70 in1005.8 mb 0.00 in0.0 mm 0.00 in/hr0.0 mm/hr 0.10 in2.5 mm
09:24 PM 45.3°F7.4°C 37.2°F2.9°C 73% 7.0 mph W11.3 kmh W 13.0 mph20.9 kmh 29.70 in1005.8 mb 0.00 in0.0 mm 0.00 in/hr0.0 mm/hr 0.10 in2.5 mm
09:25 PM 45.3°F7.4°C 37.2°F2.9°C 73% 8.0 mph NW12.9 kmh NW 13.0 mph20.9 kmh 29.69 in1005.4 mb 0.00 in0.0 mm 0.00 in/hr0.0 mm/hr 0.10 in2.5 mm
09:28 PM 45.3°F7.4°C 37.2°F2.9°C 73% 11.0 mph NW17.7 kmh NW 13.0 mph20.9 kmh 29.69 in1005.4 mb 0.00 in0.0 mm 0.00 in/hr0.0 mm/hr 0.10 in2.5 mm
09:29 PM 45.3°F7.4°C 37.2°F2.9°C 73% 9.0 mph W14.5 kmh W 15.0 mph24.1 kmh 29.70 in1005.8 mb 0.00 in0.0 mm 0.00 in/hr0.0 mm/hr 0.10 in2.5 mm
09:30 PM 45.2°F7.3°C 37.1°F2.8°C 73% 12.0 mph W19.3 kmh W 15.0 mph24.1 kmh 29.70 in1005.8 mb 0.00 in0.0 mm 0.00 in/hr0.0 mm/hr 0.10 in2.5 mm
09:33 PM 45.2°F7.3°C 37.1°F2.8°C 73% 6.0 mph WNW9.7 kmh WNW 15.0 mph24.1 kmh 29.70 in1005.8 mb 0.00 in0.0 mm 0.00 in/hr0.0 mm/hr 0.10 in2.5 mm
09:34 PM 45.2°F7.3°C 37.1°F2.8°C 73% 5.0 mph WNW8.0 kmh WNW 15.0 mph24.1 kmh 29.70 in1005.8 mb 0.00 in0.0 mm 0.00 in/hr0.0 mm/hr 0.10 in2.5 mm
09:35 PM 45.1°F7.3°C 37.0°F2.8°C 73% 8.0 mph WNW12.9 kmh WNW 15.0 mph24.1 kmh 29.70 in1005.8 mb 0.00 in0.0 mm 0.00 in/hr0.0 mm/hr 0.10 in2.5 mm
09:38 PM 45.2°F7.3°C 37.1°F2.8°C 73% 6.0 mph WNW9.7 kmh WNW 15.0 mph24.1 kmh 29.70 in1005.8 mb 0.00 in0.0 mm 0.00 in/hr0.0 mm/hr 0.10 in2.5 mm
09:39 PM 45.2°F7.3°C 37.1°F2.8°C 73% 3.0 mph W4.8 kmh W 15.0 mph24.1 kmh 29.70 in1005.8 mb 0.00 in0.0 mm 0.00 in/hr0.0 mm/hr 0.10 in2.5 mm
09:40 PM 45.3°F7.4°C 37.2°F2.9°C 73% 6.0 mph W9.7 kmh W 15.0 mph24.1 kmh 29.70 in1005.8 mb 0.00 in0.0 mm 0.00 in/hr0.0 mm/hr 0.10 in2.5 mm
09:43 PM 45.3°F7.4°C 37.2°F2.9°C 73% 8.0 mph W12.9 kmh W 15.0 mph24.1 kmh 29.70 in1005.8 mb 0.00 in0.0 mm 0.00 in/hr0.0 mm/hr 0.10 in2.5 mm
09:44 PM 45.3°F7.4°C 37.2°F2.9°C 73% 10.0 mph WNW16.1 kmh WNW 15.0 mph24.1 kmh 29.70 in1005.8 mb 0.00 in0.0 mm 0.00 in/hr0.0 mm/hr 0.10 in2.5 mm
09:45 PM 45.3°F7.4°C 37.2°F2.9°C 73% 3.0 mph WNW4.8 kmh WNW 15.0 mph24.1 kmh 29.70 in1005.8 mb 0.00 in0.0 mm 0.00 in/hr0.0 mm/hr 0.10 in2.5 mm
09:48 PM 45.2°F7.3°C 36.7°F2.6°C 72% 9.0 mph WNW14.5 kmh WNW 15.0 mph24.1 kmh 29.70 in1005.8 mb 0.00 in0.0 mm 0.00 in/hr0.0 mm/hr 0.10 in2.5 mm
09:49 PM 45.2°F7.3°C 36.7°F2.6°C 72% 6.0 mph WNW9.7 kmh WNW 15.0 mph24.1 kmh 29.70 in1005.8 mb 0.00 in0.0 mm 0.00 in/hr0.0 mm/hr 0.10 in2.5 mm
09:50 PM 45.2°F7.3°C 37.1°F2.8°C 73% 7.0 mph WNW11.3 kmh WNW 15.0 mph24.1 kmh 29.70 in1005.8 mb 0.00 in0.0 mm 0.00 in/hr0.0 mm/hr 0.10 in2.5 mm
09:53 PM 45.2°F7.3°C 37.1°F2.8°C 73% 5.0 mph WNW8.0 kmh WNW 15.0 mph24.1 kmh 29.70 in1005.8 mb 0.00 in0.0 mm 0.00 in/hr0.0 mm/hr 0.10 in2.5 mm
09:54 PM 45.2°F7.3°C 36.7°F2.6°C 72% 3.0 mph WNW4.8 kmh WNW 15.0 mph24.1 kmh 29.70 in1005.8 mb 0.00 in0.0 mm 0.00 in/hr0.0 mm/hr 0.10 in2.5 mm
09:55 PM 45.2°F7.3°C 36.7°F2.6°C 72% 7.0 mph W11.3 kmh W 15.0 mph24.1 kmh 29.70 in1005.8 mb 0.00 in0.0 mm 0.00 in/hr0.0 mm/hr 0.10 in2.5 mm
09:58 PM 45.2°F7.3°C 36.7°F2.6°C 72% 10.0 mph WNW16.1 kmh WNW 15.0 mph24.1 kmh 29.70 in1005.8 mb 0.00 in0.0 mm 0.00 in/hr0.0 mm/hr 0.10 in2.5 mm
09:59 PM 45.1°F7.3°C 36.6°F2.6°C 72% 7.0 mph WNW11.3 kmh WNW 15.0 mph24.1 kmh 29.70 in1005.8 mb 0.00 in0.0 mm 0.00 in/hr0.0 mm/hr 0.10 in2.5 mm
10:00 PM 45.1°F7.3°C 36.6°F2.6°C 72% 7.0 mph WNW11.3 kmh WNW 7.0 mph11.3 kmh 29.70 in1005.8 mb 0.00 in0.0 mm 0.00 in/hr0.0 mm/hr 0.10 in2.5 mm
10:03 PM 45.2°F7.3°C 36.7°F2.6°C 72% 4.0 mph WNW6.4 kmh WNW 11.0 mph17.7 kmh 29.70 in1005.8 mb 0.00 in0.0 mm 0.00 in/hr0.0 mm/hr 0.10 in2.5 mm
10:04 PM 45.2°F7.3°C 36.7°F2.6°C 72% 5.0 mph NW8.0 kmh NW 11.0 mph17.7 kmh 29.70 in1005.8 mb 0.00 in0.0 mm 0.00 in/hr0.0 mm/hr 0.10 in2.5 mm
10:05 PM 45.2°F7.3°C 36.7°F2.6°C 72% 6.0 mph NW9.7 kmh NW 11.0 mph17.7 kmh 29.70 in1005.8 mb 0.00 in0.0 mm 0.00 in/hr0.0 mm/hr 0.10 in2.5 mm
10:08 PM 45.2°F7.3°C 36.7°F2.6°C 72% 6.0 mph NW9.7 kmh NW 11.0 mph17.7 kmh 29.70 in1005.8 mb 0.00 in0.0 mm 0.00 in/hr0.0 mm/hr 0.10 in2.5 mm
10:09 PM 45.2°F7.3°C 36.7°F2.6°C 72% 4.0 mph NW6.4 kmh NW 11.0 mph17.7 kmh 29.70 in1005.8 mb 0.00 in0.0 mm 0.00 in/hr0.0 mm/hr 0.10 in2.5 mm
10:10 PM 45.2°F7.3°C 36.7°F2.6°C 72% 13.0 mph NW20.9 kmh NW 13.0 mph20.9 kmh 29.70 in1005.8 mb 0.00 in0.0 mm 0.00 in/hr0.0 mm/hr 0.10 in2.5 mm
10:13 PM 45.0°F7.2°C 36.5°F2.5°C 72% 12.0 mph W19.3 kmh W 14.0 mph22.5 kmh 29.70 in1005.8 mb 0.00 in0.0 mm 0.00 in/hr0.0 mm/hr 0.10 in2.5 mm
10:14 PM 45.0°F7.2°C 36.5°F2.5°C 72% 5.0 mph W8.0 kmh W 14.0 mph22.5 kmh 29.71 in1006.1 mb 0.00 in0.0 mm 0.00 in/hr0.0 mm/hr 0.10 in2.5 mm
10:15 PM 45.0°F7.2°C 36.5°F2.5°C 72% 5.0 mph NW8.0 kmh NW 14.0 mph22.5 kmh 29.70 in1005.8 mb 0.00 in0.0 mm 0.00 in/hr0.0 mm/hr 0.10 in2.5 mm
10:18 PM 44.9°F7.2°C 36.4°F2.4°C 72% 10.0 mph NW16.1 kmh NW 14.0 mph22.5 kmh 29.70 in1005.8 mb 0.00 in0.0 mm 0.00 in/hr0.0 mm/hr 0.10 in2.5 mm
10:19 PM 44.9°F7.2°C 36.4°F2.4°C 72% 9.0 mph WNW14.5 kmh WNW 14.0 mph22.5 kmh 29.71 in1006.1 mb 0.00 in0.0 mm 0.00 in/hr0.0 mm/hr 0.10 in2.5 mm
10:20 PM 44.9°F7.2°C 36.4°F2.4°C 72% 6.0 mph W9.7 kmh W 14.0 mph22.5 kmh 29.71 in1006.1 mb 0.00 in0.0 mm 0.00 in/hr0.0 mm/hr 0.10 in2.5 mm
10:23 PM 45.0°F7.2°C 36.5°F2.5°C 72% 2.0 mph WNW3.2 kmh WNW 14.0 mph22.5 kmh 29.71 in1006.1 mb 0.00 in0.0 mm 0.00 in/hr0.0 mm/hr 0.10 in2.5 mm
10:24 PM 45.0°F7.2°C 36.5°F2.5°C 72% 7.0 mph NW11.3 kmh NW 14.0 mph22.5 kmh 29.71 in1006.1 mb 0.00 in0.0 mm 0.00 in/hr0.0 mm/hr 0.10 in2.5 mm
10:25 PM 45.0°F7.2°C 36.5°F2.5°C 72% 4.0 mph NW6.4 kmh NW 14.0 mph22.5 kmh 29.71 in1006.1 mb 0.00 in0.0 mm 0.00 in/hr0.0 mm/hr 0.10 in2.5 mm
10:28 PM 44.9°F7.2°C 36.4°F2.4°C 72% 3.0 mph WNW4.8 kmh WNW 14.0 mph22.5 kmh 29.71 in1006.1 mb 0.00 in0.0 mm 0.00 in/hr0.0 mm/hr 0.10 in2.5 mm
10:29 PM 44.9°F7.2°C 36.4°F2.4°C 72% 3.0 mph WNW4.8 kmh WNW 14.0 mph22.5 kmh 29.71 in1006.1 mb 0.00 in0.0 mm 0.00 in/hr0.0 mm/hr 0.10 in2.5 mm
10:30 PM 44.9°F7.2°C 36.4°F2.4°C 72% 8.0 mph WNW12.9 kmh WNW 14.0 mph22.5 kmh 29.71 in1006.1 mb 0.00 in0.0 mm 0.00 in/hr0.0 mm/hr 0.10 in2.5 mm
10:33 PM 44.8°F7.1°C 36.3°F2.4°C 72% 7.0 mph NW11.3 kmh NW 14.0 mph22.5 kmh 29.71 in1006.1 mb 0.00 in0.0 mm 0.00 in/hr0.0 mm/hr 0.10 in2.5 mm
10:34 PM 44.8°F7.1°C 36.3°F2.4°C 72% 6.0 mph WNW9.7 kmh WNW 14.0 mph22.5 kmh 29.71 in1006.1 mb 0.00 in0.0 mm 0.00 in/hr0.0 mm/hr 0.10 in2.5 mm
10:35 PM 44.8°F7.1°C 36.3°F2.4°C 72% 6.0 mph WNW9.7 kmh WNW 14.0 mph22.5 kmh 29.71 in1006.1 mb 0.00 in0.0 mm 0.00 in/hr0.0 mm/hr 0.10 in2.5 mm
10:38 PM 44.8°F7.1°C 36.3°F2.4°C 72% 6.0 mph WNW9.7 kmh WNW 14.0 mph22.5 kmh 29.71 in1006.1 mb 0.00 in0.0 mm 0.00 in/hr0.0 mm/hr 0.10 in2.5 mm
10:39 PM 44.8°F7.1°C 36.3°F2.4°C 72% 5.0 mph WNW8.0 kmh WNW 14.0 mph22.5 kmh 29.71 in1006.1 mb 0.00 in0.0 mm 0.00 in/hr0.0 mm/hr 0.10 in2.5 mm
10:40 PM 44.8°F7.1°C 36.3°F2.4°C 72% 6.0 mph WNW9.7 kmh WNW 14.0 mph22.5 kmh 29.71 in1006.1 mb 0.00 in0.0 mm 0.00 in/hr0.0 mm/hr 0.10 in2.5 mm
10:43 PM 44.9°F7.2°C 36.4°F2.4°C 72% 6.0 mph WNW9.7 kmh WNW 14.0 mph22.5 kmh 29.71 in1006.1 mb 0.00 in0.0 mm 0.00 in/hr0.0 mm/hr 0.10 in2.5 mm
10:44 PM 44.8°F7.1°C 36.3°F2.4°C 72% 10.0 mph WNW16.1 kmh WNW 14.0 mph22.5 kmh 29.71 in1006.1 mb 0.00 in0.0 mm 0.00 in/hr0.0 mm/hr 0.10 in2.5 mm
10:45 PM 44.7°F7.1°C 36.2°F2.3°C 72% 5.0 mph WSW8.0 kmh WSW 15.0 mph24.1 kmh 29.71 in1006.1 mb 0.00 in0.0 mm 0.00 in/hr0.0 mm/hr 0.10 in2.5 mm
10:48 PM 44.7°F7.1°C 36.2°F2.3°C 72% 9.0 mph W14.5 kmh W 15.0 mph24.1 kmh 29.71 in1006.1 mb 0.00 in0.0 mm 0.00 in/hr0.0 mm/hr 0.10 in2.5 mm
10:49 PM 44.7°F7.1°C 36.2°F2.3°C 72% 8.0 mph NW12.9 kmh NW 15.0 mph24.1 kmh 29.71 in1006.1 mb 0.00 in0.0 mm 0.00 in/hr0.0 mm/hr 0.10 in2.5 mm
10:50 PM 44.6°F7.0°C 36.2°F2.3°C 72% 8.0 mph W12.9 kmh W 15.0 mph24.1 kmh 29.71 in1006.1 mb 0.00 in0.0 mm 0.00 in/hr0.0 mm/hr 0.10 in2.5 mm
10:53 PM 44.5°F6.9°C 36.4°F2.4°C 73% 7.0 mph WNW11.3 kmh WNW 15.0 mph24.1 kmh 29.71 in1006.1 mb 0.00 in0.0 mm 0.00 in/hr0.0 mm/hr 0.10 in2.5 mm
10:54 PM 44.6°F7.0°C 36.5°F2.5°C 73% 4.0 mph WNW6.4 kmh WNW 15.0 mph24.1 kmh 29.71 in1006.1 mb 0.00 in0.0 mm 0.00 in/hr0.0 mm/hr 0.10 in2.5 mm
10:55 PM 44.6°F7.0°C 36.5°F2.5°C 73% 11.0 mph WNW17.7 kmh WNW 15.0 mph24.1 kmh 29.71 in1006.1 mb 0.00 in0.0 mm 0.00 in/hr0.0 mm/hr 0.10 in2.5 mm
10:58 PM 44.5°F6.9°C 36.4°F2.4°C 73% 6.0 mph NW9.7 kmh NW 15.0 mph24.1 kmh 29.71 in1006.1 mb 0.00 in0.0 mm 0.00 in/hr0.0 mm/hr 0.10 in2.5 mm
10:59 PM 44.5°F6.9°C 36.4°F2.4°C 73% 12.0 mph NW19.3 kmh NW 15.0 mph24.1 kmh 29.71 in1006.1 mb 0.00 in0.0 mm 0.00 in/hr0.0 mm/hr 0.10 in2.5 mm
11:00 PM 44.4°F6.9°C 36.3°F2.4°C 73% 5.0 mph NW8.0 kmh NW 5.0 mph8.0 kmh 29.71 in1006.1 mb 0.00 in0.0 mm 0.00 in/hr0.0 mm/hr 0.10 in2.5 mm
11:03 PM 44.4°F6.9°C 36.3°F2.4°C 73% 6.0 mph NW9.7 kmh NW 8.0 mph12.9 kmh 29.71 in1006.1 mb 0.00 in0.0 mm 0.00 in/hr0.0 mm/hr 0.10 in2.5 mm
11:04 PM 44.5°F6.9°C 36.4°F2.4°C 73% 5.0 mph NW8.0 kmh NW 8.0 mph12.9 kmh 29.72 in1006.4 mb 0.00 in0.0 mm 0.00 in/hr0.0 mm/hr 0.10 in2.5 mm
11:05 PM 44.5°F6.9°C 36.4°F2.4°C 73% 5.0 mph NW8.0 kmh NW 12.0 mph19.3 kmh 29.71 in1006.1 mb 0.00 in0.0 mm 0.00 in/hr0.0 mm/hr 0.10 in2.5 mm
11:08 PM 44.4°F6.9°C 36.3°F2.4°C 73% 4.0 mph WNW6.4 kmh WNW 13.0 mph20.9 kmh 29.71 in1006.1 mb 0.00 in0.0 mm 0.00 in/hr0.0 mm/hr 0.10 in2.5 mm
11:09 PM 44.4°F6.9°C 36.3°F2.4°C 73% 4.0 mph WNW6.4 kmh WNW 13.0 mph20.9 kmh 29.71 in1006.1 mb 0.00 in0.0 mm 0.00 in/hr0.0 mm/hr 0.10 in2.5 mm
11:10 PM 44.4°F6.9°C 36.3°F2.4°C 73% 6.0 mph WNW9.7 kmh WNW 13.0 mph20.9 kmh 29.71 in1006.1 mb 0.00 in0.0 mm 0.00 in/hr0.0 mm/hr 0.10 in2.5 mm
11:13 PM 44.4°F6.9°C 36.3°F2.4°C 73% 6.0 mph WNW9.7 kmh WNW 13.0 mph20.9 kmh 29.71 in1006.1 mb 0.00 in0.0 mm 0.00 in/hr0.0 mm/hr 0.10 in2.5 mm
11:14 PM 44.4°F6.9°C 36.3°F2.4°C 73% 10.0 mph W16.1 kmh W 13.0 mph20.9 kmh 29.71 in1006.1 mb 0.00 in0.0 mm 0.00 in/hr0.0 mm/hr 0.10 in2.5 mm
11:15 PM 44.4°F6.9°C 36.3°F2.4°C 73% 5.0 mph W8.0 kmh W 13.0 mph20.9 kmh 29.71 in1006.1 mb 0.00 in0.0 mm 0.00 in/hr0.0 mm/hr 0.10 in2.5 mm
11:18 PM 44.4°F6.9°C 36.7°F2.6°C 74% 6.0 mph W9.7 kmh W 13.0 mph20.9 kmh 29.71 in1006.1 mb 0.00 in0.0 mm 0.00 in/hr0.0 mm/hr 0.10 in2.5 mm
11:19 PM 44.4°F6.9°C 36.7°F2.6°C 74% 6.0 mph W9.7 kmh W 13.0 mph20.9 kmh 29.71 in1006.1 mb 0.00 in0.0 mm 0.00 in/hr0.0 mm/hr 0.10 in2.5 mm
11:20 PM 44.4°F6.9°C 36.7°F2.6°C 74% 8.0 mph NW12.9 kmh NW 13.0 mph20.9 kmh 29.71 in1006.1 mb 0.00 in0.0 mm 0.00 in/hr0.0 mm/hr 0.10 in2.5 mm
11:23 PM 44.4°F6.9°C 36.7°F2.6°C 74% 6.0 mph WNW9.7 kmh WNW 13.0 mph20.9 kmh 29.71 in1006.1 mb 0.00 in0.0 mm 0.00 in/hr0.0 mm/hr 0.10 in2.5 mm
11:24 PM 44.4°F6.9°C 36.7°F2.6°C 74% 7.0 mph NW11.3 kmh NW 13.0 mph20.9 kmh 29.71 in1006.1 mb 0.00 in0.0 mm 0.00 in/hr0.0 mm/hr 0.10 in2.5 mm
11:25 PM 44.4°F6.9°C 36.7°F2.6°C 74% 8.0 mph NW12.9 kmh NW 13.0 mph20.9 kmh 29.71 in1006.1 mb 0.00 in0.0 mm 0.00 in/hr0.0 mm/hr 0.10 in2.5 mm
11:28 PM 44.4°F6.9°C 36.7°F2.6°C 74% 7.0 mph WNW11.3 kmh WNW 13.0 mph20.9 kmh 29.71 in1006.1 mb 0.00 in0.0 mm 0.00 in/hr0.0 mm/hr 0.10 in2.5 mm
11:29 PM 44.4°F6.9°C 36.7°F2.6°C 74% 7.0 mph W11.3 kmh W 13.0 mph20.9 kmh 29.71 in1006.1 mb 0.00 in0.0 mm 0.00 in/hr0.0 mm/hr 0.10 in2.5 mm
11:30 PM 44.3°F6.8°C 36.6°F2.6°C 74% 6.0 mph WNW9.7 kmh WNW 13.0 mph20.9 kmh 29.70 in1005.8 mb 0.00 in0.0 mm 0.00 in/hr0.0 mm/hr 0.10 in2.5 mm
11:33 PM 44.3°F6.8°C 36.6°F2.6°C 74% 5.0 mph WNW8.0 kmh WNW 13.0 mph20.9 kmh 29.71 in1006.1 mb 0.00 in0.0 mm 0.00 in/hr0.0 mm/hr 0.10 in2.5 mm
11:34 PM 44.3°F6.8°C 36.6°F2.6°C 74% 9.0 mph WNW14.5 kmh WNW 13.0 mph20.9 kmh 29.71 in1006.1 mb 0.00 in0.0 mm 0.00 in/hr0.0 mm/hr 0.10 in2.5 mm
11:35 PM 44.3°F6.8°C 36.6°F2.6°C 74% 3.0 mph WNW4.8 kmh WNW 13.0 mph20.9 kmh 29.70 in1005.8 mb 0.00 in0.0 mm 0.00 in/hr0.0 mm/hr 0.10 in2.5 mm
11:38 PM 44.3°F6.8°C 36.6°F2.6°C 74% 8.0 mph WNW12.9 kmh WNW 13.0 mph20.9 kmh 29.70 in1005.8 mb 0.00 in0.0 mm 0.00 in/hr0.0 mm/hr 0.10 in2.5 mm
11:39 PM 44.3°F6.8°C 36.6°F2.6°C 74% 9.0 mph WNW14.5 kmh WNW 13.0 mph20.9 kmh 29.70 in1005.8 mb 0.00 in0.0 mm 0.00 in/hr0.0 mm/hr 0.10 in2.5 mm
11:40 PM 44.3°F6.8°C 36.6°F2.6°C 74% 5.0 mph WNW8.0 kmh WNW 13.0 mph20.9 kmh 29.70 in1005.8 mb 0.00 in0.0 mm 0.00 in/hr0.0 mm/hr 0.10 in2.5 mm
11:43 PM 44.4°F6.9°C 37.0°F2.8°C 75% 4.0 mph NW6.4 kmh NW 13.0 mph20.9 kmh 29.70 in1005.8 mb 0.00 in0.0 mm 0.00 in/hr0.0 mm/hr 0.10 in2.5 mm
11:44 PM 44.4°F6.9°C 37.0°F2.8°C 75% 4.0 mph NW6.4 kmh NW 13.0 mph20.9 kmh 29.70 in1005.8 mb 0.00 in0.0 mm 0.00 in/hr0.0 mm/hr 0.10 in2.5 mm
11:45 PM 44.4°F6.9°C 37.0°F2.8°C 75% 6.0 mph WNW9.7 kmh WNW 13.0 mph20.9 kmh 29.70 in1005.8 mb 0.00 in0.0 mm 0.00 in/hr0.0 mm/hr 0.10 in2.5 mm
11:48 PM 44.4°F6.9°C 37.0°F2.8°C 75% 5.0 mph WNW8.0 kmh WNW 13.0 mph20.9 kmh 29.70 in1005.8 mb 0.00 in0.0 mm 0.00 in/hr0.0 mm/hr 0.10 in2.5 mm
11:49 PM 44.4°F6.9°C 37.0°F2.8°C 75% 5.0 mph WNW8.0 kmh WNW 13.0 mph20.9 kmh 29.70 in1005.8 mb 0.00 in0.0 mm 0.00 in/hr0.0 mm/hr 0.10 in2.5 mm
11:50 PM 44.4°F6.9°C 37.0°F2.8°C 75% 6.0 mph WNW9.7 kmh WNW 13.0 mph20.9 kmh 29.70 in1005.8 mb 0.00 in0.0 mm 0.00 in/hr0.0 mm/hr 0.10 in2.5 mm
11:53 PM 44.4°F6.9°C 37.0°F2.8°C 75% 4.0 mph W6.4 kmh W 13.0 mph20.9 kmh 29.70 in1005.8 mb 0.00 in0.0 mm 0.00 in/hr0.0 mm/hr 0.10 in2.5 mm
11:54 PM 44.3°F6.8°C 36.9°F2.7°C 75% 3.0 mph W4.8 kmh W 13.0 mph20.9 kmh 29.70 in1005.8 mb 0.00 in0.0 mm 0.00 in/hr0.0 mm/hr 0.10 in2.5 mm
11:55 PM 44.3°F6.8°C 36.9°F2.7°C 75% 7.0 mph WNW11.3 kmh WNW 13.0 mph20.9 kmh 29.70 in1005.8 mb 0.00 in0.0 mm 0.00 in/hr0.0 mm/hr 0.10 in2.5 mm
11:58 PM 44.3°F6.8°C 36.9°F2.7°C 75% 9.0 mph WNW14.5 kmh WNW 13.0 mph20.9 kmh 29.70 in1005.8 mb 0.00 in0.0 mm 0.00 in/hr0.0 mm/hr 0.10 in2.5 mm
11:59 PM 44.3°F6.8°C 36.9°F2.7°C 75% 9.0 mph WNW14.5 kmh WNW 13.0 mph20.9 kmh 29.71 in1006.1 mb 0.00 in0.0 mm 0.00 in/hr0.0 mm/hr 0.10 in2.5 mm